<?xml version="1.0" encoding="UTF-8" standalone="no" ?>
<gpx xmlns="http://www.topografix.com/GPX/1/1" xmlns:xsi="http://www.w3.org/2001/XMLSchema-instance" xsi:schemaLocation="http://www.topografix.com/GPX/1/1 http://www.topografix.com/GPX/1/1/gpx.xsd" version="1.1" creator="VisuGPX - https://www.visugpx.com">
  <metadata>
    <name>Gap-Batie Vieille-Rambaud-VTC</name>
    <desc><![CDATA[Circuit d'entrainement en début de saison pour seniors sur Gap sur chemins et sentiers]]></desc>
  </metadata>
  <trk>
    <name><![CDATA[Rambaud.]]></name>
    <trkseg>
      <trkpt lat="44.55542" lon="6.06947">
        <ele>742.71</ele>
        <time>2016-04-10T14:32:09Z</time>
      </trkpt>
      <trkpt lat="44.55542" lon="6.06947">
        <ele>742.71</ele>
        <time>2016-04-10T14:32:10Z</time>
      </trkpt>
      <trkpt lat="44.55537" lon="6.06965">
        <ele>746.41</ele>
        <time>2016-04-10T14:32:16Z</time>
      </trkpt>
      <trkpt lat="44.55536" lon="6.06974">
        <ele>749.56</ele>
        <time>2016-04-10T14:32:23Z</time>
      </trkpt>
      <trkpt lat="44.5555" lon="6.06958">
        <ele>750.32</ele>
        <time>2016-04-10T14:33:33Z</time>
      </trkpt>
      <trkpt lat="44.5555" lon="6.06956">
        <ele>750.32</ele>
        <time>2016-04-10T14:33:34Z</time>
      </trkpt>
      <trkpt lat="44.55548" lon="6.06961">
        <ele>750.46</ele>
        <time>2016-04-10T14:33:46Z</time>
      </trkpt>
      <trkpt lat="44.55549" lon="6.0696">
        <ele>750.38</ele>
        <time>2016-04-10T14:34:14Z</time>
      </trkpt>
      <trkpt lat="44.56777" lon="6.09687">
        <ele>762.76</ele>
        <time>2016-04-12T06:50:03Z</time>
      </trkpt>
      <trkpt lat="44.56777" lon="6.09687">
        <ele>762.77</ele>
        <time>2016-04-12T06:50:05Z</time>
      </trkpt>
      <trkpt lat="44.56783" lon="6.09676">
        <ele>762.12</ele>
        <time>2016-04-12T06:51:17Z</time>
      </trkpt>
      <trkpt lat="44.56785" lon="6.09676">
        <ele>761.97</ele>
        <time>2016-04-12T06:52:32Z</time>
      </trkpt>
      <trkpt lat="44.56784" lon="6.09676">
        <ele>761.21</ele>
        <time>2016-04-12T06:53:09Z</time>
      </trkpt>
      <trkpt lat="44.56784" lon="6.09678">
        <ele>761.14</ele>
        <time>2016-04-12T06:53:53Z</time>
      </trkpt>
      <trkpt lat="44.56785" lon="6.09677">
        <ele>760.55</ele>
        <time>2016-04-12T06:54:59Z</time>
      </trkpt>
      <trkpt lat="44.56785" lon="6.09676">
        <ele>759.64</ele>
        <time>2016-04-12T06:56:22Z</time>
      </trkpt>
      <trkpt lat="44.56785" lon="6.09677">
        <ele>759.72</ele>
        <time>2016-04-12T06:57:11Z</time>
      </trkpt>
      <trkpt lat="44.56785" lon="6.09675">
        <ele>759.93</ele>
        <time>2016-04-12T06:58:30Z</time>
      </trkpt>
      <trkpt lat="44.56785" lon="6.09674">
        <ele>760.13</ele>
        <time>2016-04-12T06:58:57Z</time>
      </trkpt>
      <trkpt lat="44.56786" lon="6.09673">
        <ele>759.99</ele>
        <time>2016-04-12T06:59:22Z</time>
      </trkpt>
      <trkpt lat="44.56786" lon="6.09673">
        <ele>760.23</ele>
        <time>2016-04-12T06:59:44Z</time>
      </trkpt>
      <trkpt lat="44.56787" lon="6.09674">
        <ele>760.36</ele>
        <time>2016-04-12T07:00:09Z</time>
      </trkpt>
      <trkpt lat="44.56785" lon="6.09674">
        <ele>760.21</ele>
        <time>2016-04-12T07:00:34Z</time>
      </trkpt>
      <trkpt lat="44.56785" lon="6.09674">
        <ele>760.28</ele>
        <time>2016-04-12T07:00:56Z</time>
      </trkpt>
      <trkpt lat="44.56785" lon="6.09674">
        <ele>759.92</ele>
        <time>2016-04-12T07:01:20Z</time>
      </trkpt>
      <trkpt lat="44.56786" lon="6.09674">
        <ele>760.11</ele>
        <time>2016-04-12T07:01:45Z</time>
      </trkpt>
      <trkpt lat="44.56786" lon="6.09675">
        <ele>759.97</ele>
        <time>2016-04-12T07:02:13Z</time>
      </trkpt>
      <trkpt lat="44.56786" lon="6.09677">
        <ele>759.83</ele>
        <time>2016-04-12T07:02:36Z</time>
      </trkpt>
      <trkpt lat="44.56786" lon="6.09676">
        <ele>759.97</ele>
        <time>2016-04-12T07:03:05Z</time>
      </trkpt>
      <trkpt lat="44.56786" lon="6.09675">
        <ele>759.78</ele>
        <time>2016-04-12T07:03:23Z</time>
      </trkpt>
      <trkpt lat="44.56786" lon="6.09675">
        <ele>759.77</ele>
        <time>2016-04-12T07:03:49Z</time>
      </trkpt>
      <trkpt lat="44.56786" lon="6.09674">
        <ele>759.79</ele>
        <time>2016-04-12T07:04:14Z</time>
      </trkpt>
      <trkpt lat="44.56785" lon="6.09675">
        <ele>759.86</ele>
        <time>2016-04-12T07:04:43Z</time>
      </trkpt>
      <trkpt lat="44.56785" lon="6.09674">
        <ele>759.6</ele>
        <time>2016-04-12T07:05:03Z</time>
      </trkpt>
      <trkpt lat="44.56787" lon="6.09674">
        <ele>759.34</ele>
        <time>2016-04-12T07:05:29Z</time>
      </trkpt>
      <trkpt lat="44.56787" lon="6.09674">
        <ele>759.52</ele>
        <time>2016-04-12T07:05:48Z</time>
      </trkpt>
      <trkpt lat="44.56787" lon="6.09675">
        <ele>759.56</ele>
        <time>2016-04-12T07:06:12Z</time>
      </trkpt>
      <trkpt lat="44.56787" lon="6.09676">
        <ele>759.23</ele>
        <time>2016-04-12T07:06:37Z</time>
      </trkpt>
      <trkpt lat="44.56787" lon="6.09678">
        <ele>759.2</ele>
        <time>2016-04-12T07:07:06Z</time>
      </trkpt>
      <trkpt lat="44.56787" lon="6.09678">
        <ele>759.29</ele>
        <time>2016-04-12T07:07:41Z</time>
      </trkpt>
      <trkpt lat="44.56787" lon="6.09678">
        <ele>759.25</ele>
        <time>2016-04-12T07:08:14Z</time>
      </trkpt>
      <trkpt lat="44.56787" lon="6.09678">
        <ele>758.94</ele>
        <time>2016-04-12T07:08:40Z</time>
      </trkpt>
      <trkpt lat="44.56787" lon="6.09678">
        <ele>759.34</ele>
        <time>2016-04-12T07:09:03Z</time>
      </trkpt>
      <trkpt lat="44.56786" lon="6.09677">
        <ele>759.2</ele>
        <time>2016-04-12T07:09:06Z</time>
      </trkpt>
      <trkpt lat="44.56784" lon="6.09679">
        <ele>758.97</ele>
        <time>2016-04-12T07:09:22Z</time>
      </trkpt>
      <trkpt lat="44.56784" lon="6.09682">
        <ele>759.09</ele>
        <time>2016-04-12T07:09:43Z</time>
      </trkpt>
      <trkpt lat="44.56784" lon="6.09683">
        <ele>759.1</ele>
        <time>2016-04-12T07:09:44Z</time>
      </trkpt>
      <trkpt lat="44.56788" lon="6.09694">
        <ele>759.23</ele>
        <time>2016-04-12T07:09:50Z</time>
      </trkpt>
      <trkpt lat="44.56767" lon="6.0971">
        <ele>759.63</ele>
        <time>2016-04-12T07:10:06Z</time>
      </trkpt>
      <trkpt lat="44.56765" lon="6.0971">
        <ele>759.64</ele>
        <time>2016-04-12T07:10:07Z</time>
      </trkpt>
      <trkpt lat="44.56741" lon="6.097">
        <ele>759.64</ele>
        <time>2016-04-12T07:10:18Z</time>
      </trkpt>
      <trkpt lat="44.56738" lon="6.09703">
        <ele>759.7</ele>
        <time>2016-04-12T07:10:19Z</time>
      </trkpt>
      <trkpt lat="44.56687" lon="6.0975">
        <ele>759.6</ele>
        <time>2016-04-12T07:10:37Z</time>
      </trkpt>
      <trkpt lat="44.56674" lon="6.09867">
        <ele>759.38</ele>
        <time>2016-04-12T07:11:02Z</time>
      </trkpt>
      <trkpt lat="44.56654" lon="6.09955">
        <ele>759.64</ele>
        <time>2016-04-12T07:11:20Z</time>
      </trkpt>
      <trkpt lat="44.5668" lon="6.10107">
        <ele>760.77</ele>
        <time>2016-04-12T07:11:49Z</time>
      </trkpt>
      <trkpt lat="44.5669" lon="6.10176">
        <ele>761.63</ele>
        <time>2016-04-12T07:12:04Z</time>
      </trkpt>
      <trkpt lat="44.56688" lon="6.10178">
        <ele>761.71</ele>
        <time>2016-04-12T07:12:05Z</time>
      </trkpt>
      <trkpt lat="44.56685" lon="6.10179">
        <ele>761.78</ele>
        <time>2016-04-12T07:12:06Z</time>
      </trkpt>
      <trkpt lat="44.56681" lon="6.10178">
        <ele>761.86</ele>
        <time>2016-04-12T07:12:07Z</time>
      </trkpt>
      <trkpt lat="44.56678" lon="6.10176">
        <ele>761.92</ele>
        <time>2016-04-12T07:12:08Z</time>
      </trkpt>
      <trkpt lat="44.56651" lon="6.1016">
        <ele>762.46</ele>
        <time>2016-04-12T07:12:15Z</time>
      </trkpt>
      <trkpt lat="44.56643" lon="6.10157">
        <ele>762.51</ele>
        <time>2016-04-12T07:12:17Z</time>
      </trkpt>
      <trkpt lat="44.56639" lon="6.10156">
        <ele>762.45</ele>
        <time>2016-04-12T07:12:18Z</time>
      </trkpt>
      <trkpt lat="44.56635" lon="6.10154">
        <ele>762.42</ele>
        <time>2016-04-12T07:12:19Z</time>
      </trkpt>
      <trkpt lat="44.56631" lon="6.10152">
        <ele>762.42</ele>
        <time>2016-04-12T07:12:20Z</time>
      </trkpt>
      <trkpt lat="44.56627" lon="6.1015">
        <ele>762.4</ele>
        <time>2016-04-12T07:12:21Z</time>
      </trkpt>
      <trkpt lat="44.56623" lon="6.10149">
        <ele>762.36</ele>
        <time>2016-04-12T07:12:22Z</time>
      </trkpt>
      <trkpt lat="44.56619" lon="6.10148">
        <ele>762.33</ele>
        <time>2016-04-12T07:12:23Z</time>
      </trkpt>
      <trkpt lat="44.56615" lon="6.10148">
        <ele>762.28</ele>
        <time>2016-04-12T07:12:24Z</time>
      </trkpt>
      <trkpt lat="44.56594" lon="6.10138">
        <ele>761.38</ele>
        <time>2016-04-12T07:12:31Z</time>
      </trkpt>
      <trkpt lat="44.56591" lon="6.1014">
        <ele>761.19</ele>
        <time>2016-04-12T07:12:32Z</time>
      </trkpt>
      <trkpt lat="44.56588" lon="6.10147">
        <ele>760.93</ele>
        <time>2016-04-12T07:12:34Z</time>
      </trkpt>
      <trkpt lat="44.56558" lon="6.10224">
        <ele>760.94</ele>
        <time>2016-04-12T07:12:58Z</time>
      </trkpt>
      <trkpt lat="44.56586" lon="6.10296">
        <ele>761.86</ele>
        <time>2016-04-12T07:13:18Z</time>
      </trkpt>
      <trkpt lat="44.56625" lon="6.10436">
        <ele>763.46</ele>
        <time>2016-04-12T07:13:52Z</time>
      </trkpt>
      <trkpt lat="44.56643" lon="6.10574">
        <ele>764.01</ele>
        <time>2016-04-12T07:14:23Z</time>
      </trkpt>
      <trkpt lat="44.56652" lon="6.10685">
        <ele>764.53</ele>
        <time>2016-04-12T07:14:47Z</time>
      </trkpt>
      <trkpt lat="44.56658" lon="6.10801">
        <ele>765.48</ele>
        <time>2016-04-12T07:15:12Z</time>
      </trkpt>
      <trkpt lat="44.56658" lon="6.10935">
        <ele>766.5</ele>
        <time>2016-04-12T07:15:42Z</time>
      </trkpt>
      <trkpt lat="44.56641" lon="6.11081">
        <ele>767.81</ele>
        <time>2016-04-12T07:16:15Z</time>
      </trkpt>
      <trkpt lat="44.56639" lon="6.11182">
        <ele>769.33</ele>
        <time>2016-04-12T07:16:43Z</time>
      </trkpt>
      <trkpt lat="44.56635" lon="6.11273">
        <ele>772.02</ele>
        <time>2016-04-12T07:17:14Z</time>
      </trkpt>
      <trkpt lat="44.5665" lon="6.11296">
        <ele>774.82</ele>
        <time>2016-04-12T07:17:33Z</time>
      </trkpt>
      <trkpt lat="44.56692" lon="6.11309">
        <ele>777.47</ele>
        <time>2016-04-12T07:17:58Z</time>
      </trkpt>
      <trkpt lat="44.56692" lon="6.11315">
        <ele>778.02</ele>
        <time>2016-04-12T07:18:01Z</time>
      </trkpt>
      <trkpt lat="44.56691" lon="6.11317">
        <ele>778.42</ele>
        <time>2016-04-12T07:18:02Z</time>
      </trkpt>
      <trkpt lat="44.5669" lon="6.11318">
        <ele>778.42</ele>
        <time>2016-04-12T07:18:03Z</time>
      </trkpt>
      <trkpt lat="44.56666" lon="6.1134">
        <ele>781.53</ele>
        <time>2016-04-12T07:18:22Z</time>
      </trkpt>
      <trkpt lat="44.5664" lon="6.11371">
        <ele>784.57</ele>
        <time>2016-04-12T07:18:43Z</time>
      </trkpt>
      <trkpt lat="44.56631" lon="6.11415">
        <ele>787.4</ele>
        <time>2016-04-12T07:19:06Z</time>
      </trkpt>
      <trkpt lat="44.56633" lon="6.11415">
        <ele>787.51</ele>
        <time>2016-04-12T07:19:07Z</time>
      </trkpt>
      <trkpt lat="44.56635" lon="6.11414">
        <ele>787.62</ele>
        <time>2016-04-12T07:19:08Z</time>
      </trkpt>
      <trkpt lat="44.56636" lon="6.11414">
        <ele>787.72</ele>
        <time>2016-04-12T07:19:09Z</time>
      </trkpt>
      <trkpt lat="44.56638" lon="6.11412">
        <ele>787.81</ele>
        <time>2016-04-12T07:19:10Z</time>
      </trkpt>
      <trkpt lat="44.56676" lon="6.11395">
        <ele>790.86</ele>
        <time>2016-04-12T07:19:33Z</time>
      </trkpt>
      <trkpt lat="44.56687" lon="6.11393">
        <ele>791.6</ele>
        <time>2016-04-12T07:19:40Z</time>
      </trkpt>
      <trkpt lat="44.56693" lon="6.114">
        <ele>792.46</ele>
        <time>2016-04-12T07:19:47Z</time>
      </trkpt>
      <trkpt lat="44.56666" lon="6.11442">
        <ele>795.62</ele>
        <time>2016-04-12T07:20:11Z</time>
      </trkpt>
      <trkpt lat="44.56671" lon="6.11499">
        <ele>798.39</ele>
        <time>2016-04-12T07:20:35Z</time>
      </trkpt>
      <trkpt lat="44.5668" lon="6.11551">
        <ele>801.49</ele>
        <time>2016-04-12T07:20:59Z</time>
      </trkpt>
      <trkpt lat="44.56695" lon="6.11608">
        <ele>804.52</ele>
        <time>2016-04-12T07:21:26Z</time>
      </trkpt>
      <trkpt lat="44.56706" lon="6.11657">
        <ele>807.59</ele>
        <time>2016-04-12T07:21:49Z</time>
      </trkpt>
      <trkpt lat="44.56716" lon="6.11711">
        <ele>810.67</ele>
        <time>2016-04-12T07:22:16Z</time>
      </trkpt>
      <trkpt lat="44.56719" lon="6.11741">
        <ele>812.61</ele>
        <time>2016-04-12T07:22:31Z</time>
      </trkpt>
      <trkpt lat="44.5673" lon="6.11792">
        <ele>815.81</ele>
        <time>2016-04-12T07:22:57Z</time>
      </trkpt>
      <trkpt lat="44.56748" lon="6.11851">
        <ele>818.89</ele>
        <time>2016-04-12T07:23:28Z</time>
      </trkpt>
      <trkpt lat="44.56767" lon="6.11905">
        <ele>821.95</ele>
        <time>2016-04-12T07:23:55Z</time>
      </trkpt>
      <trkpt lat="44.56783" lon="6.11951">
        <ele>824.99</ele>
        <time>2016-04-12T07:24:18Z</time>
      </trkpt>
      <trkpt lat="44.56791" lon="6.11996">
        <ele>827.65</ele>
        <time>2016-04-12T07:24:39Z</time>
      </trkpt>
      <trkpt lat="44.56798" lon="6.12056">
        <ele>830.87</ele>
        <time>2016-04-12T07:25:06Z</time>
      </trkpt>
      <trkpt lat="44.56798" lon="6.12068">
        <ele>831.63</ele>
        <time>2016-04-12T07:25:11Z</time>
      </trkpt>
      <trkpt lat="44.56799" lon="6.12076">
        <ele>832.41</ele>
        <time>2016-04-12T07:25:15Z</time>
      </trkpt>
      <trkpt lat="44.568" lon="6.12125">
        <ele>835.66</ele>
        <time>2016-04-12T07:25:38Z</time>
      </trkpt>
      <trkpt lat="44.56803" lon="6.12176">
        <ele>838.1</ele>
        <time>2016-04-12T07:25:59Z</time>
      </trkpt>
      <trkpt lat="44.56812" lon="6.12241">
        <ele>841.2</ele>
        <time>2016-04-12T07:26:26Z</time>
      </trkpt>
      <trkpt lat="44.5682" lon="6.12298">
        <ele>844.27</ele>
        <time>2016-04-12T07:26:50Z</time>
      </trkpt>
      <trkpt lat="44.56816" lon="6.12393">
        <ele>847.05</ele>
        <time>2016-04-12T07:27:26Z</time>
      </trkpt>
      <trkpt lat="44.56802" lon="6.12488">
        <ele>848.92</ele>
        <time>2016-04-12T07:27:59Z</time>
      </trkpt>
      <trkpt lat="44.56819" lon="6.12585">
        <ele>849.51</ele>
        <time>2016-04-12T07:28:29Z</time>
      </trkpt>
      <trkpt lat="44.56815" lon="6.12669">
        <ele>850.64</ele>
        <time>2016-04-12T07:28:58Z</time>
      </trkpt>
      <trkpt lat="44.56814" lon="6.12676">
        <ele>850.63</ele>
        <time>2016-04-12T07:29:15Z</time>
      </trkpt>
      <trkpt lat="44.56812" lon="6.12677">
        <ele>850.57</ele>
        <time>2016-04-12T07:29:41Z</time>
      </trkpt>
      <trkpt lat="44.56812" lon="6.12676">
        <ele>850.52</ele>
        <time>2016-04-12T07:30:13Z</time>
      </trkpt>
      <trkpt lat="44.56813" lon="6.12676">
        <ele>850.31</ele>
        <time>2016-04-12T07:30:45Z</time>
      </trkpt>
      <trkpt lat="44.56814" lon="6.12675">
        <ele>850.33</ele>
        <time>2016-04-12T07:31:12Z</time>
      </trkpt>
      <trkpt lat="44.56814" lon="6.12675">
        <ele>850.56</ele>
        <time>2016-04-12T07:31:44Z</time>
      </trkpt>
      <trkpt lat="44.56814" lon="6.12675">
        <ele>850.62</ele>
        <time>2016-04-12T07:32:24Z</time>
      </trkpt>
      <trkpt lat="44.56813" lon="6.12675">
        <ele>850.36</ele>
        <time>2016-04-12T07:32:59Z</time>
      </trkpt>
      <trkpt lat="44.56813" lon="6.12675">
        <ele>850.4</ele>
        <time>2016-04-12T07:33:26Z</time>
      </trkpt>
      <trkpt lat="44.56813" lon="6.12676">
        <ele>850.06</ele>
        <time>2016-04-12T07:33:56Z</time>
      </trkpt>
      <trkpt lat="44.56811" lon="6.12683">
        <ele>850.49</ele>
        <time>2016-04-12T07:34:12Z</time>
      </trkpt>
      <trkpt lat="44.56812" lon="6.12686">
        <ele>850.55</ele>
        <time>2016-04-12T07:34:14Z</time>
      </trkpt>
      <trkpt lat="44.56814" lon="6.12696">
        <ele>850.78</ele>
        <time>2016-04-12T07:34:20Z</time>
      </trkpt>
      <trkpt lat="44.56814" lon="6.12698">
        <ele>850.79</ele>
        <time>2016-04-12T07:34:21Z</time>
      </trkpt>
      <trkpt lat="44.56813" lon="6.12701">
        <ele>850.82</ele>
        <time>2016-04-12T07:34:22Z</time>
      </trkpt>
      <trkpt lat="44.56813" lon="6.12704">
        <ele>850.84</ele>
        <time>2016-04-12T07:34:23Z</time>
      </trkpt>
      <trkpt lat="44.56814" lon="6.12706">
        <ele>850.86</ele>
        <time>2016-04-12T07:34:24Z</time>
      </trkpt>
      <trkpt lat="44.56814" lon="6.12709">
        <ele>850.87</ele>
        <time>2016-04-12T07:34:25Z</time>
      </trkpt>
      <trkpt lat="44.56824" lon="6.12812">
        <ele>849.73</ele>
        <time>2016-04-12T07:34:52Z</time>
      </trkpt>
      <trkpt lat="44.56856" lon="6.12957">
        <ele>848.59</ele>
        <time>2016-04-12T07:35:23Z</time>
      </trkpt>
      <trkpt lat="44.56873" lon="6.13103">
        <ele>847.59</ele>
        <time>2016-04-12T07:35:54Z</time>
      </trkpt>
      <trkpt lat="44.56873" lon="6.13222">
        <ele>848.31</ele>
        <time>2016-04-12T07:36:22Z</time>
      </trkpt>
      <trkpt lat="44.56885" lon="6.13327">
        <ele>849.54</ele>
        <time>2016-04-12T07:36:48Z</time>
      </trkpt>
      <trkpt lat="44.56898" lon="6.13427">
        <ele>852.03</ele>
        <time>2016-04-12T07:37:15Z</time>
      </trkpt>
      <trkpt lat="44.56914" lon="6.13553">
        <ele>852.3</ele>
        <time>2016-04-12T07:37:43Z</time>
      </trkpt>
      <trkpt lat="44.56923" lon="6.13627">
        <ele>854.77</ele>
        <time>2016-04-12T07:38:08Z</time>
      </trkpt>
      <trkpt lat="44.56928" lon="6.13704">
        <ele>857.8</ele>
        <time>2016-04-12T07:38:31Z</time>
      </trkpt>
      <trkpt lat="44.5694" lon="6.13815">
        <ele>859.52</ele>
        <time>2016-04-12T07:39:00Z</time>
      </trkpt>
      <trkpt lat="44.56947" lon="6.13907">
        <ele>860.42</ele>
        <time>2016-04-12T07:39:25Z</time>
      </trkpt>
      <trkpt lat="44.56965" lon="6.13993">
        <ele>862.27</ele>
        <time>2016-04-12T07:39:50Z</time>
      </trkpt>
      <trkpt lat="44.56968" lon="6.14083">
        <ele>865.35</ele>
        <time>2016-04-12T07:40:16Z</time>
      </trkpt>
      <trkpt lat="44.56961" lon="6.14155">
        <ele>868.41</ele>
        <time>2016-04-12T07:40:40Z</time>
      </trkpt>
      <trkpt lat="44.5696" lon="6.14211">
        <ele>871.55</ele>
        <time>2016-04-12T07:41:00Z</time>
      </trkpt>
      <trkpt lat="44.56927" lon="6.14273">
        <ele>874.56</ele>
        <time>2016-04-12T07:41:27Z</time>
      </trkpt>
      <trkpt lat="44.56874" lon="6.14326">
        <ele>875.47</ele>
        <time>2016-04-12T07:41:54Z</time>
      </trkpt>
      <trkpt lat="44.56843" lon="6.14387">
        <ele>877.5</ele>
        <time>2016-04-12T07:42:18Z</time>
      </trkpt>
      <trkpt lat="44.56809" lon="6.14487">
        <ele>880.49</ele>
        <time>2016-04-12T07:42:54Z</time>
      </trkpt>
      <trkpt lat="44.56817" lon="6.14614">
        <ele>883.48</ele>
        <time>2016-04-12T07:43:29Z</time>
      </trkpt>
      <trkpt lat="44.56809" lon="6.14718">
        <ele>883.2</ele>
        <time>2016-04-12T07:43:56Z</time>
      </trkpt>
      <trkpt lat="44.56782" lon="6.14772">
        <ele>882.69</ele>
        <time>2016-04-12T07:44:16Z</time>
      </trkpt>
      <trkpt lat="44.56769" lon="6.14843">
        <ele>883.9</ele>
        <time>2016-04-12T07:44:37Z</time>
      </trkpt>
      <trkpt lat="44.56758" lon="6.14922">
        <ele>884.83</ele>
        <time>2016-04-12T07:44:58Z</time>
      </trkpt>
      <trkpt lat="44.56737" lon="6.1501">
        <ele>884.45</ele>
        <time>2016-04-12T07:45:18Z</time>
      </trkpt>
      <trkpt lat="44.56684" lon="6.15104">
        <ele>882.97</ele>
        <time>2016-04-12T07:45:39Z</time>
      </trkpt>
      <trkpt lat="44.56662" lon="6.15198">
        <ele>882.87</ele>
        <time>2016-04-12T07:46:02Z</time>
      </trkpt>
      <trkpt lat="44.56667" lon="6.15289">
        <ele>883.03</ele>
        <time>2016-04-12T07:46:24Z</time>
      </trkpt>
      <trkpt lat="44.56663" lon="6.15417">
        <ele>883.61</ele>
        <time>2016-04-12T07:46:54Z</time>
      </trkpt>
      <trkpt lat="44.56672" lon="6.15561">
        <ele>884.59</ele>
        <time>2016-04-12T07:47:25Z</time>
      </trkpt>
      <trkpt lat="44.56661" lon="6.15674">
        <ele>886.44</ele>
        <time>2016-04-12T07:47:55Z</time>
      </trkpt>
      <trkpt lat="44.56624" lon="6.15802">
        <ele>888.44</ele>
        <time>2016-04-12T07:48:28Z</time>
      </trkpt>
      <trkpt lat="44.56598" lon="6.1595">
        <ele>889.7</ele>
        <time>2016-04-12T07:49:01Z</time>
      </trkpt>
      <trkpt lat="44.56579" lon="6.16085">
        <ele>891.09</ele>
        <time>2016-04-12T07:49:34Z</time>
      </trkpt>
      <trkpt lat="44.56537" lon="6.16148">
        <ele>891.37</ele>
        <time>2016-04-12T07:49:56Z</time>
      </trkpt>
      <trkpt lat="44.56503" lon="6.16192">
        <ele>889.82</ele>
        <time>2016-04-12T07:50:09Z</time>
      </trkpt>
      <trkpt lat="44.565" lon="6.16196">
        <ele>889.57</ele>
        <time>2016-04-12T07:50:10Z</time>
      </trkpt>
      <trkpt lat="44.56497" lon="6.162">
        <ele>889.32</ele>
        <time>2016-04-12T07:50:11Z</time>
      </trkpt>
      <trkpt lat="44.56494" lon="6.16204">
        <ele>889.09</ele>
        <time>2016-04-12T07:50:12Z</time>
      </trkpt>
      <trkpt lat="44.56491" lon="6.16208">
        <ele>888.9</ele>
        <time>2016-04-12T07:50:13Z</time>
      </trkpt>
      <trkpt lat="44.56486" lon="6.16217">
        <ele>888.58</ele>
        <time>2016-04-12T07:50:15Z</time>
      </trkpt>
      <trkpt lat="44.5647" lon="6.16241">
        <ele>887.69</ele>
        <time>2016-04-12T07:50:20Z</time>
      </trkpt>
      <trkpt lat="44.56467" lon="6.16246">
        <ele>887.53</ele>
        <time>2016-04-12T07:50:21Z</time>
      </trkpt>
      <trkpt lat="44.56456" lon="6.16261">
        <ele>886.98</ele>
        <time>2016-04-12T07:50:24Z</time>
      </trkpt>
      <trkpt lat="44.56454" lon="6.16267">
        <ele>886.82</ele>
        <time>2016-04-12T07:50:25Z</time>
      </trkpt>
      <trkpt lat="44.56453" lon="6.16273">
        <ele>886.65</ele>
        <time>2016-04-12T07:50:26Z</time>
      </trkpt>
      <trkpt lat="44.56444" lon="6.16299">
        <ele>885.76</ele>
        <time>2016-04-12T07:50:31Z</time>
      </trkpt>
      <trkpt lat="44.56409" lon="6.16364">
        <ele>884.96</ele>
        <time>2016-04-12T07:50:48Z</time>
      </trkpt>
      <trkpt lat="44.56391" lon="6.16439">
        <ele>885.6</ele>
        <time>2016-04-12T07:51:09Z</time>
      </trkpt>
      <trkpt lat="44.56403" lon="6.16486">
        <ele>885.07</ele>
        <time>2016-04-12T07:51:19Z</time>
      </trkpt>
      <trkpt lat="44.56404" lon="6.16491">
        <ele>884.94</ele>
        <time>2016-04-12T07:51:20Z</time>
      </trkpt>
      <trkpt lat="44.56402" lon="6.16506">
        <ele>884.76</ele>
        <time>2016-04-12T07:51:24Z</time>
      </trkpt>
      <trkpt lat="44.56402" lon="6.1651">
        <ele>884.77</ele>
        <time>2016-04-12T07:51:25Z</time>
      </trkpt>
      <trkpt lat="44.56401" lon="6.16514">
        <ele>884.78</ele>
        <time>2016-04-12T07:51:26Z</time>
      </trkpt>
      <trkpt lat="44.564" lon="6.16518">
        <ele>884.82</ele>
        <time>2016-04-12T07:51:27Z</time>
      </trkpt>
      <trkpt lat="44.564" lon="6.16522">
        <ele>884.89</ele>
        <time>2016-04-12T07:51:28Z</time>
      </trkpt>
      <trkpt lat="44.56399" lon="6.16525">
        <ele>884.95</ele>
        <time>2016-04-12T07:51:29Z</time>
      </trkpt>
      <trkpt lat="44.56398" lon="6.16529">
        <ele>885</ele>
        <time>2016-04-12T07:51:30Z</time>
      </trkpt>
      <trkpt lat="44.56397" lon="6.16533">
        <ele>885.05</ele>
        <time>2016-04-12T07:51:31Z</time>
      </trkpt>
      <trkpt lat="44.56395" lon="6.16537">
        <ele>885.1</ele>
        <time>2016-04-12T07:51:32Z</time>
      </trkpt>
      <trkpt lat="44.56395" lon="6.16541">
        <ele>885.16</ele>
        <time>2016-04-12T07:51:33Z</time>
      </trkpt>
      <trkpt lat="44.56395" lon="6.16545">
        <ele>885.24</ele>
        <time>2016-04-12T07:51:34Z</time>
      </trkpt>
      <trkpt lat="44.56394" lon="6.16548">
        <ele>885.33</ele>
        <time>2016-04-12T07:51:35Z</time>
      </trkpt>
      <trkpt lat="44.56393" lon="6.16552">
        <ele>885.42</ele>
        <time>2016-04-12T07:51:36Z</time>
      </trkpt>
      <trkpt lat="44.56393" lon="6.16556">
        <ele>885.53</ele>
        <time>2016-04-12T07:51:37Z</time>
      </trkpt>
      <trkpt lat="44.56392" lon="6.1656">
        <ele>885.62</ele>
        <time>2016-04-12T07:51:38Z</time>
      </trkpt>
      <trkpt lat="44.56391" lon="6.16575">
        <ele>886.17</ele>
        <time>2016-04-12T07:51:42Z</time>
      </trkpt>
      <trkpt lat="44.5639" lon="6.16579">
        <ele>886.34</ele>
        <time>2016-04-12T07:51:43Z</time>
      </trkpt>
      <trkpt lat="44.5639" lon="6.16582">
        <ele>886.62</ele>
        <time>2016-04-12T07:51:44Z</time>
      </trkpt>
      <trkpt lat="44.56384" lon="6.16612">
        <ele>888.25</ele>
        <time>2016-04-12T07:51:53Z</time>
      </trkpt>
      <trkpt lat="44.56384" lon="6.16615">
        <ele>888.4</ele>
        <time>2016-04-12T07:51:54Z</time>
      </trkpt>
      <trkpt lat="44.56374" lon="6.16667">
        <ele>891.37</ele>
        <time>2016-04-12T07:52:12Z</time>
      </trkpt>
      <trkpt lat="44.56359" lon="6.16752">
        <ele>892.94</ele>
        <time>2016-04-12T07:52:37Z</time>
      </trkpt>
      <trkpt lat="44.56342" lon="6.16819">
        <ele>892.46</ele>
        <time>2016-04-12T07:52:55Z</time>
      </trkpt>
      <trkpt lat="44.56344" lon="6.16874">
        <ele>892.44</ele>
        <time>2016-04-12T07:53:10Z</time>
      </trkpt>
      <trkpt lat="44.56346" lon="6.16934">
        <ele>892.93</ele>
        <time>2016-04-12T07:53:26Z</time>
      </trkpt>
      <trkpt lat="44.56346" lon="6.16937">
        <ele>892.98</ele>
        <time>2016-04-12T07:53:27Z</time>
      </trkpt>
      <trkpt lat="44.56342" lon="6.16949">
        <ele>893.29</ele>
        <time>2016-04-12T07:53:33Z</time>
      </trkpt>
      <trkpt lat="44.56341" lon="6.16949">
        <ele>893.32</ele>
        <time>2016-04-12T07:53:34Z</time>
      </trkpt>
      <trkpt lat="44.5634" lon="6.16949">
        <ele>893.37</ele>
        <time>2016-04-12T07:53:35Z</time>
      </trkpt>
      <trkpt lat="44.56331" lon="6.16946">
        <ele>893.5</ele>
        <time>2016-04-12T07:53:44Z</time>
      </trkpt>
      <trkpt lat="44.56321" lon="6.16936">
        <ele>894.19</ele>
        <time>2016-04-12T07:54:05Z</time>
      </trkpt>
      <trkpt lat="44.56316" lon="6.16934">
        <ele>894.23</ele>
        <time>2016-04-12T07:54:11Z</time>
      </trkpt>
      <trkpt lat="44.56315" lon="6.16934">
        <ele>894.28</ele>
        <time>2016-04-12T07:54:12Z</time>
      </trkpt>
      <trkpt lat="44.56314" lon="6.16933">
        <ele>894.32</ele>
        <time>2016-04-12T07:54:13Z</time>
      </trkpt>
      <trkpt lat="44.56278" lon="6.16918">
        <ele>895.4</ele>
        <time>2016-04-12T07:54:36Z</time>
      </trkpt>
      <trkpt lat="44.56234" lon="6.16887">
        <ele>897.26</ele>
        <time>2016-04-12T07:55:03Z</time>
      </trkpt>
      <trkpt lat="44.56202" lon="6.16818">
        <ele>899.96</ele>
        <time>2016-04-12T07:55:31Z</time>
      </trkpt>
      <trkpt lat="44.56171" lon="6.16764">
        <ele>901.74</ele>
        <time>2016-04-12T07:55:56Z</time>
      </trkpt>
      <trkpt lat="44.56133" lon="6.16707">
        <ele>903.92</ele>
        <time>2016-04-12T07:56:23Z</time>
      </trkpt>
      <trkpt lat="44.56095" lon="6.1666">
        <ele>906.44</ele>
        <time>2016-04-12T07:56:47Z</time>
      </trkpt>
      <trkpt lat="44.56073" lon="6.16611">
        <ele>908.92</ele>
        <time>2016-04-12T07:57:09Z</time>
      </trkpt>
      <trkpt lat="44.56066" lon="6.16549">
        <ele>911.92</ele>
        <time>2016-04-12T07:57:35Z</time>
      </trkpt>
      <trkpt lat="44.56057" lon="6.16498">
        <ele>914.94</ele>
        <time>2016-04-12T07:57:57Z</time>
      </trkpt>
      <trkpt lat="44.56039" lon="6.16455">
        <ele>918.07</ele>
        <time>2016-04-12T07:58:19Z</time>
      </trkpt>
      <trkpt lat="44.56011" lon="6.16464">
        <ele>921.22</ele>
        <time>2016-04-12T07:58:37Z</time>
      </trkpt>
      <trkpt lat="44.56002" lon="6.16498">
        <ele>924.27</ele>
        <time>2016-04-12T07:58:52Z</time>
      </trkpt>
      <trkpt lat="44.55995" lon="6.16542">
        <ele>927.33</ele>
        <time>2016-04-12T07:59:12Z</time>
      </trkpt>
      <trkpt lat="44.55979" lon="6.16572">
        <ele>930.34</ele>
        <time>2016-04-12T07:59:30Z</time>
      </trkpt>
      <trkpt lat="44.55952" lon="6.16567">
        <ele>933.42</ele>
        <time>2016-04-12T07:59:50Z</time>
      </trkpt>
      <trkpt lat="44.55926" lon="6.16558">
        <ele>936.2</ele>
        <time>2016-04-12T08:00:08Z</time>
      </trkpt>
      <trkpt lat="44.55924" lon="6.16558">
        <ele>936.37</ele>
        <time>2016-04-12T08:00:09Z</time>
      </trkpt>
      <trkpt lat="44.55923" lon="6.16558">
        <ele>936.55</ele>
        <time>2016-04-12T08:00:10Z</time>
      </trkpt>
      <trkpt lat="44.55922" lon="6.16558">
        <ele>936.76</ele>
        <time>2016-04-12T08:00:11Z</time>
      </trkpt>
      <trkpt lat="44.5592" lon="6.16558">
        <ele>936.96</ele>
        <time>2016-04-12T08:00:12Z</time>
      </trkpt>
      <trkpt lat="44.55918" lon="6.16558">
        <ele>937.15</ele>
        <time>2016-04-12T08:00:13Z</time>
      </trkpt>
      <trkpt lat="44.55889" lon="6.16551">
        <ele>939.73</ele>
        <time>2016-04-12T08:00:31Z</time>
      </trkpt>
      <trkpt lat="44.55853" lon="6.1654">
        <ele>942.96</ele>
        <time>2016-04-12T08:00:56Z</time>
      </trkpt>
      <trkpt lat="44.55823" lon="6.16545">
        <ele>946.06</ele>
        <time>2016-04-12T08:01:16Z</time>
      </trkpt>
      <trkpt lat="44.55794" lon="6.16532">
        <ele>949.11</ele>
        <time>2016-04-12T08:01:37Z</time>
      </trkpt>
      <trkpt lat="44.55759" lon="6.16522">
        <ele>952.2</ele>
        <time>2016-04-12T08:02:01Z</time>
      </trkpt>
      <trkpt lat="44.55744" lon="6.16519">
        <ele>954.05</ele>
        <time>2016-04-12T08:02:12Z</time>
      </trkpt>
      <trkpt lat="44.55744" lon="6.16517">
        <ele>954.25</ele>
        <time>2016-04-12T08:02:13Z</time>
      </trkpt>
      <trkpt lat="44.55745" lon="6.16515">
        <ele>954.45</ele>
        <time>2016-04-12T08:02:14Z</time>
      </trkpt>
      <trkpt lat="44.55745" lon="6.16513">
        <ele>954.63</ele>
        <time>2016-04-12T08:02:15Z</time>
      </trkpt>
      <trkpt lat="44.55746" lon="6.16511">
        <ele>954.79</ele>
        <time>2016-04-12T08:02:16Z</time>
      </trkpt>
      <trkpt lat="44.55748" lon="6.16509">
        <ele>954.94</ele>
        <time>2016-04-12T08:02:17Z</time>
      </trkpt>
      <trkpt lat="44.55749" lon="6.16508">
        <ele>955.13</ele>
        <time>2016-04-12T08:02:18Z</time>
      </trkpt>
      <trkpt lat="44.55751" lon="6.16508">
        <ele>955.33</ele>
        <time>2016-04-12T08:02:19Z</time>
      </trkpt>
      <trkpt lat="44.55753" lon="6.16507">
        <ele>955.5</ele>
        <time>2016-04-12T08:02:20Z</time>
      </trkpt>
      <trkpt lat="44.55779" lon="6.16477">
        <ele>957.89</ele>
        <time>2016-04-12T08:02:42Z</time>
      </trkpt>
      <trkpt lat="44.55755" lon="6.16467">
        <ele>960.96</ele>
        <time>2016-04-12T08:02:58Z</time>
      </trkpt>
      <trkpt lat="44.55733" lon="6.16437">
        <ele>964.08</ele>
        <time>2016-04-12T08:03:15Z</time>
      </trkpt>
      <trkpt lat="44.55726" lon="6.16387">
        <ele>965.62</ele>
        <time>2016-04-12T08:03:34Z</time>
      </trkpt>
      <trkpt lat="44.55735" lon="6.16338">
        <ele>967.35</ele>
        <time>2016-04-12T08:03:52Z</time>
      </trkpt>
      <trkpt lat="44.55734" lon="6.16336">
        <ele>967.47</ele>
        <time>2016-04-12T08:03:53Z</time>
      </trkpt>
      <trkpt lat="44.55733" lon="6.16334">
        <ele>967.58</ele>
        <time>2016-04-12T08:03:54Z</time>
      </trkpt>
      <trkpt lat="44.55731" lon="6.16333">
        <ele>967.69</ele>
        <time>2016-04-12T08:03:55Z</time>
      </trkpt>
      <trkpt lat="44.5573" lon="6.16332">
        <ele>967.81</ele>
        <time>2016-04-12T08:03:56Z</time>
      </trkpt>
      <trkpt lat="44.55728" lon="6.16331">
        <ele>967.97</ele>
        <time>2016-04-12T08:03:57Z</time>
      </trkpt>
      <trkpt lat="44.55726" lon="6.16331">
        <ele>968.17</ele>
        <time>2016-04-12T08:03:58Z</time>
      </trkpt>
      <trkpt lat="44.55724" lon="6.16331">
        <ele>968.35</ele>
        <time>2016-04-12T08:03:59Z</time>
      </trkpt>
      <trkpt lat="44.55722" lon="6.16331">
        <ele>968.53</ele>
        <time>2016-04-12T08:04:00Z</time>
      </trkpt>
      <trkpt lat="44.55721" lon="6.16332">
        <ele>968.7</ele>
        <time>2016-04-12T08:04:01Z</time>
      </trkpt>
      <trkpt lat="44.55697" lon="6.16344">
        <ele>971.8</ele>
        <time>2016-04-12T08:04:17Z</time>
      </trkpt>
      <trkpt lat="44.55688" lon="6.16357">
        <ele>973.92</ele>
        <time>2016-04-12T08:04:35Z</time>
      </trkpt>
      <trkpt lat="44.55687" lon="6.16356">
        <ele>973.22</ele>
        <time>2016-04-12T08:05:06Z</time>
      </trkpt>
      <trkpt lat="44.55685" lon="6.16356">
        <ele>973.79</ele>
        <time>2016-04-12T08:06:01Z</time>
      </trkpt>
      <trkpt lat="44.55683" lon="6.16357">
        <ele>973.45</ele>
        <time>2016-04-12T08:06:31Z</time>
      </trkpt>
      <trkpt lat="44.55683" lon="6.16356">
        <ele>973.62</ele>
        <time>2016-04-12T08:07:10Z</time>
      </trkpt>
      <trkpt lat="44.55683" lon="6.16355">
        <ele>973.75</ele>
        <time>2016-04-12T08:07:41Z</time>
      </trkpt>
      <trkpt lat="44.55682" lon="6.16352">
        <ele>973.56</ele>
        <time>2016-04-12T08:08:20Z</time>
      </trkpt>
      <trkpt lat="44.5568" lon="6.16353">
        <ele>973.69</ele>
        <time>2016-04-12T08:08:55Z</time>
      </trkpt>
      <trkpt lat="44.55682" lon="6.16352">
        <ele>973.71</ele>
        <time>2016-04-12T08:09:30Z</time>
      </trkpt>
      <trkpt lat="44.55684" lon="6.16353">
        <ele>974.03</ele>
        <time>2016-04-12T08:09:58Z</time>
      </trkpt>
      <trkpt lat="44.55685" lon="6.16356">
        <ele>974.01</ele>
        <time>2016-04-12T08:10:28Z</time>
      </trkpt>
      <trkpt lat="44.55686" lon="6.16356">
        <ele>974.05</ele>
        <time>2016-04-12T08:11:14Z</time>
      </trkpt>
      <trkpt lat="44.55683" lon="6.16355">
        <ele>974.2</ele>
        <time>2016-04-12T08:12:42Z</time>
      </trkpt>
      <trkpt lat="44.55681" lon="6.16355">
        <ele>974.55</ele>
        <time>2016-04-12T08:13:36Z</time>
      </trkpt>
      <trkpt lat="44.5568" lon="6.16356">
        <ele>974.53</ele>
        <time>2016-04-12T08:13:37Z</time>
      </trkpt>
      <trkpt lat="44.55678" lon="6.16357">
        <ele>974.51</ele>
        <time>2016-04-12T08:13:38Z</time>
      </trkpt>
      <trkpt lat="44.55638" lon="6.16385">
        <ele>977.59</ele>
        <time>2016-04-12T08:14:07Z</time>
      </trkpt>
      <trkpt lat="44.55613" lon="6.16405">
        <ele>980.61</ele>
        <time>2016-04-12T08:14:25Z</time>
      </trkpt>
      <trkpt lat="44.55585" lon="6.16434">
        <ele>983.67</ele>
        <time>2016-04-12T08:14:46Z</time>
      </trkpt>
      <trkpt lat="44.55552" lon="6.16469">
        <ele>986.74</ele>
        <time>2016-04-12T08:15:09Z</time>
      </trkpt>
      <trkpt lat="44.55521" lon="6.16485">
        <ele>989.8</ele>
        <time>2016-04-12T08:15:28Z</time>
      </trkpt>
      <trkpt lat="44.55491" lon="6.1649">
        <ele>992.6</ele>
        <time>2016-04-12T08:15:48Z</time>
      </trkpt>
      <trkpt lat="44.55462" lon="6.16482">
        <ele>995.63</ele>
        <time>2016-04-12T08:16:06Z</time>
      </trkpt>
      <trkpt lat="44.55431" lon="6.16476">
        <ele>998.4</ele>
        <time>2016-04-12T08:16:26Z</time>
      </trkpt>
      <trkpt lat="44.55407" lon="6.16471">
        <ele>1000.99</ele>
        <time>2016-04-12T08:16:42Z</time>
      </trkpt>
      <trkpt lat="44.55406" lon="6.16471">
        <ele>1001.11</ele>
        <time>2016-04-12T08:16:43Z</time>
      </trkpt>
      <trkpt lat="44.55404" lon="6.16471">
        <ele>1001.26</ele>
        <time>2016-04-12T08:16:44Z</time>
      </trkpt>
      <trkpt lat="44.55402" lon="6.1647">
        <ele>1001.44</ele>
        <time>2016-04-12T08:16:45Z</time>
      </trkpt>
      <trkpt lat="44.554" lon="6.1647">
        <ele>1001.62</ele>
        <time>2016-04-12T08:16:46Z</time>
      </trkpt>
      <trkpt lat="44.55366" lon="6.16456">
        <ele>1004.65</ele>
        <time>2016-04-12T08:17:05Z</time>
      </trkpt>
      <trkpt lat="44.55331" lon="6.16437">
        <ele>1007.8</ele>
        <time>2016-04-12T08:17:26Z</time>
      </trkpt>
      <trkpt lat="44.55328" lon="6.16414">
        <ele>1010.53</ele>
        <time>2016-04-12T08:17:49Z</time>
      </trkpt>
      <trkpt lat="44.55327" lon="6.16412">
        <ele>1010.39</ele>
        <time>2016-04-12T08:18:24Z</time>
      </trkpt>
      <trkpt lat="44.55327" lon="6.16412">
        <ele>1010.61</ele>
        <time>2016-04-12T08:18:58Z</time>
      </trkpt>
      <trkpt lat="44.55328" lon="6.16409">
        <ele>1010.84</ele>
        <time>2016-04-12T08:19:38Z</time>
      </trkpt>
      <trkpt lat="44.55328" lon="6.16408">
        <ele>1010.89</ele>
        <time>2016-04-12T08:20:34Z</time>
      </trkpt>
      <trkpt lat="44.55328" lon="6.16407">
        <ele>1010.72</ele>
        <time>2016-04-12T08:21:07Z</time>
      </trkpt>
      <trkpt lat="44.55325" lon="6.16407">
        <ele>1011</ele>
        <time>2016-04-12T08:21:40Z</time>
      </trkpt>
      <trkpt lat="44.55326" lon="6.16399">
        <ele>1011.09</ele>
        <time>2016-04-12T08:22:04Z</time>
      </trkpt>
      <trkpt lat="44.55326" lon="6.16396">
        <ele>1011.08</ele>
        <time>2016-04-12T08:22:07Z</time>
      </trkpt>
      <trkpt lat="44.55326" lon="6.16394">
        <ele>1011.08</ele>
        <time>2016-04-12T08:22:08Z</time>
      </trkpt>
      <trkpt lat="44.55326" lon="6.16393">
        <ele>1011.09</ele>
        <time>2016-04-12T08:22:09Z</time>
      </trkpt>
      <trkpt lat="44.55326" lon="6.16391">
        <ele>1011.1</ele>
        <time>2016-04-12T08:22:10Z</time>
      </trkpt>
      <trkpt lat="44.55327" lon="6.16389">
        <ele>1011.11</ele>
        <time>2016-04-12T08:22:11Z</time>
      </trkpt>
      <trkpt lat="44.55326" lon="6.16385">
        <ele>1011.12</ele>
        <time>2016-04-12T08:22:14Z</time>
      </trkpt>
      <trkpt lat="44.55326" lon="6.16383">
        <ele>1011.09</ele>
        <time>2016-04-12T08:22:15Z</time>
      </trkpt>
      <trkpt lat="44.55325" lon="6.16381">
        <ele>1011.07</ele>
        <time>2016-04-12T08:22:16Z</time>
      </trkpt>
      <trkpt lat="44.55325" lon="6.16379">
        <ele>1011.05</ele>
        <time>2016-04-12T08:22:17Z</time>
      </trkpt>
      <trkpt lat="44.55325" lon="6.16376">
        <ele>1011.04</ele>
        <time>2016-04-12T08:22:18Z</time>
      </trkpt>
      <trkpt lat="44.55326" lon="6.16374">
        <ele>1011.01</ele>
        <time>2016-04-12T08:22:19Z</time>
      </trkpt>
      <trkpt lat="44.55327" lon="6.16372">
        <ele>1010.99</ele>
        <time>2016-04-12T08:22:20Z</time>
      </trkpt>
      <trkpt lat="44.55326" lon="6.16369">
        <ele>1010.96</ele>
        <time>2016-04-12T08:22:21Z</time>
      </trkpt>
      <trkpt lat="44.55327" lon="6.16367">
        <ele>1010.93</ele>
        <time>2016-04-12T08:22:22Z</time>
      </trkpt>
      <trkpt lat="44.55327" lon="6.16364">
        <ele>1010.88</ele>
        <time>2016-04-12T08:22:23Z</time>
      </trkpt>
      <trkpt lat="44.55328" lon="6.16361">
        <ele>1010.84</ele>
        <time>2016-04-12T08:22:24Z</time>
      </trkpt>
      <trkpt lat="44.55328" lon="6.16358">
        <ele>1010.73</ele>
        <time>2016-04-12T08:22:25Z</time>
      </trkpt>
      <trkpt lat="44.55334" lon="6.16333">
        <ele>1011.04</ele>
        <time>2016-04-12T08:22:36Z</time>
      </trkpt>
      <trkpt lat="44.55333" lon="6.16331">
        <ele>1011.1</ele>
        <time>2016-04-12T08:22:37Z</time>
      </trkpt>
      <trkpt lat="44.55332" lon="6.1633">
        <ele>1011.14</ele>
        <time>2016-04-12T08:22:38Z</time>
      </trkpt>
      <trkpt lat="44.5533" lon="6.16328">
        <ele>1011.17</ele>
        <time>2016-04-12T08:22:39Z</time>
      </trkpt>
      <trkpt lat="44.55328" lon="6.16326">
        <ele>1011.17</ele>
        <time>2016-04-12T08:22:40Z</time>
      </trkpt>
      <trkpt lat="44.55276" lon="6.16281">
        <ele>1009.37</ele>
        <time>2016-04-12T08:22:58Z</time>
      </trkpt>
      <trkpt lat="44.55273" lon="6.16282">
        <ele>1009.27</ele>
        <time>2016-04-12T08:22:59Z</time>
      </trkpt>
      <trkpt lat="44.55269" lon="6.16285">
        <ele>1009.19</ele>
        <time>2016-04-12T08:23:00Z</time>
      </trkpt>
      <trkpt lat="44.55266" lon="6.16289">
        <ele>1009.13</ele>
        <time>2016-04-12T08:23:01Z</time>
      </trkpt>
      <trkpt lat="44.55264" lon="6.16293">
        <ele>1009.07</ele>
        <time>2016-04-12T08:23:02Z</time>
      </trkpt>
      <trkpt lat="44.55262" lon="6.16297">
        <ele>1009.01</ele>
        <time>2016-04-12T08:23:03Z</time>
      </trkpt>
      <trkpt lat="44.5526" lon="6.16302">
        <ele>1008.93</ele>
        <time>2016-04-12T08:23:04Z</time>
      </trkpt>
      <trkpt lat="44.5524" lon="6.16363">
        <ele>1008.13</ele>
        <time>2016-04-12T08:23:24Z</time>
      </trkpt>
      <trkpt lat="44.55231" lon="6.16385">
        <ele>1007.93</ele>
        <time>2016-04-12T08:23:34Z</time>
      </trkpt>
      <trkpt lat="44.5523" lon="6.16387">
        <ele>1007.93</ele>
        <time>2016-04-12T08:23:35Z</time>
      </trkpt>
      <trkpt lat="44.55229" lon="6.1639">
        <ele>1007.92</ele>
        <time>2016-04-12T08:23:36Z</time>
      </trkpt>
      <trkpt lat="44.55228" lon="6.16393">
        <ele>1007.92</ele>
        <time>2016-04-12T08:23:37Z</time>
      </trkpt>
      <trkpt lat="44.55226" lon="6.16396">
        <ele>1007.88</ele>
        <time>2016-04-12T08:23:38Z</time>
      </trkpt>
      <trkpt lat="44.55187" lon="6.16468">
        <ele>1008.01</ele>
        <time>2016-04-12T08:24:04Z</time>
      </trkpt>
      <trkpt lat="44.55156" lon="6.16541">
        <ele>1010.29</ele>
        <time>2016-04-12T08:24:33Z</time>
      </trkpt>
      <trkpt lat="44.55155" lon="6.16543">
        <ele>1010.4</ele>
        <time>2016-04-12T08:24:34Z</time>
      </trkpt>
      <trkpt lat="44.55154" lon="6.16545">
        <ele>1010.59</ele>
        <time>2016-04-12T08:24:36Z</time>
      </trkpt>
      <trkpt lat="44.55153" lon="6.16547">
        <ele>1010.69</ele>
        <time>2016-04-12T08:24:37Z</time>
      </trkpt>
      <trkpt lat="44.55146" lon="6.16608">
        <ele>1012.44</ele>
        <time>2016-04-12T08:24:57Z</time>
      </trkpt>
      <trkpt lat="44.55134" lon="6.16707">
        <ele>1014.68</ele>
        <time>2016-04-12T08:25:29Z</time>
      </trkpt>
      <trkpt lat="44.55124" lon="6.16785">
        <ele>1016.81</ele>
        <time>2016-04-12T08:25:55Z</time>
      </trkpt>
      <trkpt lat="44.55113" lon="6.16853">
        <ele>1018.46</ele>
        <time>2016-04-12T08:26:17Z</time>
      </trkpt>
      <trkpt lat="44.55098" lon="6.16911">
        <ele>1020.09</ele>
        <time>2016-04-12T08:26:37Z</time>
      </trkpt>
      <trkpt lat="44.55061" lon="6.16952">
        <ele>1022.24</ele>
        <time>2016-04-12T08:26:57Z</time>
      </trkpt>
      <trkpt lat="44.54989" lon="6.17019">
        <ele>1022.97</ele>
        <time>2016-04-12T08:27:29Z</time>
      </trkpt>
      <trkpt lat="44.54923" lon="6.17089">
        <ele>1024.33</ele>
        <time>2016-04-12T08:28:03Z</time>
      </trkpt>
      <trkpt lat="44.54856" lon="6.17082">
        <ele>1025.14</ele>
        <time>2016-04-12T08:28:28Z</time>
      </trkpt>
      <trkpt lat="44.54792" lon="6.17126">
        <ele>1025.6</ele>
        <time>2016-04-12T08:28:53Z</time>
      </trkpt>
      <trkpt lat="44.54731" lon="6.17184">
        <ele>1025.44</ele>
        <time>2016-04-12T08:29:18Z</time>
      </trkpt>
      <trkpt lat="44.5466" lon="6.17236">
        <ele>1025.59</ele>
        <time>2016-04-12T08:29:47Z</time>
      </trkpt>
      <trkpt lat="44.54586" lon="6.17225">
        <ele>1026.59</ele>
        <time>2016-04-12T08:30:16Z</time>
      </trkpt>
      <trkpt lat="44.54553" lon="6.17269">
        <ele>1029.42</ele>
        <time>2016-04-12T08:30:40Z</time>
      </trkpt>
      <trkpt lat="44.54531" lon="6.17291">
        <ele>1031.93</ele>
        <time>2016-04-12T08:30:58Z</time>
      </trkpt>
      <trkpt lat="44.54531" lon="6.17289">
        <ele>1032.05</ele>
        <time>2016-04-12T08:30:59Z</time>
      </trkpt>
      <trkpt lat="44.54528" lon="6.17283">
        <ele>1032.44</ele>
        <time>2016-04-12T08:31:03Z</time>
      </trkpt>
      <trkpt lat="44.54528" lon="6.17281">
        <ele>1032.48</ele>
        <time>2016-04-12T08:31:04Z</time>
      </trkpt>
      <trkpt lat="44.54527" lon="6.17279">
        <ele>1032.54</ele>
        <time>2016-04-12T08:31:05Z</time>
      </trkpt>
      <trkpt lat="44.54526" lon="6.17277">
        <ele>1032.59</ele>
        <time>2016-04-12T08:31:06Z</time>
      </trkpt>
      <trkpt lat="44.54525" lon="6.17275">
        <ele>1032.6</ele>
        <time>2016-04-12T08:31:07Z</time>
      </trkpt>
      <trkpt lat="44.5449" lon="6.17201">
        <ele>1034.48</ele>
        <time>2016-04-12T08:31:38Z</time>
      </trkpt>
      <trkpt lat="44.54457" lon="6.17185">
        <ele>1033.81</ele>
        <time>2016-04-12T08:31:52Z</time>
      </trkpt>
      <trkpt lat="44.54439" lon="6.17088">
        <ele>1034.21</ele>
        <time>2016-04-12T08:32:18Z</time>
      </trkpt>
      <trkpt lat="44.54442" lon="6.16973">
        <ele>1036.72</ele>
        <time>2016-04-12T08:32:48Z</time>
      </trkpt>
      <trkpt lat="44.54443" lon="6.1684">
        <ele>1038.49</ele>
        <time>2016-04-12T08:33:22Z</time>
      </trkpt>
      <trkpt lat="44.54439" lon="6.16755">
        <ele>1040.82</ele>
        <time>2016-04-12T08:33:49Z</time>
      </trkpt>
      <trkpt lat="44.54452" lon="6.16688">
        <ele>1043.87</ele>
        <time>2016-04-12T08:34:16Z</time>
      </trkpt>
      <trkpt lat="44.54457" lon="6.16632">
        <ele>1046.88</ele>
        <time>2016-04-12T08:34:41Z</time>
      </trkpt>
      <trkpt lat="44.54464" lon="6.16588">
        <ele>1049.91</ele>
        <time>2016-04-12T08:35:03Z</time>
      </trkpt>
      <trkpt lat="44.54465" lon="6.16549">
        <ele>1053.05</ele>
        <time>2016-04-12T08:35:22Z</time>
      </trkpt>
      <trkpt lat="44.54467" lon="6.16512">
        <ele>1056.07</ele>
        <time>2016-04-12T08:35:41Z</time>
      </trkpt>
      <trkpt lat="44.5449" lon="6.1646">
        <ele>1059.14</ele>
        <time>2016-04-12T08:36:09Z</time>
      </trkpt>
      <trkpt lat="44.54534" lon="6.16392">
        <ele>1061.63</ele>
        <time>2016-04-12T08:36:46Z</time>
      </trkpt>
      <trkpt lat="44.54567" lon="6.16324">
        <ele>1064.65</ele>
        <time>2016-04-12T08:37:18Z</time>
      </trkpt>
      <trkpt lat="44.54581" lon="6.16294">
        <ele>1067.73</ele>
        <time>2016-04-12T08:37:34Z</time>
      </trkpt>
      <trkpt lat="44.54592" lon="6.16267">
        <ele>1070.77</ele>
        <time>2016-04-12T08:37:48Z</time>
      </trkpt>
      <trkpt lat="44.54585" lon="6.16215">
        <ele>1071.9</ele>
        <time>2016-04-12T08:38:10Z</time>
      </trkpt>
      <trkpt lat="44.54565" lon="6.16157">
        <ele>1072.45</ele>
        <time>2016-04-12T08:38:33Z</time>
      </trkpt>
      <trkpt lat="44.5453" lon="6.1614">
        <ele>1073.13</ele>
        <time>2016-04-12T08:38:57Z</time>
      </trkpt>
      <trkpt lat="44.54481" lon="6.16162">
        <ele>1075.16</ele>
        <time>2016-04-12T08:39:25Z</time>
      </trkpt>
      <trkpt lat="44.5448" lon="6.16165">
        <ele>1075.22</ele>
        <time>2016-04-12T08:39:41Z</time>
      </trkpt>
      <trkpt lat="44.54479" lon="6.16165">
        <ele>1075.63</ele>
        <time>2016-04-12T08:40:14Z</time>
      </trkpt>
      <trkpt lat="44.5448" lon="6.16165">
        <ele>1075.57</ele>
        <time>2016-04-12T08:40:45Z</time>
      </trkpt>
      <trkpt lat="44.54481" lon="6.16167">
        <ele>1075.42</ele>
        <time>2016-04-12T08:41:29Z</time>
      </trkpt>
      <trkpt lat="44.54481" lon="6.16167">
        <ele>1075.58</ele>
        <time>2016-04-12T08:42:15Z</time>
      </trkpt>
      <trkpt lat="44.5448" lon="6.16166">
        <ele>1075.67</ele>
        <time>2016-04-12T08:42:58Z</time>
      </trkpt>
      <trkpt lat="44.54481" lon="6.16166">
        <ele>1075.44</ele>
        <time>2016-04-12T08:43:44Z</time>
      </trkpt>
      <trkpt lat="44.54471" lon="6.16164">
        <ele>1075.45</ele>
        <time>2016-04-12T08:44:12Z</time>
      </trkpt>
      <trkpt lat="44.5447" lon="6.16164">
        <ele>1075.5</ele>
        <time>2016-04-12T08:44:13Z</time>
      </trkpt>
      <trkpt lat="44.54431" lon="6.16152">
        <ele>1077.34</ele>
        <time>2016-04-12T08:44:40Z</time>
      </trkpt>
      <trkpt lat="44.5438" lon="6.16141">
        <ele>1078.54</ele>
        <time>2016-04-12T08:45:05Z</time>
      </trkpt>
      <trkpt lat="44.5433" lon="6.16126">
        <ele>1078.99</ele>
        <time>2016-04-12T08:45:26Z</time>
      </trkpt>
      <trkpt lat="44.54298" lon="6.16065">
        <ele>1076.5</ele>
        <time>2016-04-12T08:45:40Z</time>
      </trkpt>
      <trkpt lat="44.54295" lon="6.16059">
        <ele>1076.34</ele>
        <time>2016-04-12T08:45:41Z</time>
      </trkpt>
      <trkpt lat="44.54291" lon="6.16053">
        <ele>1076.18</ele>
        <time>2016-04-12T08:45:42Z</time>
      </trkpt>
      <trkpt lat="44.54263" lon="6.16021">
        <ele>1075.1</ele>
        <time>2016-04-12T08:45:48Z</time>
      </trkpt>
      <trkpt lat="44.54255" lon="6.16011">
        <ele>1074.36</ele>
        <time>2016-04-12T08:45:50Z</time>
      </trkpt>
      <trkpt lat="44.54252" lon="6.16005">
        <ele>1074.12</ele>
        <time>2016-04-12T08:45:51Z</time>
      </trkpt>
      <trkpt lat="44.54249" lon="6.15999">
        <ele>1073.91</ele>
        <time>2016-04-12T08:45:52Z</time>
      </trkpt>
      <trkpt lat="44.5419" lon="6.15945">
        <ele>1073.38</ele>
        <time>2016-04-12T08:46:12Z</time>
      </trkpt>
      <trkpt lat="44.54093" lon="6.15886">
        <ele>1072.4</ele>
        <time>2016-04-12T08:46:36Z</time>
      </trkpt>
      <trkpt lat="44.54046" lon="6.15849">
        <ele>1070.47</ele>
        <time>2016-04-12T08:46:47Z</time>
      </trkpt>
      <trkpt lat="44.54043" lon="6.15845">
        <ele>1070.38</ele>
        <time>2016-04-12T08:46:48Z</time>
      </trkpt>
      <trkpt lat="44.53976" lon="6.15743">
        <ele>1071.87</ele>
        <time>2016-04-12T08:47:16Z</time>
      </trkpt>
      <trkpt lat="44.5389" lon="6.15654">
        <ele>1074.03</ele>
        <time>2016-04-12T08:47:48Z</time>
      </trkpt>
      <trkpt lat="44.53847" lon="6.15601">
        <ele>1077.18</ele>
        <time>2016-04-12T08:48:12Z</time>
      </trkpt>
      <trkpt lat="44.53829" lon="6.15579">
        <ele>1080.25</ele>
        <time>2016-04-12T08:48:27Z</time>
      </trkpt>
      <trkpt lat="44.53804" lon="6.15549">
        <ele>1083.29</ele>
        <time>2016-04-12T08:48:46Z</time>
      </trkpt>
      <trkpt lat="44.5378" lon="6.15514">
        <ele>1086.44</ele>
        <time>2016-04-12T08:49:06Z</time>
      </trkpt>
      <trkpt lat="44.53759" lon="6.15475">
        <ele>1089.5</ele>
        <time>2016-04-12T08:49:25Z</time>
      </trkpt>
      <trkpt lat="44.537" lon="6.15413">
        <ele>1092.57</ele>
        <time>2016-04-12T08:50:02Z</time>
      </trkpt>
      <trkpt lat="44.53655" lon="6.15338">
        <ele>1093.44</ele>
        <time>2016-04-12T08:50:32Z</time>
      </trkpt>
      <trkpt lat="44.53605" lon="6.15254">
        <ele>1093.07</ele>
        <time>2016-04-12T08:50:54Z</time>
      </trkpt>
      <trkpt lat="44.5357" lon="6.15187">
        <ele>1092.76</ele>
        <time>2016-04-12T08:51:13Z</time>
      </trkpt>
      <trkpt lat="44.53559" lon="6.15117">
        <ele>1095.83</ele>
        <time>2016-04-12T08:51:33Z</time>
      </trkpt>
      <trkpt lat="44.5354" lon="6.15053">
        <ele>1098.94</ele>
        <time>2016-04-12T08:51:53Z</time>
      </trkpt>
      <trkpt lat="44.53538" lon="6.14983">
        <ele>1101.46</ele>
        <time>2016-04-12T08:52:19Z</time>
      </trkpt>
      <trkpt lat="44.53537" lon="6.14979">
        <ele>1102.08</ele>
        <time>2016-04-12T08:52:36Z</time>
      </trkpt>
      <trkpt lat="44.53537" lon="6.1498">
        <ele>1102.31</ele>
        <time>2016-04-12T08:53:12Z</time>
      </trkpt>
      <trkpt lat="44.53535" lon="6.14978">
        <ele>1101.99</ele>
        <time>2016-04-12T08:53:50Z</time>
      </trkpt>
      <trkpt lat="44.53533" lon="6.14979">
        <ele>1101.9</ele>
        <time>2016-04-12T08:54:33Z</time>
      </trkpt>
      <trkpt lat="44.53529" lon="6.14974">
        <ele>1102.58</ele>
        <time>2016-04-12T08:55:08Z</time>
      </trkpt>
      <trkpt lat="44.5351" lon="6.14968">
        <ele>1104.64</ele>
        <time>2016-04-12T08:55:29Z</time>
      </trkpt>
      <trkpt lat="44.53497" lon="6.14973">
        <ele>1106.42</ele>
        <time>2016-04-12T08:55:46Z</time>
      </trkpt>
      <trkpt lat="44.5346" lon="6.15007">
        <ele>1109.01</ele>
        <time>2016-04-12T08:56:08Z</time>
      </trkpt>
      <trkpt lat="44.53428" lon="6.15039">
        <ele>1109.98</ele>
        <time>2016-04-12T08:56:35Z</time>
      </trkpt>
      <trkpt lat="44.53396" lon="6.15063">
        <ele>1110.87</ele>
        <time>2016-04-12T08:56:57Z</time>
      </trkpt>
      <trkpt lat="44.53362" lon="6.15083">
        <ele>1111.58</ele>
        <time>2016-04-12T08:57:18Z</time>
      </trkpt>
      <trkpt lat="44.53322" lon="6.15113">
        <ele>1113.04</ele>
        <time>2016-04-12T08:57:39Z</time>
      </trkpt>
      <trkpt lat="44.53295" lon="6.15133">
        <ele>1116.19</ele>
        <time>2016-04-12T08:57:57Z</time>
      </trkpt>
      <trkpt lat="44.53271" lon="6.15134">
        <ele>1119.19</ele>
        <time>2016-04-12T08:58:15Z</time>
      </trkpt>
      <trkpt lat="44.53231" lon="6.15094">
        <ele>1121.79</ele>
        <time>2016-04-12T08:58:45Z</time>
      </trkpt>
      <trkpt lat="44.53187" lon="6.15038">
        <ele>1120.75</ele>
        <time>2016-04-12T08:59:08Z</time>
      </trkpt>
      <trkpt lat="44.53153" lon="6.14965">
        <ele>1119.05</ele>
        <time>2016-04-12T08:59:30Z</time>
      </trkpt>
      <trkpt lat="44.53157" lon="6.14928">
        <ele>1120.84</ele>
        <time>2016-04-12T08:59:48Z</time>
      </trkpt>
      <trkpt lat="44.53157" lon="6.14926">
        <ele>1121.08</ele>
        <time>2016-04-12T08:59:49Z</time>
      </trkpt>
      <trkpt lat="44.53162" lon="6.14904">
        <ele>1123.55</ele>
        <time>2016-04-12T09:00:02Z</time>
      </trkpt>
      <trkpt lat="44.53162" lon="6.14902">
        <ele>1123.75</ele>
        <time>2016-04-12T09:00:03Z</time>
      </trkpt>
      <trkpt lat="44.53162" lon="6.149">
        <ele>1123.91</ele>
        <time>2016-04-12T09:00:04Z</time>
      </trkpt>
      <trkpt lat="44.53169" lon="6.14877">
        <ele>1127.11</ele>
        <time>2016-04-12T09:00:18Z</time>
      </trkpt>
      <trkpt lat="44.53169" lon="6.14875">
        <ele>1127.38</ele>
        <time>2016-04-12T09:00:19Z</time>
      </trkpt>
      <trkpt lat="44.53169" lon="6.14873">
        <ele>1127.67</ele>
        <time>2016-04-12T09:00:20Z</time>
      </trkpt>
      <trkpt lat="44.53169" lon="6.14872">
        <ele>1127.97</ele>
        <time>2016-04-12T09:00:21Z</time>
      </trkpt>
      <trkpt lat="44.53169" lon="6.14865">
        <ele>1128.95</ele>
        <time>2016-04-12T09:00:25Z</time>
      </trkpt>
      <trkpt lat="44.53169" lon="6.14863">
        <ele>1129.2</ele>
        <time>2016-04-12T09:00:26Z</time>
      </trkpt>
      <trkpt lat="44.53169" lon="6.14861">
        <ele>1129.44</ele>
        <time>2016-04-12T09:00:27Z</time>
      </trkpt>
      <trkpt lat="44.53169" lon="6.14859">
        <ele>1129.67</ele>
        <time>2016-04-12T09:00:28Z</time>
      </trkpt>
      <trkpt lat="44.53168" lon="6.14857">
        <ele>1129.9</ele>
        <time>2016-04-12T09:00:29Z</time>
      </trkpt>
      <trkpt lat="44.53167" lon="6.14854">
        <ele>1130.33</ele>
        <time>2016-04-12T09:00:31Z</time>
      </trkpt>
      <trkpt lat="44.53167" lon="6.14853">
        <ele>1130.81</ele>
        <time>2016-04-12T09:00:32Z</time>
      </trkpt>
      <trkpt lat="44.53167" lon="6.14848">
        <ele>1131.54</ele>
        <time>2016-04-12T09:00:35Z</time>
      </trkpt>
      <trkpt lat="44.53166" lon="6.14827">
        <ele>1134.16</ele>
        <time>2016-04-12T09:00:47Z</time>
      </trkpt>
      <trkpt lat="44.53157" lon="6.14806">
        <ele>1137.3</ele>
        <time>2016-04-12T09:00:59Z</time>
      </trkpt>
      <trkpt lat="44.53152" lon="6.14799">
        <ele>1138.48</ele>
        <time>2016-04-12T09:01:05Z</time>
      </trkpt>
      <trkpt lat="44.53151" lon="6.14798">
        <ele>1138.7</ele>
        <time>2016-04-12T09:01:06Z</time>
      </trkpt>
      <trkpt lat="44.5315" lon="6.14798">
        <ele>1138.94</ele>
        <time>2016-04-12T09:01:07Z</time>
      </trkpt>
      <trkpt lat="44.53141" lon="6.14783">
        <ele>1142.03</ele>
        <time>2016-04-12T09:01:20Z</time>
      </trkpt>
      <trkpt lat="44.53141" lon="6.14768">
        <ele>1143.37</ele>
        <time>2016-04-12T09:01:28Z</time>
      </trkpt>
      <trkpt lat="44.53142" lon="6.14764">
        <ele>1143.66</ele>
        <time>2016-04-12T09:01:31Z</time>
      </trkpt>
      <trkpt lat="44.53144" lon="6.14764">
        <ele>1143.75</ele>
        <time>2016-04-12T09:01:32Z</time>
      </trkpt>
      <trkpt lat="44.53145" lon="6.14763">
        <ele>1143.84</ele>
        <time>2016-04-12T09:01:33Z</time>
      </trkpt>
      <trkpt lat="44.53146" lon="6.14762">
        <ele>1143.95</ele>
        <time>2016-04-12T09:01:34Z</time>
      </trkpt>
      <trkpt lat="44.53147" lon="6.14762">
        <ele>1144.08</ele>
        <time>2016-04-12T09:01:35Z</time>
      </trkpt>
      <trkpt lat="44.53148" lon="6.14761">
        <ele>1144.23</ele>
        <time>2016-04-12T09:01:36Z</time>
      </trkpt>
      <trkpt lat="44.53149" lon="6.14759">
        <ele>1144.38</ele>
        <time>2016-04-12T09:01:37Z</time>
      </trkpt>
      <trkpt lat="44.53175" lon="6.14749">
        <ele>1147.44</ele>
        <time>2016-04-12T09:01:59Z</time>
      </trkpt>
      <trkpt lat="44.53176" lon="6.14749">
        <ele>1147.58</ele>
        <time>2016-04-12T09:02:00Z</time>
      </trkpt>
      <trkpt lat="44.53177" lon="6.14749">
        <ele>1147.71</ele>
        <time>2016-04-12T09:02:01Z</time>
      </trkpt>
      <trkpt lat="44.53179" lon="6.14749">
        <ele>1147.84</ele>
        <time>2016-04-12T09:02:02Z</time>
      </trkpt>
      <trkpt lat="44.5318" lon="6.14749">
        <ele>1147.98</ele>
        <time>2016-04-12T09:02:03Z</time>
      </trkpt>
      <trkpt lat="44.53181" lon="6.14749">
        <ele>1148.13</ele>
        <time>2016-04-12T09:02:04Z</time>
      </trkpt>
      <trkpt lat="44.53193" lon="6.14741">
        <ele>1149.83</ele>
        <time>2016-04-12T09:02:14Z</time>
      </trkpt>
      <trkpt lat="44.53195" lon="6.14739">
        <ele>1150.01</ele>
        <time>2016-04-12T09:02:15Z</time>
      </trkpt>
      <trkpt lat="44.53196" lon="6.14738">
        <ele>1150.2</ele>
        <time>2016-04-12T09:02:16Z</time>
      </trkpt>
      <trkpt lat="44.53198" lon="6.14737">
        <ele>1150.39</ele>
        <time>2016-04-12T09:02:17Z</time>
      </trkpt>
      <trkpt lat="44.53199" lon="6.14736">
        <ele>1150.55</ele>
        <time>2016-04-12T09:02:18Z</time>
      </trkpt>
      <trkpt lat="44.532" lon="6.14735">
        <ele>1150.72</ele>
        <time>2016-04-12T09:02:19Z</time>
      </trkpt>
      <trkpt lat="44.53202" lon="6.14735">
        <ele>1150.9</ele>
        <time>2016-04-12T09:02:20Z</time>
      </trkpt>
      <trkpt lat="44.53221" lon="6.14716">
        <ele>1152.52</ele>
        <time>2016-04-12T09:02:40Z</time>
      </trkpt>
      <trkpt lat="44.53226" lon="6.14714">
        <ele>1152.21</ele>
        <time>2016-04-12T09:03:04Z</time>
      </trkpt>
      <trkpt lat="44.53225" lon="6.14715">
        <ele>1152.21</ele>
        <time>2016-04-12T09:03:45Z</time>
      </trkpt>
      <trkpt lat="44.53226" lon="6.14712">
        <ele>1152.21</ele>
        <time>2016-04-12T09:04:27Z</time>
      </trkpt>
      <trkpt lat="44.53226" lon="6.14711">
        <ele>1152.14</ele>
        <time>2016-04-12T09:05:09Z</time>
      </trkpt>
      <trkpt lat="44.53224" lon="6.1471">
        <ele>1152.15</ele>
        <time>2016-04-12T09:05:53Z</time>
      </trkpt>
      <trkpt lat="44.53228" lon="6.14711">
        <ele>1152.48</ele>
        <time>2016-04-12T09:06:36Z</time>
      </trkpt>
      <trkpt lat="44.53228" lon="6.14711">
        <ele>1152.89</ele>
        <time>2016-04-12T09:07:17Z</time>
      </trkpt>
      <trkpt lat="44.53224" lon="6.14711">
        <ele>1153.29</ele>
        <time>2016-04-12T09:07:43Z</time>
      </trkpt>
      <trkpt lat="44.53225" lon="6.14711">
        <ele>1152.47</ele>
        <time>2016-04-12T09:08:18Z</time>
      </trkpt>
      <trkpt lat="44.53223" lon="6.1471">
        <ele>1152.89</ele>
        <time>2016-04-12T09:08:48Z</time>
      </trkpt>
      <trkpt lat="44.53226" lon="6.14711">
        <ele>1153.15</ele>
        <time>2016-04-12T09:09:41Z</time>
      </trkpt>
      <trkpt lat="44.53226" lon="6.1471">
        <ele>1153.14</ele>
        <time>2016-04-12T09:09:42Z</time>
      </trkpt>
      <trkpt lat="44.53226" lon="6.14706">
        <ele>1153.13</ele>
        <time>2016-04-12T09:09:44Z</time>
      </trkpt>
      <trkpt lat="44.5321" lon="6.14645">
        <ele>1153.15</ele>
        <time>2016-04-12T09:10:08Z</time>
      </trkpt>
      <trkpt lat="44.53202" lon="6.14623">
        <ele>1154.61</ele>
        <time>2016-04-12T09:10:19Z</time>
      </trkpt>
      <trkpt lat="44.53203" lon="6.14628">
        <ele>1155.7</ele>
        <time>2016-04-12T09:10:29Z</time>
      </trkpt>
      <trkpt lat="44.53201" lon="6.14628">
        <ele>1155.22</ele>
        <time>2016-04-12T09:10:41Z</time>
      </trkpt>
      <trkpt lat="44.53198" lon="6.14622">
        <ele>1155.47</ele>
        <time>2016-04-12T09:10:46Z</time>
      </trkpt>
      <trkpt lat="44.53181" lon="6.1456">
        <ele>1156.8</ele>
        <time>2016-04-12T09:11:11Z</time>
      </trkpt>
      <trkpt lat="44.53163" lon="6.14516">
        <ele>1156.94</ele>
        <time>2016-04-12T09:11:29Z</time>
      </trkpt>
      <trkpt lat="44.53161" lon="6.14507">
        <ele>1157.08</ele>
        <time>2016-04-12T09:11:32Z</time>
      </trkpt>
      <trkpt lat="44.5316" lon="6.14505">
        <ele>1157.14</ele>
        <time>2016-04-12T09:11:33Z</time>
      </trkpt>
      <trkpt lat="44.53157" lon="6.14496">
        <ele>1157.34</ele>
        <time>2016-04-12T09:11:36Z</time>
      </trkpt>
      <trkpt lat="44.53156" lon="6.14491">
        <ele>1157.4</ele>
        <time>2016-04-12T09:11:37Z</time>
      </trkpt>
      <trkpt lat="44.53155" lon="6.14488">
        <ele>1157.47</ele>
        <time>2016-04-12T09:11:38Z</time>
      </trkpt>
      <trkpt lat="44.53153" lon="6.14484">
        <ele>1157.53</ele>
        <time>2016-04-12T09:11:39Z</time>
      </trkpt>
      <trkpt lat="44.53153" lon="6.14481">
        <ele>1157.6</ele>
        <time>2016-04-12T09:11:40Z</time>
      </trkpt>
      <trkpt lat="44.53152" lon="6.14477">
        <ele>1157.67</ele>
        <time>2016-04-12T09:11:41Z</time>
      </trkpt>
      <trkpt lat="44.53151" lon="6.14474">
        <ele>1157.76</ele>
        <time>2016-04-12T09:11:42Z</time>
      </trkpt>
      <trkpt lat="44.53129" lon="6.14429">
        <ele>1160.12</ele>
        <time>2016-04-12T09:12:00Z</time>
      </trkpt>
      <trkpt lat="44.53115" lon="6.14412">
        <ele>1162.14</ele>
        <time>2016-04-12T09:12:10Z</time>
      </trkpt>
      <trkpt lat="44.53114" lon="6.14411">
        <ele>1162.31</ele>
        <time>2016-04-12T09:12:11Z</time>
      </trkpt>
      <trkpt lat="44.53112" lon="6.14409">
        <ele>1162.46</ele>
        <time>2016-04-12T09:12:12Z</time>
      </trkpt>
      <trkpt lat="44.5311" lon="6.14408">
        <ele>1162.64</ele>
        <time>2016-04-12T09:12:13Z</time>
      </trkpt>
      <trkpt lat="44.53109" lon="6.14406">
        <ele>1163</ele>
        <time>2016-04-12T09:12:14Z</time>
      </trkpt>
      <trkpt lat="44.53107" lon="6.14405">
        <ele>1163.16</ele>
        <time>2016-04-12T09:12:15Z</time>
      </trkpt>
      <trkpt lat="44.53101" lon="6.14397">
        <ele>1164.19</ele>
        <time>2016-04-12T09:12:21Z</time>
      </trkpt>
      <trkpt lat="44.531" lon="6.14396">
        <ele>1164.36</ele>
        <time>2016-04-12T09:12:22Z</time>
      </trkpt>
      <trkpt lat="44.53098" lon="6.14394">
        <ele>1164.53</ele>
        <time>2016-04-12T09:12:23Z</time>
      </trkpt>
      <trkpt lat="44.53086" lon="6.14383">
        <ele>1165.97</ele>
        <time>2016-04-12T09:12:31Z</time>
      </trkpt>
      <trkpt lat="44.53085" lon="6.14381">
        <ele>1166.12</ele>
        <time>2016-04-12T09:12:32Z</time>
      </trkpt>
      <trkpt lat="44.53084" lon="6.14379">
        <ele>1166.26</ele>
        <time>2016-04-12T09:12:33Z</time>
      </trkpt>
      <trkpt lat="44.53064" lon="6.14359">
        <ele>1168.52</ele>
        <time>2016-04-12T09:12:49Z</time>
      </trkpt>
      <trkpt lat="44.53063" lon="6.14358">
        <ele>1168.68</ele>
        <time>2016-04-12T09:12:50Z</time>
      </trkpt>
      <trkpt lat="44.53062" lon="6.14357">
        <ele>1168.84</ele>
        <time>2016-04-12T09:12:51Z</time>
      </trkpt>
      <trkpt lat="44.53061" lon="6.14356">
        <ele>1169.01</ele>
        <time>2016-04-12T09:12:52Z</time>
      </trkpt>
      <trkpt lat="44.53037" lon="6.1434">
        <ele>1172.01</ele>
        <time>2016-04-12T09:13:09Z</time>
      </trkpt>
      <trkpt lat="44.5302" lon="6.14331">
        <ele>1175.07</ele>
        <time>2016-04-12T09:13:22Z</time>
      </trkpt>
      <trkpt lat="44.53003" lon="6.14318">
        <ele>1177.33</ele>
        <time>2016-04-12T09:13:37Z</time>
      </trkpt>
      <trkpt lat="44.52993" lon="6.143">
        <ele>1179.39</ele>
        <time>2016-04-12T09:13:50Z</time>
      </trkpt>
      <trkpt lat="44.52992" lon="6.14269">
        <ele>1181.91</ele>
        <time>2016-04-12T09:14:09Z</time>
      </trkpt>
      <trkpt lat="44.52991" lon="6.14267">
        <ele>1182.05</ele>
        <time>2016-04-12T09:14:10Z</time>
      </trkpt>
      <trkpt lat="44.52991" lon="6.14264">
        <ele>1182.19</ele>
        <time>2016-04-12T09:14:11Z</time>
      </trkpt>
      <trkpt lat="44.52991" lon="6.1426">
        <ele>1182.31</ele>
        <time>2016-04-12T09:14:12Z</time>
      </trkpt>
      <trkpt lat="44.52991" lon="6.14257">
        <ele>1182.43</ele>
        <time>2016-04-12T09:14:13Z</time>
      </trkpt>
      <trkpt lat="44.52996" lon="6.14211">
        <ele>1185.47</ele>
        <time>2016-04-12T09:14:31Z</time>
      </trkpt>
      <trkpt lat="44.52993" lon="6.14204">
        <ele>1186.43</ele>
        <time>2016-04-12T09:14:49Z</time>
      </trkpt>
      <trkpt lat="44.53001" lon="6.14199">
        <ele>1186.62</ele>
        <time>2016-04-12T09:15:27Z</time>
      </trkpt>
      <trkpt lat="44.52998" lon="6.14198">
        <ele>1186.11</ele>
        <time>2016-04-12T09:15:55Z</time>
      </trkpt>
      <trkpt lat="44.52996" lon="6.14193">
        <ele>1187.05</ele>
        <time>2016-04-12T09:16:19Z</time>
      </trkpt>
      <trkpt lat="44.52993" lon="6.14187">
        <ele>1187.3</ele>
        <time>2016-04-12T09:16:50Z</time>
      </trkpt>
      <trkpt lat="44.52995" lon="6.1419">
        <ele>1187.89</ele>
        <time>2016-04-12T09:17:19Z</time>
      </trkpt>
      <trkpt lat="44.52994" lon="6.14188">
        <ele>1187.61</ele>
        <time>2016-04-12T09:17:59Z</time>
      </trkpt>
      <trkpt lat="44.5299" lon="6.14187">
        <ele>1187.89</ele>
        <time>2016-04-12T09:18:26Z</time>
      </trkpt>
      <trkpt lat="44.52987" lon="6.14185">
        <ele>1187.8</ele>
        <time>2016-04-12T09:19:05Z</time>
      </trkpt>
      <trkpt lat="44.52988" lon="6.1419">
        <ele>1187.86</ele>
        <time>2016-04-12T09:19:36Z</time>
      </trkpt>
      <trkpt lat="44.52988" lon="6.14189">
        <ele>1187.63</ele>
        <time>2016-04-12T09:20:07Z</time>
      </trkpt>
      <trkpt lat="44.52985" lon="6.14189">
        <ele>1187.33</ele>
        <time>2016-04-12T09:20:40Z</time>
      </trkpt>
      <trkpt lat="44.52991" lon="6.14191">
        <ele>1187.36</ele>
        <time>2016-04-12T09:21:10Z</time>
      </trkpt>
      <trkpt lat="44.52989" lon="6.14188">
        <ele>1187.61</ele>
        <time>2016-04-12T09:21:34Z</time>
      </trkpt>
      <trkpt lat="44.52987" lon="6.14185">
        <ele>1187.6</ele>
        <time>2016-04-12T09:21:36Z</time>
      </trkpt>
      <trkpt lat="44.52986" lon="6.14183">
        <ele>1187.61</ele>
        <time>2016-04-12T09:21:37Z</time>
      </trkpt>
      <trkpt lat="44.52985" lon="6.1418">
        <ele>1187.62</ele>
        <time>2016-04-12T09:21:38Z</time>
      </trkpt>
      <trkpt lat="44.52983" lon="6.14177">
        <ele>1187.64</ele>
        <time>2016-04-12T09:21:39Z</time>
      </trkpt>
      <trkpt lat="44.52981" lon="6.14174">
        <ele>1187.66</ele>
        <time>2016-04-12T09:21:40Z</time>
      </trkpt>
      <trkpt lat="44.52942" lon="6.1413">
        <ele>1187.42</ele>
        <time>2016-04-12T09:22:02Z</time>
      </trkpt>
      <trkpt lat="44.52906" lon="6.14101">
        <ele>1187.33</ele>
        <time>2016-04-12T09:22:21Z</time>
      </trkpt>
      <trkpt lat="44.52871" lon="6.14034">
        <ele>1186.57</ele>
        <time>2016-04-12T09:22:37Z</time>
      </trkpt>
      <trkpt lat="44.52868" lon="6.14029">
        <ele>1186.48</ele>
        <time>2016-04-12T09:22:38Z</time>
      </trkpt>
      <trkpt lat="44.52865" lon="6.14024">
        <ele>1186.38</ele>
        <time>2016-04-12T09:22:39Z</time>
      </trkpt>
      <trkpt lat="44.52862" lon="6.14019">
        <ele>1186.3</ele>
        <time>2016-04-12T09:22:40Z</time>
      </trkpt>
      <trkpt lat="44.5286" lon="6.14015">
        <ele>1186.22</ele>
        <time>2016-04-12T09:22:41Z</time>
      </trkpt>
      <trkpt lat="44.52857" lon="6.14012">
        <ele>1186.15</ele>
        <time>2016-04-12T09:22:42Z</time>
      </trkpt>
      <trkpt lat="44.52855" lon="6.14008">
        <ele>1186.08</ele>
        <time>2016-04-12T09:22:43Z</time>
      </trkpt>
      <trkpt lat="44.52811" lon="6.13928">
        <ele>1184.62</ele>
        <time>2016-04-12T09:23:00Z</time>
      </trkpt>
      <trkpt lat="44.52803" lon="6.13915">
        <ele>1184.32</ele>
        <time>2016-04-12T09:23:03Z</time>
      </trkpt>
      <trkpt lat="44.52797" lon="6.13906">
        <ele>1184.14</ele>
        <time>2016-04-12T09:23:05Z</time>
      </trkpt>
      <trkpt lat="44.52795" lon="6.13901">
        <ele>1184.05</ele>
        <time>2016-04-12T09:23:06Z</time>
      </trkpt>
      <trkpt lat="44.52793" lon="6.13897">
        <ele>1183.95</ele>
        <time>2016-04-12T09:23:07Z</time>
      </trkpt>
      <trkpt lat="44.52791" lon="6.13892">
        <ele>1183.85</ele>
        <time>2016-04-12T09:23:08Z</time>
      </trkpt>
      <trkpt lat="44.5279" lon="6.13888">
        <ele>1183.75</ele>
        <time>2016-04-12T09:23:09Z</time>
      </trkpt>
      <trkpt lat="44.52775" lon="6.13841">
        <ele>1183.06</ele>
        <time>2016-04-12T09:23:20Z</time>
      </trkpt>
      <trkpt lat="44.52775" lon="6.13835">
        <ele>1182.99</ele>
        <time>2016-04-12T09:23:21Z</time>
      </trkpt>
      <trkpt lat="44.52775" lon="6.13829">
        <ele>1182.9</ele>
        <time>2016-04-12T09:23:22Z</time>
      </trkpt>
      <trkpt lat="44.52775" lon="6.13823">
        <ele>1182.82</ele>
        <time>2016-04-12T09:23:23Z</time>
      </trkpt>
      <trkpt lat="44.52774" lon="6.13816">
        <ele>1182.73</ele>
        <time>2016-04-12T09:23:24Z</time>
      </trkpt>
      <trkpt lat="44.52772" lon="6.13811">
        <ele>1182.6</ele>
        <time>2016-04-12T09:23:25Z</time>
      </trkpt>
      <trkpt lat="44.52768" lon="6.13805">
        <ele>1182.46</ele>
        <time>2016-04-12T09:23:26Z</time>
      </trkpt>
      <trkpt lat="44.52765" lon="6.138">
        <ele>1182.3</ele>
        <time>2016-04-12T09:23:27Z</time>
      </trkpt>
      <trkpt lat="44.52752" lon="6.13782">
        <ele>1181.68</ele>
        <time>2016-04-12T09:23:30Z</time>
      </trkpt>
      <trkpt lat="44.52743" lon="6.13769">
        <ele>1181.25</ele>
        <time>2016-04-12T09:23:32Z</time>
      </trkpt>
      <trkpt lat="44.52739" lon="6.13761">
        <ele>1181.05</ele>
        <time>2016-04-12T09:23:33Z</time>
      </trkpt>
      <trkpt lat="44.52725" lon="6.13729">
        <ele>1179.9</ele>
        <time>2016-04-12T09:23:37Z</time>
      </trkpt>
      <trkpt lat="44.5272" lon="6.13723">
        <ele>1179.46</ele>
        <time>2016-04-12T09:23:38Z</time>
      </trkpt>
      <trkpt lat="44.52716" lon="6.13718">
        <ele>1178.97</ele>
        <time>2016-04-12T09:23:39Z</time>
      </trkpt>
      <trkpt lat="44.52713" lon="6.13712">
        <ele>1178.41</ele>
        <time>2016-04-12T09:23:40Z</time>
      </trkpt>
      <trkpt lat="44.52711" lon="6.13705">
        <ele>1177.84</ele>
        <time>2016-04-12T09:23:41Z</time>
      </trkpt>
      <trkpt lat="44.52711" lon="6.13697">
        <ele>1177.23</ele>
        <time>2016-04-12T09:23:42Z</time>
      </trkpt>
      <trkpt lat="44.52713" lon="6.13687">
        <ele>1176.57</ele>
        <time>2016-04-12T09:23:43Z</time>
      </trkpt>
      <trkpt lat="44.52716" lon="6.13679">
        <ele>1175.37</ele>
        <time>2016-04-12T09:23:44Z</time>
      </trkpt>
      <trkpt lat="44.52719" lon="6.13671">
        <ele>1174.86</ele>
        <time>2016-04-12T09:23:45Z</time>
      </trkpt>
      <trkpt lat="44.52721" lon="6.13663">
        <ele>1174.33</ele>
        <time>2016-04-12T09:23:46Z</time>
      </trkpt>
      <trkpt lat="44.52721" lon="6.13656">
        <ele>1173.76</ele>
        <time>2016-04-12T09:23:47Z</time>
      </trkpt>
      <trkpt lat="44.52722" lon="6.1365">
        <ele>1173.17</ele>
        <time>2016-04-12T09:23:48Z</time>
      </trkpt>
      <trkpt lat="44.52721" lon="6.13645">
        <ele>1172.54</ele>
        <time>2016-04-12T09:23:49Z</time>
      </trkpt>
      <trkpt lat="44.5272" lon="6.1364">
        <ele>1171.89</ele>
        <time>2016-04-12T09:23:50Z</time>
      </trkpt>
      <trkpt lat="44.52719" lon="6.13635">
        <ele>1171.29</ele>
        <time>2016-04-12T09:23:51Z</time>
      </trkpt>
      <trkpt lat="44.52716" lon="6.1363">
        <ele>1170.75</ele>
        <time>2016-04-12T09:23:52Z</time>
      </trkpt>
      <trkpt lat="44.52714" lon="6.13625">
        <ele>1170.29</ele>
        <time>2016-04-12T09:23:53Z</time>
      </trkpt>
      <trkpt lat="44.52711" lon="6.13621">
        <ele>1169.85</ele>
        <time>2016-04-12T09:23:54Z</time>
      </trkpt>
      <trkpt lat="44.52707" lon="6.13617">
        <ele>1169.37</ele>
        <time>2016-04-12T09:23:55Z</time>
      </trkpt>
      <trkpt lat="44.52703" lon="6.13614">
        <ele>1168.85</ele>
        <time>2016-04-12T09:23:56Z</time>
      </trkpt>
      <trkpt lat="44.52699" lon="6.13611">
        <ele>1168.32</ele>
        <time>2016-04-12T09:23:57Z</time>
      </trkpt>
      <trkpt lat="44.52694" lon="6.13608">
        <ele>1167.81</ele>
        <time>2016-04-12T09:23:58Z</time>
      </trkpt>
      <trkpt lat="44.52688" lon="6.13606">
        <ele>1167.32</ele>
        <time>2016-04-12T09:23:59Z</time>
      </trkpt>
      <trkpt lat="44.52679" lon="6.13603">
        <ele>1166.44</ele>
        <time>2016-04-12T09:24:01Z</time>
      </trkpt>
      <trkpt lat="44.52676" lon="6.13599">
        <ele>1165.96</ele>
        <time>2016-04-12T09:24:02Z</time>
      </trkpt>
      <trkpt lat="44.52674" lon="6.13594">
        <ele>1165.45</ele>
        <time>2016-04-12T09:24:03Z</time>
      </trkpt>
      <trkpt lat="44.52674" lon="6.13589">
        <ele>1164.98</ele>
        <time>2016-04-12T09:24:04Z</time>
      </trkpt>
      <trkpt lat="44.52676" lon="6.13585">
        <ele>1164.51</ele>
        <time>2016-04-12T09:24:05Z</time>
      </trkpt>
      <trkpt lat="44.52677" lon="6.13581">
        <ele>1164.04</ele>
        <time>2016-04-12T09:24:06Z</time>
      </trkpt>
      <trkpt lat="44.52705" lon="6.13564">
        <ele>1163.14</ele>
        <time>2016-04-12T09:24:21Z</time>
      </trkpt>
      <trkpt lat="44.52736" lon="6.13529">
        <ele>1166.15</ele>
        <time>2016-04-12T09:24:39Z</time>
      </trkpt>
      <trkpt lat="44.52737" lon="6.13513">
        <ele>1166.36</ele>
        <time>2016-04-12T09:24:43Z</time>
      </trkpt>
      <trkpt lat="44.52739" lon="6.1351">
        <ele>1166.34</ele>
        <time>2016-04-12T09:24:44Z</time>
      </trkpt>
      <trkpt lat="44.52742" lon="6.13508">
        <ele>1166.25</ele>
        <time>2016-04-12T09:24:45Z</time>
      </trkpt>
      <trkpt lat="44.52765" lon="6.13468">
        <ele>1162.9</ele>
        <time>2016-04-12T09:24:55Z</time>
      </trkpt>
      <trkpt lat="44.52764" lon="6.13461">
        <ele>1162.25</ele>
        <time>2016-04-12T09:24:56Z</time>
      </trkpt>
      <trkpt lat="44.52762" lon="6.13446">
        <ele>1160.37</ele>
        <time>2016-04-12T09:24:58Z</time>
      </trkpt>
      <trkpt lat="44.52761" lon="6.13441">
        <ele>1159.8</ele>
        <time>2016-04-12T09:24:59Z</time>
      </trkpt>
      <trkpt lat="44.52761" lon="6.13437">
        <ele>1159.17</ele>
        <time>2016-04-12T09:25:00Z</time>
      </trkpt>
      <trkpt lat="44.52763" lon="6.13435">
        <ele>1158.48</ele>
        <time>2016-04-12T09:25:01Z</time>
      </trkpt>
      <trkpt lat="44.52765" lon="6.13434">
        <ele>1157.78</ele>
        <time>2016-04-12T09:25:02Z</time>
      </trkpt>
      <trkpt lat="44.52768" lon="6.13433">
        <ele>1157.12</ele>
        <time>2016-04-12T09:25:03Z</time>
      </trkpt>
      <trkpt lat="44.52771" lon="6.13432">
        <ele>1156.53</ele>
        <time>2016-04-12T09:25:04Z</time>
      </trkpt>
      <trkpt lat="44.52773" lon="6.13431">
        <ele>1156.01</ele>
        <time>2016-04-12T09:25:05Z</time>
      </trkpt>
      <trkpt lat="44.52775" lon="6.13431">
        <ele>1155.58</ele>
        <time>2016-04-12T09:25:06Z</time>
      </trkpt>
      <trkpt lat="44.52778" lon="6.1343">
        <ele>1155.23</ele>
        <time>2016-04-12T09:25:07Z</time>
      </trkpt>
      <trkpt lat="44.5278" lon="6.1343">
        <ele>1154.95</ele>
        <time>2016-04-12T09:25:08Z</time>
      </trkpt>
      <trkpt lat="44.52783" lon="6.1343">
        <ele>1154.72</ele>
        <time>2016-04-12T09:25:09Z</time>
      </trkpt>
      <trkpt lat="44.52785" lon="6.1343">
        <ele>1154.59</ele>
        <time>2016-04-12T09:25:10Z</time>
      </trkpt>
      <trkpt lat="44.52788" lon="6.13429">
        <ele>1154.51</ele>
        <time>2016-04-12T09:25:11Z</time>
      </trkpt>
      <trkpt lat="44.5279" lon="6.13429">
        <ele>1154.48</ele>
        <time>2016-04-12T09:25:12Z</time>
      </trkpt>
      <trkpt lat="44.52793" lon="6.13429">
        <ele>1154.47</ele>
        <time>2016-04-12T09:25:13Z</time>
      </trkpt>
      <trkpt lat="44.52796" lon="6.13429">
        <ele>1154.46</ele>
        <time>2016-04-12T09:25:14Z</time>
      </trkpt>
      <trkpt lat="44.52838" lon="6.13405">
        <ele>1152.34</ele>
        <time>2016-04-12T09:25:25Z</time>
      </trkpt>
      <trkpt lat="44.52841" lon="6.13399">
        <ele>1151.78</ele>
        <time>2016-04-12T09:25:26Z</time>
      </trkpt>
      <trkpt lat="44.52844" lon="6.13393">
        <ele>1151.18</ele>
        <time>2016-04-12T09:25:27Z</time>
      </trkpt>
      <trkpt lat="44.52845" lon="6.13386">
        <ele>1150.52</ele>
        <time>2016-04-12T09:25:28Z</time>
      </trkpt>
      <trkpt lat="44.52845" lon="6.1338">
        <ele>1149.83</ele>
        <time>2016-04-12T09:25:29Z</time>
      </trkpt>
      <trkpt lat="44.52845" lon="6.13375">
        <ele>1149.16</ele>
        <time>2016-04-12T09:25:30Z</time>
      </trkpt>
      <trkpt lat="44.52846" lon="6.1337">
        <ele>1148.46</ele>
        <time>2016-04-12T09:25:31Z</time>
      </trkpt>
      <trkpt lat="44.52847" lon="6.13366">
        <ele>1147.76</ele>
        <time>2016-04-12T09:25:32Z</time>
      </trkpt>
      <trkpt lat="44.52849" lon="6.13364">
        <ele>1147.08</ele>
        <time>2016-04-12T09:25:33Z</time>
      </trkpt>
      <trkpt lat="44.52852" lon="6.13363">
        <ele>1146.41</ele>
        <time>2016-04-12T09:25:34Z</time>
      </trkpt>
      <trkpt lat="44.52854" lon="6.13362">
        <ele>1145.79</ele>
        <time>2016-04-12T09:25:35Z</time>
      </trkpt>
      <trkpt lat="44.52875" lon="6.13345">
        <ele>1142.7</ele>
        <time>2016-04-12T09:25:44Z</time>
      </trkpt>
      <trkpt lat="44.52894" lon="6.13327">
        <ele>1141.13</ele>
        <time>2016-04-12T09:25:50Z</time>
      </trkpt>
      <trkpt lat="44.52905" lon="6.13316">
        <ele>1140.17</ele>
        <time>2016-04-12T09:25:53Z</time>
      </trkpt>
      <trkpt lat="44.52927" lon="6.13301">
        <ele>1138.55</ele>
        <time>2016-04-12T09:25:58Z</time>
      </trkpt>
      <trkpt lat="44.52941" lon="6.13294">
        <ele>1137.39</ele>
        <time>2016-04-12T09:26:01Z</time>
      </trkpt>
      <trkpt lat="44.52967" lon="6.13282">
        <ele>1133.97</ele>
        <time>2016-04-12T09:26:07Z</time>
      </trkpt>
      <trkpt lat="44.52984" lon="6.13268">
        <ele>1130.43</ele>
        <time>2016-04-12T09:26:12Z</time>
      </trkpt>
      <trkpt lat="44.53" lon="6.13261">
        <ele>1127.05</ele>
        <time>2016-04-12T09:26:16Z</time>
      </trkpt>
      <trkpt lat="44.5301" lon="6.13256">
        <ele>1125.76</ele>
        <time>2016-04-12T09:26:18Z</time>
      </trkpt>
      <trkpt lat="44.53019" lon="6.1325">
        <ele>1124.45</ele>
        <time>2016-04-12T09:26:20Z</time>
      </trkpt>
      <trkpt lat="44.53024" lon="6.13246">
        <ele>1123.77</ele>
        <time>2016-04-12T09:26:21Z</time>
      </trkpt>
      <trkpt lat="44.53029" lon="6.1324">
        <ele>1123.13</ele>
        <time>2016-04-12T09:26:22Z</time>
      </trkpt>
      <trkpt lat="44.53033" lon="6.13234">
        <ele>1122.51</ele>
        <time>2016-04-12T09:26:23Z</time>
      </trkpt>
      <trkpt lat="44.53036" lon="6.13229">
        <ele>1121.91</ele>
        <time>2016-04-12T09:26:24Z</time>
      </trkpt>
      <trkpt lat="44.53038" lon="6.13223">
        <ele>1121.31</ele>
        <time>2016-04-12T09:26:25Z</time>
      </trkpt>
      <trkpt lat="44.53039" lon="6.13218">
        <ele>1120.69</ele>
        <time>2016-04-12T09:26:26Z</time>
      </trkpt>
      <trkpt lat="44.5304" lon="6.13214">
        <ele>1119.95</ele>
        <time>2016-04-12T09:26:27Z</time>
      </trkpt>
      <trkpt lat="44.53041" lon="6.1321">
        <ele>1119.17</ele>
        <time>2016-04-12T09:26:28Z</time>
      </trkpt>
      <trkpt lat="44.53047" lon="6.13184">
        <ele>1115.64</ele>
        <time>2016-04-12T09:26:33Z</time>
      </trkpt>
      <trkpt lat="44.53055" lon="6.13165">
        <ele>1113.98</ele>
        <time>2016-04-12T09:26:36Z</time>
      </trkpt>
      <trkpt lat="44.53069" lon="6.13136">
        <ele>1112.12</ele>
        <time>2016-04-12T09:26:40Z</time>
      </trkpt>
      <trkpt lat="44.53071" lon="6.13128">
        <ele>1111.75</ele>
        <time>2016-04-12T09:26:41Z</time>
      </trkpt>
      <trkpt lat="44.53071" lon="6.13121">
        <ele>1111.39</ele>
        <time>2016-04-12T09:26:42Z</time>
      </trkpt>
      <trkpt lat="44.5307" lon="6.13115">
        <ele>1111.07</ele>
        <time>2016-04-12T09:26:43Z</time>
      </trkpt>
      <trkpt lat="44.53069" lon="6.1311">
        <ele>1110.8</ele>
        <time>2016-04-12T09:26:44Z</time>
      </trkpt>
      <trkpt lat="44.53069" lon="6.13106">
        <ele>1110.57</ele>
        <time>2016-04-12T09:26:45Z</time>
      </trkpt>
      <trkpt lat="44.53069" lon="6.13104">
        <ele>1109.02</ele>
        <time>2016-04-12T09:27:02Z</time>
      </trkpt>
      <trkpt lat="44.53068" lon="6.13102">
        <ele>1108.87</ele>
        <time>2016-04-12T09:27:41Z</time>
      </trkpt>
      <trkpt lat="44.53066" lon="6.13104">
        <ele>1108.67</ele>
        <time>2016-04-12T09:28:17Z</time>
      </trkpt>
      <trkpt lat="44.53065" lon="6.13101">
        <ele>1108.6</ele>
        <time>2016-04-12T09:28:21Z</time>
      </trkpt>
      <trkpt lat="44.53065" lon="6.13097">
        <ele>1108.09</ele>
        <time>2016-04-12T09:28:44Z</time>
      </trkpt>
      <trkpt lat="44.53064" lon="6.13097">
        <ele>1107.32</ele>
        <time>2016-04-12T09:29:32Z</time>
      </trkpt>
      <trkpt lat="44.53063" lon="6.13096">
        <ele>1107.64</ele>
        <time>2016-04-12T09:30:07Z</time>
      </trkpt>
      <trkpt lat="44.53066" lon="6.13098">
        <ele>1107.17</ele>
        <time>2016-04-12T09:30:48Z</time>
      </trkpt>
      <trkpt lat="44.53068" lon="6.131">
        <ele>1106.95</ele>
        <time>2016-04-12T09:31:32Z</time>
      </trkpt>
      <trkpt lat="44.53065" lon="6.13092">
        <ele>1106.65</ele>
        <time>2016-04-12T09:32:16Z</time>
      </trkpt>
      <trkpt lat="44.53064" lon="6.13087">
        <ele>1106.27</ele>
        <time>2016-04-12T09:32:32Z</time>
      </trkpt>
      <trkpt lat="44.53064" lon="6.13084">
        <ele>1106.26</ele>
        <time>2016-04-12T09:32:33Z</time>
      </trkpt>
      <trkpt lat="44.53065" lon="6.13077">
        <ele>1106.21</ele>
        <time>2016-04-12T09:32:35Z</time>
      </trkpt>
      <trkpt lat="44.53065" lon="6.13073">
        <ele>1106.12</ele>
        <time>2016-04-12T09:32:36Z</time>
      </trkpt>
      <trkpt lat="44.53064" lon="6.13069">
        <ele>1106</ele>
        <time>2016-04-12T09:32:37Z</time>
      </trkpt>
      <trkpt lat="44.53049" lon="6.13041">
        <ele>1104.19</ele>
        <time>2016-04-12T09:32:45Z</time>
      </trkpt>
      <trkpt lat="44.53046" lon="6.13036">
        <ele>1103.94</ele>
        <time>2016-04-12T09:32:46Z</time>
      </trkpt>
      <trkpt lat="44.53044" lon="6.13031">
        <ele>1103.69</ele>
        <time>2016-04-12T09:32:47Z</time>
      </trkpt>
      <trkpt lat="44.53042" lon="6.13026">
        <ele>1103.46</ele>
        <time>2016-04-12T09:32:48Z</time>
      </trkpt>
      <trkpt lat="44.5304" lon="6.13021">
        <ele>1103.26</ele>
        <time>2016-04-12T09:32:49Z</time>
      </trkpt>
      <trkpt lat="44.53038" lon="6.13015">
        <ele>1103.09</ele>
        <time>2016-04-12T09:32:50Z</time>
      </trkpt>
      <trkpt lat="44.53037" lon="6.13009">
        <ele>1102.91</ele>
        <time>2016-04-12T09:32:51Z</time>
      </trkpt>
      <trkpt lat="44.53032" lon="6.12987">
        <ele>1101.77</ele>
        <time>2016-04-12T09:32:55Z</time>
      </trkpt>
      <trkpt lat="44.53029" lon="6.12982">
        <ele>1101.54</ele>
        <time>2016-04-12T09:32:56Z</time>
      </trkpt>
      <trkpt lat="44.53026" lon="6.12977">
        <ele>1101.29</ele>
        <time>2016-04-12T09:32:57Z</time>
      </trkpt>
      <trkpt lat="44.53023" lon="6.12973">
        <ele>1101.04</ele>
        <time>2016-04-12T09:32:58Z</time>
      </trkpt>
      <trkpt lat="44.53018" lon="6.12969">
        <ele>1100.81</ele>
        <time>2016-04-12T09:32:59Z</time>
      </trkpt>
      <trkpt lat="44.53013" lon="6.12965">
        <ele>1100.56</ele>
        <time>2016-04-12T09:33:00Z</time>
      </trkpt>
      <trkpt lat="44.53003" lon="6.12957">
        <ele>1099.95</ele>
        <time>2016-04-12T09:33:02Z</time>
      </trkpt>
      <trkpt lat="44.52999" lon="6.12951">
        <ele>1099.68</ele>
        <time>2016-04-12T09:33:03Z</time>
      </trkpt>
      <trkpt lat="44.52996" lon="6.12946">
        <ele>1099.47</ele>
        <time>2016-04-12T09:33:04Z</time>
      </trkpt>
      <trkpt lat="44.52979" lon="6.12913">
        <ele>1098.92</ele>
        <time>2016-04-12T09:33:17Z</time>
      </trkpt>
      <trkpt lat="44.52956" lon="6.12888">
        <ele>1101.98</ele>
        <time>2016-04-12T09:33:36Z</time>
      </trkpt>
      <trkpt lat="44.52934" lon="6.12852">
        <ele>1105.02</ele>
        <time>2016-04-12T09:33:54Z</time>
      </trkpt>
      <trkpt lat="44.5293" lon="6.12843">
        <ele>1105.3</ele>
        <time>2016-04-12T09:33:58Z</time>
      </trkpt>
      <trkpt lat="44.52929" lon="6.12841">
        <ele>1105.36</ele>
        <time>2016-04-12T09:33:59Z</time>
      </trkpt>
      <trkpt lat="44.52909" lon="6.12801">
        <ele>1107.3</ele>
        <time>2016-04-12T09:34:19Z</time>
      </trkpt>
      <trkpt lat="44.52887" lon="6.1275">
        <ele>1108.16</ele>
        <time>2016-04-12T09:34:42Z</time>
      </trkpt>
      <trkpt lat="44.52885" lon="6.12688">
        <ele>1107.76</ele>
        <time>2016-04-12T09:35:00Z</time>
      </trkpt>
      <trkpt lat="44.52862" lon="6.12609">
        <ele>1108.93</ele>
        <time>2016-04-12T09:35:29Z</time>
      </trkpt>
      <trkpt lat="44.5286" lon="6.12508">
        <ele>1105.74</ele>
        <time>2016-04-12T09:35:53Z</time>
      </trkpt>
      <trkpt lat="44.52836" lon="6.12441">
        <ele>1102.71</ele>
        <time>2016-04-12T09:36:11Z</time>
      </trkpt>
      <trkpt lat="44.52816" lon="6.12381">
        <ele>1099.54</ele>
        <time>2016-04-12T09:36:24Z</time>
      </trkpt>
      <trkpt lat="44.52808" lon="6.12366">
        <ele>1098.53</ele>
        <time>2016-04-12T09:36:29Z</time>
      </trkpt>
      <trkpt lat="44.52807" lon="6.12364">
        <ele>1098.32</ele>
        <time>2016-04-12T09:36:30Z</time>
      </trkpt>
      <trkpt lat="44.52808" lon="6.12363">
        <ele>1098.12</ele>
        <time>2016-04-12T09:36:31Z</time>
      </trkpt>
      <trkpt lat="44.52809" lon="6.12362">
        <ele>1097.94</ele>
        <time>2016-04-12T09:36:32Z</time>
      </trkpt>
      <trkpt lat="44.5281" lon="6.12362">
        <ele>1097.76</ele>
        <time>2016-04-12T09:36:33Z</time>
      </trkpt>
      <trkpt lat="44.52816" lon="6.12363">
        <ele>1096.51</ele>
        <time>2016-04-12T09:36:51Z</time>
      </trkpt>
      <trkpt lat="44.52817" lon="6.12362">
        <ele>1096.25</ele>
        <time>2016-04-12T09:37:10Z</time>
      </trkpt>
      <trkpt lat="44.52815" lon="6.12365">
        <ele>1096.58</ele>
        <time>2016-04-12T09:37:54Z</time>
      </trkpt>
      <trkpt lat="44.52816" lon="6.12364">
        <ele>1096.59</ele>
        <time>2016-04-12T09:37:55Z</time>
      </trkpt>
      <trkpt lat="44.52818" lon="6.12365">
        <ele>1096.61</ele>
        <time>2016-04-12T09:37:56Z</time>
      </trkpt>
      <trkpt lat="44.5282" lon="6.12366">
        <ele>1096.61</ele>
        <time>2016-04-12T09:37:57Z</time>
      </trkpt>
      <trkpt lat="44.52823" lon="6.12366">
        <ele>1096.67</ele>
        <time>2016-04-12T09:37:58Z</time>
      </trkpt>
      <trkpt lat="44.52874" lon="6.12368">
        <ele>1096.6</ele>
        <time>2016-04-12T09:38:17Z</time>
      </trkpt>
      <trkpt lat="44.52879" lon="6.1237">
        <ele>1096.58</ele>
        <time>2016-04-12T09:38:18Z</time>
      </trkpt>
      <trkpt lat="44.52884" lon="6.12373">
        <ele>1096.56</ele>
        <time>2016-04-12T09:38:19Z</time>
      </trkpt>
      <trkpt lat="44.52889" lon="6.12376">
        <ele>1096.39</ele>
        <time>2016-04-12T09:38:20Z</time>
      </trkpt>
      <trkpt lat="44.52894" lon="6.12381">
        <ele>1096.39</ele>
        <time>2016-04-12T09:38:21Z</time>
      </trkpt>
      <trkpt lat="44.52899" lon="6.12386">
        <ele>1096.09</ele>
        <time>2016-04-12T09:38:22Z</time>
      </trkpt>
      <trkpt lat="44.52904" lon="6.12391">
        <ele>1095.94</ele>
        <time>2016-04-12T09:38:23Z</time>
      </trkpt>
      <trkpt lat="44.52908" lon="6.12398">
        <ele>1095.79</ele>
        <time>2016-04-12T09:38:24Z</time>
      </trkpt>
      <trkpt lat="44.52952" lon="6.12479">
        <ele>1092.49</ele>
        <time>2016-04-12T09:38:34Z</time>
      </trkpt>
      <trkpt lat="44.52972" lon="6.12514">
        <ele>1090.61</ele>
        <time>2016-04-12T09:38:38Z</time>
      </trkpt>
      <trkpt lat="44.52978" lon="6.1252">
        <ele>1090.03</ele>
        <time>2016-04-12T09:38:39Z</time>
      </trkpt>
      <trkpt lat="44.52984" lon="6.12527">
        <ele>1089.46</ele>
        <time>2016-04-12T09:38:40Z</time>
      </trkpt>
      <trkpt lat="44.52992" lon="6.12532">
        <ele>1088.9</ele>
        <time>2016-04-12T09:38:41Z</time>
      </trkpt>
      <trkpt lat="44.52999" lon="6.12536">
        <ele>1088.36</ele>
        <time>2016-04-12T09:38:42Z</time>
      </trkpt>
      <trkpt lat="44.53007" lon="6.1254">
        <ele>1087.81</ele>
        <time>2016-04-12T09:38:43Z</time>
      </trkpt>
      <trkpt lat="44.53021" lon="6.12548">
        <ele>1086.66</ele>
        <time>2016-04-12T09:38:45Z</time>
      </trkpt>
      <trkpt lat="44.53026" lon="6.12554">
        <ele>1085.5</ele>
        <time>2016-04-12T09:38:46Z</time>
      </trkpt>
      <trkpt lat="44.53029" lon="6.12562">
        <ele>1084.87</ele>
        <time>2016-04-12T09:38:47Z</time>
      </trkpt>
      <trkpt lat="44.5303" lon="6.1257">
        <ele>1084.12</ele>
        <time>2016-04-12T09:38:48Z</time>
      </trkpt>
      <trkpt lat="44.5303" lon="6.12579">
        <ele>1083.28</ele>
        <time>2016-04-12T09:38:49Z</time>
      </trkpt>
      <trkpt lat="44.53031" lon="6.12587">
        <ele>1082.41</ele>
        <time>2016-04-12T09:38:50Z</time>
      </trkpt>
      <trkpt lat="44.53033" lon="6.12595">
        <ele>1081.57</ele>
        <time>2016-04-12T09:38:51Z</time>
      </trkpt>
      <trkpt lat="44.53038" lon="6.126">
        <ele>1080.75</ele>
        <time>2016-04-12T09:38:52Z</time>
      </trkpt>
      <trkpt lat="44.53045" lon="6.12604">
        <ele>1079.98</ele>
        <time>2016-04-12T09:38:53Z</time>
      </trkpt>
      <trkpt lat="44.53053" lon="6.12608">
        <ele>1079.26</ele>
        <time>2016-04-12T09:38:54Z</time>
      </trkpt>
      <trkpt lat="44.5306" lon="6.12612">
        <ele>1078.57</ele>
        <time>2016-04-12T09:38:55Z</time>
      </trkpt>
      <trkpt lat="44.53068" lon="6.12618">
        <ele>1077.89</ele>
        <time>2016-04-12T09:38:56Z</time>
      </trkpt>
      <trkpt lat="44.53092" lon="6.12638">
        <ele>1076.01</ele>
        <time>2016-04-12T09:38:59Z</time>
      </trkpt>
      <trkpt lat="44.53098" lon="6.12646">
        <ele>1075.42</ele>
        <time>2016-04-12T09:39:00Z</time>
      </trkpt>
      <trkpt lat="44.53103" lon="6.12655">
        <ele>1074.82</ele>
        <time>2016-04-12T09:39:01Z</time>
      </trkpt>
      <trkpt lat="44.53105" lon="6.12664">
        <ele>1074.23</ele>
        <time>2016-04-12T09:39:02Z</time>
      </trkpt>
      <trkpt lat="44.53104" lon="6.12672">
        <ele>1073.63</ele>
        <time>2016-04-12T09:39:03Z</time>
      </trkpt>
      <trkpt lat="44.531" lon="6.12681">
        <ele>1072.92</ele>
        <time>2016-04-12T09:39:04Z</time>
      </trkpt>
      <trkpt lat="44.53096" lon="6.12691">
        <ele>1072.07</ele>
        <time>2016-04-12T09:39:05Z</time>
      </trkpt>
      <trkpt lat="44.53093" lon="6.12701">
        <ele>1071.21</ele>
        <time>2016-04-12T09:39:06Z</time>
      </trkpt>
      <trkpt lat="44.5309" lon="6.12711">
        <ele>1070.45</ele>
        <time>2016-04-12T09:39:07Z</time>
      </trkpt>
      <trkpt lat="44.53088" lon="6.12721">
        <ele>1069.77</ele>
        <time>2016-04-12T09:39:08Z</time>
      </trkpt>
      <trkpt lat="44.53088" lon="6.12729">
        <ele>1069.1</ele>
        <time>2016-04-12T09:39:09Z</time>
      </trkpt>
      <trkpt lat="44.5309" lon="6.12737">
        <ele>1068.34</ele>
        <time>2016-04-12T09:39:10Z</time>
      </trkpt>
      <trkpt lat="44.53092" lon="6.12744">
        <ele>1067.51</ele>
        <time>2016-04-12T09:39:11Z</time>
      </trkpt>
      <trkpt lat="44.53096" lon="6.12751">
        <ele>1065.8</ele>
        <time>2016-04-12T09:39:12Z</time>
      </trkpt>
      <trkpt lat="44.531" lon="6.12759">
        <ele>1064.99</ele>
        <time>2016-04-12T09:39:13Z</time>
      </trkpt>
      <trkpt lat="44.5311" lon="6.12775">
        <ele>1062.92</ele>
        <time>2016-04-12T09:39:16Z</time>
      </trkpt>
      <trkpt lat="44.53113" lon="6.12777">
        <ele>1062.24</ele>
        <time>2016-04-12T09:39:17Z</time>
      </trkpt>
      <trkpt lat="44.53117" lon="6.12776">
        <ele>1061.53</ele>
        <time>2016-04-12T09:39:18Z</time>
      </trkpt>
      <trkpt lat="44.53119" lon="6.12773">
        <ele>1060.79</ele>
        <time>2016-04-12T09:39:19Z</time>
      </trkpt>
      <trkpt lat="44.53121" lon="6.12767">
        <ele>1060.09</ele>
        <time>2016-04-12T09:39:20Z</time>
      </trkpt>
      <trkpt lat="44.53122" lon="6.12761">
        <ele>1059.49</ele>
        <time>2016-04-12T09:39:21Z</time>
      </trkpt>
      <trkpt lat="44.53123" lon="6.12755">
        <ele>1058.96</ele>
        <time>2016-04-12T09:39:22Z</time>
      </trkpt>
      <trkpt lat="44.53125" lon="6.12748">
        <ele>1058.51</ele>
        <time>2016-04-12T09:39:23Z</time>
      </trkpt>
      <trkpt lat="44.53128" lon="6.12741">
        <ele>1058.1</ele>
        <time>2016-04-12T09:39:24Z</time>
      </trkpt>
      <trkpt lat="44.53132" lon="6.12736">
        <ele>1057.72</ele>
        <time>2016-04-12T09:39:25Z</time>
      </trkpt>
      <trkpt lat="44.53137" lon="6.12731">
        <ele>1057.4</ele>
        <time>2016-04-12T09:39:26Z</time>
      </trkpt>
      <trkpt lat="44.53142" lon="6.12727">
        <ele>1057.1</ele>
        <time>2016-04-12T09:39:27Z</time>
      </trkpt>
      <trkpt lat="44.53147" lon="6.12723">
        <ele>1056.79</ele>
        <time>2016-04-12T09:39:28Z</time>
      </trkpt>
      <trkpt lat="44.53174" lon="6.12708">
        <ele>1055.13</ele>
        <time>2016-04-12T09:39:33Z</time>
      </trkpt>
      <trkpt lat="44.5318" lon="6.12706">
        <ele>1054.77</ele>
        <time>2016-04-12T09:39:34Z</time>
      </trkpt>
      <trkpt lat="44.532" lon="6.12704">
        <ele>1053.42</ele>
        <time>2016-04-12T09:39:37Z</time>
      </trkpt>
      <trkpt lat="44.53281" lon="6.12732">
        <ele>1049.99</ele>
        <time>2016-04-12T09:39:47Z</time>
      </trkpt>
      <trkpt lat="44.53323" lon="6.12764">
        <ele>1046.75</ele>
        <time>2016-04-12T09:39:53Z</time>
      </trkpt>
      <trkpt lat="44.53355" lon="6.12798">
        <ele>1044.1</ele>
        <time>2016-04-12T09:39:58Z</time>
      </trkpt>
      <trkpt lat="44.5338" lon="6.12823">
        <ele>1040.93</ele>
        <time>2016-04-12T09:40:03Z</time>
      </trkpt>
      <trkpt lat="44.53394" lon="6.12831">
        <ele>1039.48</ele>
        <time>2016-04-12T09:40:06Z</time>
      </trkpt>
      <trkpt lat="44.53413" lon="6.12842">
        <ele>1038.14</ele>
        <time>2016-04-12T09:40:10Z</time>
      </trkpt>
      <trkpt lat="44.53448" lon="6.12885">
        <ele>1036.08</ele>
        <time>2016-04-12T09:40:18Z</time>
      </trkpt>
      <trkpt lat="44.53451" lon="6.12892">
        <ele>1035.72</ele>
        <time>2016-04-12T09:40:19Z</time>
      </trkpt>
      <trkpt lat="44.53453" lon="6.12901">
        <ele>1035.35</ele>
        <time>2016-04-12T09:40:20Z</time>
      </trkpt>
      <trkpt lat="44.53463" lon="6.1298">
        <ele>1031.55</ele>
        <time>2016-04-12T09:40:28Z</time>
      </trkpt>
      <trkpt lat="44.53455" lon="6.13046">
        <ele>1028.28</ele>
        <time>2016-04-12T09:40:34Z</time>
      </trkpt>
      <trkpt lat="44.53452" lon="6.13067">
        <ele>1027.21</ele>
        <time>2016-04-12T09:40:36Z</time>
      </trkpt>
      <trkpt lat="44.53453" lon="6.13077">
        <ele>1026.67</ele>
        <time>2016-04-12T09:40:37Z</time>
      </trkpt>
      <trkpt lat="44.53456" lon="6.13087">
        <ele>1026.07</ele>
        <time>2016-04-12T09:40:38Z</time>
      </trkpt>
      <trkpt lat="44.53464" lon="6.13106">
        <ele>1024.84</ele>
        <time>2016-04-12T09:40:40Z</time>
      </trkpt>
      <trkpt lat="44.53466" lon="6.13116">
        <ele>1024.24</ele>
        <time>2016-04-12T09:40:41Z</time>
      </trkpt>
      <trkpt lat="44.53468" lon="6.13125">
        <ele>1023.62</ele>
        <time>2016-04-12T09:40:42Z</time>
      </trkpt>
      <trkpt lat="44.5347" lon="6.1314">
        <ele>1022.18</ele>
        <time>2016-04-12T09:40:44Z</time>
      </trkpt>
      <trkpt lat="44.53473" lon="6.13145">
        <ele>1021.39</ele>
        <time>2016-04-12T09:40:45Z</time>
      </trkpt>
      <trkpt lat="44.53476" lon="6.13148">
        <ele>1020.6</ele>
        <time>2016-04-12T09:40:46Z</time>
      </trkpt>
      <trkpt lat="44.53481" lon="6.13148">
        <ele>1019.87</ele>
        <time>2016-04-12T09:40:47Z</time>
      </trkpt>
      <trkpt lat="44.53485" lon="6.13146">
        <ele>1019.19</ele>
        <time>2016-04-12T09:40:48Z</time>
      </trkpt>
      <trkpt lat="44.53489" lon="6.13141">
        <ele>1018.57</ele>
        <time>2016-04-12T09:40:49Z</time>
      </trkpt>
      <trkpt lat="44.53493" lon="6.13135">
        <ele>1017.99</ele>
        <time>2016-04-12T09:40:50Z</time>
      </trkpt>
      <trkpt lat="44.53498" lon="6.13129">
        <ele>1017.41</ele>
        <time>2016-04-12T09:40:51Z</time>
      </trkpt>
      <trkpt lat="44.53504" lon="6.13124">
        <ele>1016.85</ele>
        <time>2016-04-12T09:40:52Z</time>
      </trkpt>
      <trkpt lat="44.5351" lon="6.13119">
        <ele>1016.34</ele>
        <time>2016-04-12T09:40:53Z</time>
      </trkpt>
      <trkpt lat="44.53516" lon="6.13116">
        <ele>1015.41</ele>
        <time>2016-04-12T09:40:54Z</time>
      </trkpt>
      <trkpt lat="44.53523" lon="6.13113">
        <ele>1014.99</ele>
        <time>2016-04-12T09:40:55Z</time>
      </trkpt>
      <trkpt lat="44.5353" lon="6.1311">
        <ele>1014.61</ele>
        <time>2016-04-12T09:40:56Z</time>
      </trkpt>
      <trkpt lat="44.53589" lon="6.1309">
        <ele>1011.59</ele>
        <time>2016-04-12T09:41:04Z</time>
      </trkpt>
      <trkpt lat="44.53646" lon="6.13074">
        <ele>1009.29</ele>
        <time>2016-04-12T09:41:14Z</time>
      </trkpt>
      <trkpt lat="44.53651" lon="6.1307">
        <ele>1009.17</ele>
        <time>2016-04-12T09:41:15Z</time>
      </trkpt>
      <trkpt lat="44.53713" lon="6.13017">
        <ele>1005.87</ele>
        <time>2016-04-12T09:41:28Z</time>
      </trkpt>
      <trkpt lat="44.53712" lon="6.13014">
        <ele>1003.01</ele>
        <time>2016-04-12T09:41:41Z</time>
      </trkpt>
      <trkpt lat="44.53713" lon="6.13012">
        <ele>1002.97</ele>
        <time>2016-04-12T09:41:42Z</time>
      </trkpt>
      <trkpt lat="44.53716" lon="6.13006">
        <ele>1003.01</ele>
        <time>2016-04-12T09:41:44Z</time>
      </trkpt>
      <trkpt lat="44.53757" lon="6.12905">
        <ele>1001.35</ele>
        <time>2016-04-12T09:42:04Z</time>
      </trkpt>
      <trkpt lat="44.53791" lon="6.12814">
        <ele>999.2</ele>
        <time>2016-04-12T09:42:18Z</time>
      </trkpt>
      <trkpt lat="44.53802" lon="6.12795">
        <ele>998.64</ele>
        <time>2016-04-12T09:42:21Z</time>
      </trkpt>
      <trkpt lat="44.53807" lon="6.12789">
        <ele>998.46</ele>
        <time>2016-04-12T09:42:22Z</time>
      </trkpt>
      <trkpt lat="44.53812" lon="6.12784">
        <ele>998.28</ele>
        <time>2016-04-12T09:42:23Z</time>
      </trkpt>
      <trkpt lat="44.53819" lon="6.1278">
        <ele>998.08</ele>
        <time>2016-04-12T09:42:24Z</time>
      </trkpt>
      <trkpt lat="44.53825" lon="6.12776">
        <ele>997.88</ele>
        <time>2016-04-12T09:42:25Z</time>
      </trkpt>
      <trkpt lat="44.53831" lon="6.12773">
        <ele>997.68</ele>
        <time>2016-04-12T09:42:26Z</time>
      </trkpt>
      <trkpt lat="44.53843" lon="6.12766">
        <ele>997.16</ele>
        <time>2016-04-12T09:42:28Z</time>
      </trkpt>
      <trkpt lat="44.53849" lon="6.12764">
        <ele>996.89</ele>
        <time>2016-04-12T09:42:29Z</time>
      </trkpt>
      <trkpt lat="44.53856" lon="6.12762">
        <ele>996.61</ele>
        <time>2016-04-12T09:42:30Z</time>
      </trkpt>
      <trkpt lat="44.53863" lon="6.12762">
        <ele>996.32</ele>
        <time>2016-04-12T09:42:31Z</time>
      </trkpt>
      <trkpt lat="44.5387" lon="6.12762">
        <ele>995.74</ele>
        <time>2016-04-12T09:42:32Z</time>
      </trkpt>
      <trkpt lat="44.53882" lon="6.12762">
        <ele>994.98</ele>
        <time>2016-04-12T09:42:34Z</time>
      </trkpt>
      <trkpt lat="44.53893" lon="6.12766">
        <ele>994.2</ele>
        <time>2016-04-12T09:42:36Z</time>
      </trkpt>
      <trkpt lat="44.53899" lon="6.12769">
        <ele>993.84</ele>
        <time>2016-04-12T09:42:37Z</time>
      </trkpt>
      <trkpt lat="44.5391" lon="6.12776">
        <ele>993.26</ele>
        <time>2016-04-12T09:42:39Z</time>
      </trkpt>
      <trkpt lat="44.53953" lon="6.12811">
        <ele>991.64</ele>
        <time>2016-04-12T09:42:47Z</time>
      </trkpt>
      <trkpt lat="44.53964" lon="6.12822">
        <ele>991.28</ele>
        <time>2016-04-12T09:42:49Z</time>
      </trkpt>
      <trkpt lat="44.5397" lon="6.12825">
        <ele>991.05</ele>
        <time>2016-04-12T09:42:50Z</time>
      </trkpt>
      <trkpt lat="44.53994" lon="6.1284">
        <ele>989.99</ele>
        <time>2016-04-12T09:42:54Z</time>
      </trkpt>
      <trkpt lat="44.54001" lon="6.12842">
        <ele>989.68</ele>
        <time>2016-04-12T09:42:55Z</time>
      </trkpt>
      <trkpt lat="44.54007" lon="6.12845">
        <ele>989.12</ele>
        <time>2016-04-12T09:42:56Z</time>
      </trkpt>
      <trkpt lat="44.54015" lon="6.12846">
        <ele>989.12</ele>
        <time>2016-04-12T09:42:57Z</time>
      </trkpt>
      <trkpt lat="44.54022" lon="6.12845">
        <ele>988.64</ele>
        <time>2016-04-12T09:42:58Z</time>
      </trkpt>
      <trkpt lat="44.54028" lon="6.12844">
        <ele>988.43</ele>
        <time>2016-04-12T09:42:59Z</time>
      </trkpt>
      <trkpt lat="44.54091" lon="6.12814">
        <ele>986.2</ele>
        <time>2016-04-12T09:43:10Z</time>
      </trkpt>
      <trkpt lat="44.54104" lon="6.12811">
        <ele>985.64</ele>
        <time>2016-04-12T09:43:13Z</time>
      </trkpt>
      <trkpt lat="44.54122" lon="6.12811">
        <ele>985.19</ele>
        <time>2016-04-12T09:43:17Z</time>
      </trkpt>
      <trkpt lat="44.54133" lon="6.12812">
        <ele>984.94</ele>
        <time>2016-04-12T09:43:19Z</time>
      </trkpt>
      <trkpt lat="44.54153" lon="6.12817">
        <ele>984.17</ele>
        <time>2016-04-12T09:43:22Z</time>
      </trkpt>
      <trkpt lat="44.54229" lon="6.12842">
        <ele>980.83</ele>
        <time>2016-04-12T09:43:31Z</time>
      </trkpt>
      <trkpt lat="44.54255" lon="6.12851">
        <ele>979.03</ele>
        <time>2016-04-12T09:43:34Z</time>
      </trkpt>
      <trkpt lat="44.54288" lon="6.12867">
        <ele>976.03</ele>
        <time>2016-04-12T09:43:39Z</time>
      </trkpt>
      <trkpt lat="44.54292" lon="6.12866">
        <ele>975.5</ele>
        <time>2016-04-12T09:43:40Z</time>
      </trkpt>
      <trkpt lat="44.54294" lon="6.12862">
        <ele>974.95</ele>
        <time>2016-04-12T09:43:41Z</time>
      </trkpt>
      <trkpt lat="44.54294" lon="6.12857">
        <ele>974.41</ele>
        <time>2016-04-12T09:43:42Z</time>
      </trkpt>
      <trkpt lat="44.54293" lon="6.12852">
        <ele>973.89</ele>
        <time>2016-04-12T09:43:43Z</time>
      </trkpt>
      <trkpt lat="44.5429" lon="6.12846">
        <ele>972.93</ele>
        <time>2016-04-12T09:43:44Z</time>
      </trkpt>
      <trkpt lat="44.54287" lon="6.12841">
        <ele>972.93</ele>
        <time>2016-04-12T09:43:45Z</time>
      </trkpt>
      <trkpt lat="44.5424" lon="6.12777">
        <ele>969.92</ele>
        <time>2016-04-12T09:43:56Z</time>
      </trkpt>
      <trkpt lat="44.54117" lon="6.12617">
        <ele>968.49</ele>
        <time>2016-04-12T09:44:26Z</time>
      </trkpt>
      <trkpt lat="44.54081" lon="6.12548">
        <ele>971.64</ele>
        <time>2016-04-12T09:44:46Z</time>
      </trkpt>
      <trkpt lat="44.54042" lon="6.12438">
        <ele>974.67</ele>
        <time>2016-04-12T09:45:16Z</time>
      </trkpt>
      <trkpt lat="44.53989" lon="6.12335">
        <ele>976.35</ele>
        <time>2016-04-12T09:45:47Z</time>
      </trkpt>
      <trkpt lat="44.53927" lon="6.12207">
        <ele>975.31</ele>
        <time>2016-04-12T09:46:14Z</time>
      </trkpt>
      <trkpt lat="44.53874" lon="6.12099">
        <ele>974.03</ele>
        <time>2016-04-12T09:46:37Z</time>
      </trkpt>
      <trkpt lat="44.53804" lon="6.11957">
        <ele>975.35</ele>
        <time>2016-04-12T09:47:16Z</time>
      </trkpt>
      <trkpt lat="44.53754" lon="6.11835">
        <ele>973.62</ele>
        <time>2016-04-12T09:47:40Z</time>
      </trkpt>
      <trkpt lat="44.53698" lon="6.11712">
        <ele>974.27</ele>
        <time>2016-04-12T09:48:08Z</time>
      </trkpt>
      <trkpt lat="44.53651" lon="6.11607">
        <ele>975.38</ele>
        <time>2016-04-12T09:48:35Z</time>
      </trkpt>
      <trkpt lat="44.53632" lon="6.11558">
        <ele>974.06</ele>
        <time>2016-04-12T09:48:56Z</time>
      </trkpt>
      <trkpt lat="44.53632" lon="6.11558">
        <ele>973.62</ele>
        <time>2016-04-12T09:49:23Z</time>
      </trkpt>
      <trkpt lat="44.53629" lon="6.11557">
        <ele>973.6</ele>
        <time>2016-04-12T09:49:27Z</time>
      </trkpt>
      <trkpt lat="44.53623" lon="6.11555">
        <ele>973.55</ele>
        <time>2016-04-12T09:49:29Z</time>
      </trkpt>
      <trkpt lat="44.536" lon="6.11565">
        <ele>972.54</ele>
        <time>2016-04-12T09:49:34Z</time>
      </trkpt>
      <trkpt lat="44.53566" lon="6.11598">
        <ele>968.49</ele>
        <time>2016-04-12T09:49:44Z</time>
      </trkpt>
      <trkpt lat="44.5356" lon="6.11597">
        <ele>965.43</ele>
        <time>2016-04-12T09:49:56Z</time>
      </trkpt>
      <trkpt lat="44.53554" lon="6.11594">
        <ele>962.89</ele>
        <time>2016-04-12T09:50:17Z</time>
      </trkpt>
      <trkpt lat="44.53567" lon="6.11593">
        <ele>965.26</ele>
        <time>2016-04-12T09:50:36Z</time>
      </trkpt>
      <trkpt lat="44.53574" lon="6.11591">
        <ele>966.66</ele>
        <time>2016-04-12T09:50:43Z</time>
      </trkpt>
      <trkpt lat="44.53615" lon="6.11558">
        <ele>967.87</ele>
        <time>2016-04-12T09:51:02Z</time>
      </trkpt>
      <trkpt lat="44.53627" lon="6.11553">
        <ele>969.06</ele>
        <time>2016-04-12T09:51:08Z</time>
      </trkpt>
      <trkpt lat="44.53636" lon="6.11563">
        <ele>970.91</ele>
        <time>2016-04-12T09:51:15Z</time>
      </trkpt>
      <trkpt lat="44.53637" lon="6.11553">
        <ele>972.36</ele>
        <time>2016-04-12T09:51:21Z</time>
      </trkpt>
      <trkpt lat="44.53652" lon="6.11488">
        <ele>974.36</ele>
        <time>2016-04-12T09:51:43Z</time>
      </trkpt>
      <trkpt lat="44.53652" lon="6.11484">
        <ele>973.42</ele>
        <time>2016-04-12T09:52:00Z</time>
      </trkpt>
      <trkpt lat="44.53654" lon="6.1148">
        <ele>973.68</ele>
        <time>2016-04-12T09:52:16Z</time>
      </trkpt>
      <trkpt lat="44.53655" lon="6.11479">
        <ele>973.72</ele>
        <time>2016-04-12T09:52:17Z</time>
      </trkpt>
      <trkpt lat="44.53657" lon="6.11477">
        <ele>973.76</ele>
        <time>2016-04-12T09:52:19Z</time>
      </trkpt>
      <trkpt lat="44.53658" lon="6.11476">
        <ele>973.76</ele>
        <time>2016-04-12T09:52:20Z</time>
      </trkpt>
      <trkpt lat="44.5366" lon="6.11475">
        <ele>973.76</ele>
        <time>2016-04-12T09:52:21Z</time>
      </trkpt>
      <trkpt lat="44.53689" lon="6.11466">
        <ele>973.48</ele>
        <time>2016-04-12T09:52:30Z</time>
      </trkpt>
      <trkpt lat="44.53758" lon="6.11464">
        <ele>970.96</ele>
        <time>2016-04-12T09:52:42Z</time>
      </trkpt>
      <trkpt lat="44.53765" lon="6.11461">
        <ele>970.63</ele>
        <time>2016-04-12T09:52:43Z</time>
      </trkpt>
      <trkpt lat="44.53773" lon="6.11457">
        <ele>970.29</ele>
        <time>2016-04-12T09:52:44Z</time>
      </trkpt>
      <trkpt lat="44.5378" lon="6.11453">
        <ele>969.96</ele>
        <time>2016-04-12T09:52:45Z</time>
      </trkpt>
      <trkpt lat="44.53786" lon="6.11447">
        <ele>969.63</ele>
        <time>2016-04-12T09:52:46Z</time>
      </trkpt>
      <trkpt lat="44.53793" lon="6.1144">
        <ele>969.25</ele>
        <time>2016-04-12T09:52:47Z</time>
      </trkpt>
      <trkpt lat="44.53799" lon="6.11432">
        <ele>968.74</ele>
        <time>2016-04-12T09:52:48Z</time>
      </trkpt>
      <trkpt lat="44.53811" lon="6.11414">
        <ele>967.66</ele>
        <time>2016-04-12T09:52:50Z</time>
      </trkpt>
      <trkpt lat="44.53816" lon="6.11404">
        <ele>967.18</ele>
        <time>2016-04-12T09:52:51Z</time>
      </trkpt>
      <trkpt lat="44.53821" lon="6.11393">
        <ele>966.69</ele>
        <time>2016-04-12T09:52:52Z</time>
      </trkpt>
      <trkpt lat="44.53824" lon="6.11382">
        <ele>966.17</ele>
        <time>2016-04-12T09:52:53Z</time>
      </trkpt>
      <trkpt lat="44.53827" lon="6.1137">
        <ele>965.64</ele>
        <time>2016-04-12T09:52:54Z</time>
      </trkpt>
      <trkpt lat="44.53829" lon="6.11359">
        <ele>965.12</ele>
        <time>2016-04-12T09:52:55Z</time>
      </trkpt>
      <trkpt lat="44.53838" lon="6.11302">
        <ele>961.97</ele>
        <time>2016-04-12T09:53:00Z</time>
      </trkpt>
      <trkpt lat="44.53843" lon="6.11258">
        <ele>958.91</ele>
        <time>2016-04-12T09:53:04Z</time>
      </trkpt>
      <trkpt lat="44.53856" lon="6.11191">
        <ele>955.91</ele>
        <time>2016-04-12T09:53:11Z</time>
      </trkpt>
      <trkpt lat="44.53869" lon="6.11148">
        <ele>953.87</ele>
        <time>2016-04-12T09:53:17Z</time>
      </trkpt>
      <trkpt lat="44.53871" lon="6.11143">
        <ele>953.65</ele>
        <time>2016-04-12T09:53:18Z</time>
      </trkpt>
      <trkpt lat="44.53873" lon="6.11139">
        <ele>953.44</ele>
        <time>2016-04-12T09:53:19Z</time>
      </trkpt>
      <trkpt lat="44.53875" lon="6.11136">
        <ele>951.7</ele>
        <time>2016-04-12T09:53:28Z</time>
      </trkpt>
      <trkpt lat="44.5388" lon="6.11129">
        <ele>951.53</ele>
        <time>2016-04-12T09:53:31Z</time>
      </trkpt>
      <trkpt lat="44.53882" lon="6.11126">
        <ele>951.48</ele>
        <time>2016-04-12T09:53:32Z</time>
      </trkpt>
      <trkpt lat="44.53885" lon="6.11124">
        <ele>951.42</ele>
        <time>2016-04-12T09:53:33Z</time>
      </trkpt>
      <trkpt lat="44.53888" lon="6.11122">
        <ele>951.32</ele>
        <time>2016-04-12T09:53:34Z</time>
      </trkpt>
      <trkpt lat="44.53891" lon="6.1112">
        <ele>951.21</ele>
        <time>2016-04-12T09:53:35Z</time>
      </trkpt>
      <trkpt lat="44.53895" lon="6.1112">
        <ele>951.1</ele>
        <time>2016-04-12T09:53:36Z</time>
      </trkpt>
      <trkpt lat="44.5392" lon="6.11088">
        <ele>950.04</ele>
        <time>2016-04-12T09:53:51Z</time>
      </trkpt>
      <trkpt lat="44.53988" lon="6.11059">
        <ele>948.36</ele>
        <time>2016-04-12T09:54:12Z</time>
      </trkpt>
      <trkpt lat="44.54014" lon="6.11064">
        <ele>945.09</ele>
        <time>2016-04-12T09:54:18Z</time>
      </trkpt>
      <trkpt lat="44.54038" lon="6.11075">
        <ele>941.92</ele>
        <time>2016-04-12T09:54:24Z</time>
      </trkpt>
      <trkpt lat="44.54065" lon="6.11084">
        <ele>938.62</ele>
        <time>2016-04-12T09:54:31Z</time>
      </trkpt>
      <trkpt lat="44.54075" lon="6.11081">
        <ele>935.34</ele>
        <time>2016-04-12T09:54:37Z</time>
      </trkpt>
      <trkpt lat="44.54075" lon="6.11081">
        <ele>934.56</ele>
        <time>2016-04-12T09:54:39Z</time>
      </trkpt>
      <trkpt lat="44.54071" lon="6.11073">
        <ele>933.73</ele>
        <time>2016-04-12T09:55:05Z</time>
      </trkpt>
      <trkpt lat="44.54073" lon="6.11075">
        <ele>933.11</ele>
        <time>2016-04-12T09:55:32Z</time>
      </trkpt>
      <trkpt lat="44.54074" lon="6.11078">
        <ele>932.68</ele>
        <time>2016-04-12T09:56:04Z</time>
      </trkpt>
      <trkpt lat="44.54072" lon="6.11072">
        <ele>932.64</ele>
        <time>2016-04-12T09:56:23Z</time>
      </trkpt>
      <trkpt lat="44.54075" lon="6.11077">
        <ele>932.28</ele>
        <time>2016-04-12T09:57:01Z</time>
      </trkpt>
      <trkpt lat="44.5407" lon="6.11085">
        <ele>931.84</ele>
        <time>2016-04-12T09:57:43Z</time>
      </trkpt>
      <trkpt lat="44.54068" lon="6.1108">
        <ele>931.25</ele>
        <time>2016-04-12T09:58:31Z</time>
      </trkpt>
      <trkpt lat="44.54062" lon="6.11082">
        <ele>930.76</ele>
        <time>2016-04-12T09:59:18Z</time>
      </trkpt>
      <trkpt lat="44.5407" lon="6.11076">
        <ele>930.24</ele>
        <time>2016-04-12T10:00:04Z</time>
      </trkpt>
      <trkpt lat="44.5407" lon="6.11076">
        <ele>930.09</ele>
        <time>2016-04-12T10:00:55Z</time>
      </trkpt>
      <trkpt lat="44.5407" lon="6.11078">
        <ele>929.74</ele>
        <time>2016-04-12T10:01:38Z</time>
      </trkpt>
      <trkpt lat="44.5407" lon="6.11081">
        <ele>929.67</ele>
        <time>2016-04-12T10:01:54Z</time>
      </trkpt>
      <trkpt lat="44.54069" lon="6.11079">
        <ele>929.19</ele>
        <time>2016-04-12T10:02:47Z</time>
      </trkpt>
      <trkpt lat="44.54068" lon="6.11076">
        <ele>928.87</ele>
        <time>2016-04-12T10:03:30Z</time>
      </trkpt>
      <trkpt lat="44.54071" lon="6.11078">
        <ele>928.68</ele>
        <time>2016-04-12T10:04:46Z</time>
      </trkpt>
      <trkpt lat="44.54067" lon="6.11084">
        <ele>928.56</ele>
        <time>2016-04-12T10:05:49Z</time>
      </trkpt>
      <trkpt lat="44.5407" lon="6.11081">
        <ele>928.5</ele>
        <time>2016-04-12T10:06:34Z</time>
      </trkpt>
      <trkpt lat="44.54071" lon="6.11085">
        <ele>928.39</ele>
        <time>2016-04-12T10:08:01Z</time>
      </trkpt>
      <trkpt lat="44.54071" lon="6.11082">
        <ele>928.13</ele>
        <time>2016-04-12T10:08:48Z</time>
      </trkpt>
      <trkpt lat="44.5407" lon="6.1108">
        <ele>927.92</ele>
        <time>2016-04-12T10:09:37Z</time>
      </trkpt>
      <trkpt lat="44.54073" lon="6.11078">
        <ele>927.97</ele>
        <time>2016-04-12T10:10:22Z</time>
      </trkpt>
      <trkpt lat="44.54076" lon="6.11077">
        <ele>928.1</ele>
        <time>2016-04-12T10:10:53Z</time>
      </trkpt>
      <trkpt lat="44.54076" lon="6.1108">
        <ele>928.16</ele>
        <time>2016-04-12T10:11:25Z</time>
      </trkpt>
      <trkpt lat="44.54078" lon="6.11084">
        <ele>928.27</ele>
        <time>2016-04-12T10:12:01Z</time>
      </trkpt>
      <trkpt lat="44.54079" lon="6.11083">
        <ele>928.15</ele>
        <time>2016-04-12T10:12:32Z</time>
      </trkpt>
      <trkpt lat="44.54076" lon="6.11083">
        <ele>928.24</ele>
        <time>2016-04-12T10:13:03Z</time>
      </trkpt>
      <trkpt lat="44.54077" lon="6.11084">
        <ele>928.55</ele>
        <time>2016-04-12T10:13:34Z</time>
      </trkpt>
      <trkpt lat="44.54072" lon="6.11087">
        <ele>928.51</ele>
        <time>2016-04-12T10:14:01Z</time>
      </trkpt>
      <trkpt lat="44.54069" lon="6.11088">
        <ele>928.74</ele>
        <time>2016-04-12T10:14:34Z</time>
      </trkpt>
      <trkpt lat="44.54072" lon="6.11087">
        <ele>928.9</ele>
        <time>2016-04-12T10:15:06Z</time>
      </trkpt>
      <trkpt lat="44.5407" lon="6.11087">
        <ele>928.91</ele>
        <time>2016-04-12T10:15:37Z</time>
      </trkpt>
      <trkpt lat="44.54073" lon="6.11085">
        <ele>928.74</ele>
        <time>2016-04-12T10:16:12Z</time>
      </trkpt>
      <trkpt lat="44.54076" lon="6.11086">
        <ele>928.64</ele>
        <time>2016-04-12T10:16:43Z</time>
      </trkpt>
      <trkpt lat="44.54077" lon="6.11084">
        <ele>928.7</ele>
        <time>2016-04-12T10:17:14Z</time>
      </trkpt>
      <trkpt lat="44.54074" lon="6.11078">
        <ele>928.88</ele>
        <time>2016-04-12T10:17:44Z</time>
      </trkpt>
      <trkpt lat="44.54074" lon="6.11081">
        <ele>928.93</ele>
        <time>2016-04-12T10:18:17Z</time>
      </trkpt>
      <trkpt lat="44.54076" lon="6.1108">
        <ele>929.03</ele>
        <time>2016-04-12T10:18:51Z</time>
      </trkpt>
      <trkpt lat="44.54075" lon="6.11082">
        <ele>929.15</ele>
        <time>2016-04-12T10:19:25Z</time>
      </trkpt>
      <trkpt lat="44.54076" lon="6.11081">
        <ele>929.46</ele>
        <time>2016-04-12T10:19:59Z</time>
      </trkpt>
      <trkpt lat="44.54074" lon="6.11084">
        <ele>929.57</ele>
        <time>2016-04-12T10:20:34Z</time>
      </trkpt>
      <trkpt lat="44.54075" lon="6.11081">
        <ele>929.39</ele>
        <time>2016-04-12T10:21:05Z</time>
      </trkpt>
      <trkpt lat="44.54076" lon="6.11079">
        <ele>929.68</ele>
        <time>2016-04-12T10:21:38Z</time>
      </trkpt>
      <trkpt lat="44.54074" lon="6.11078">
        <ele>929.81</ele>
        <time>2016-04-12T10:22:09Z</time>
      </trkpt>
      <trkpt lat="44.54075" lon="6.1108">
        <ele>929.95</ele>
        <time>2016-04-12T10:22:44Z</time>
      </trkpt>
      <trkpt lat="44.54077" lon="6.11073">
        <ele>930.04</ele>
        <time>2016-04-12T10:23:20Z</time>
      </trkpt>
      <trkpt lat="44.54078" lon="6.11074">
        <ele>930.33</ele>
        <time>2016-04-12T10:24:02Z</time>
      </trkpt>
      <trkpt lat="44.5408" lon="6.11074">
        <ele>930.53</ele>
        <time>2016-04-12T10:24:30Z</time>
      </trkpt>
      <trkpt lat="44.54081" lon="6.11077">
        <ele>931.02</ele>
        <time>2016-04-12T10:24:55Z</time>
      </trkpt>
      <trkpt lat="44.54078" lon="6.11078">
        <ele>931</ele>
        <time>2016-04-12T10:25:34Z</time>
      </trkpt>
      <trkpt lat="44.54078" lon="6.11078">
        <ele>931.01</ele>
        <time>2016-04-12T10:26:16Z</time>
      </trkpt>
      <trkpt lat="44.54078" lon="6.11077">
        <ele>930.99</ele>
        <time>2016-04-12T10:26:59Z</time>
      </trkpt>
      <trkpt lat="44.54078" lon="6.11079">
        <ele>931.11</ele>
        <time>2016-04-12T10:27:37Z</time>
      </trkpt>
      <trkpt lat="44.54076" lon="6.11078">
        <ele>931.38</ele>
        <time>2016-04-12T10:28:16Z</time>
      </trkpt>
      <trkpt lat="44.5408" lon="6.11077">
        <ele>931.19</ele>
        <time>2016-04-12T10:28:50Z</time>
      </trkpt>
      <trkpt lat="44.54082" lon="6.11075">
        <ele>931.39</ele>
        <time>2016-04-12T10:29:22Z</time>
      </trkpt>
      <trkpt lat="44.54073" lon="6.11079">
        <ele>931.94</ele>
        <time>2016-04-12T10:29:55Z</time>
      </trkpt>
      <trkpt lat="44.54082" lon="6.11081">
        <ele>932.18</ele>
        <time>2016-04-12T10:30:24Z</time>
      </trkpt>
      <trkpt lat="44.54082" lon="6.11076">
        <ele>932.01</ele>
        <time>2016-04-12T10:30:55Z</time>
      </trkpt>
      <trkpt lat="44.54082" lon="6.11074">
        <ele>932.22</ele>
        <time>2016-04-12T10:31:29Z</time>
      </trkpt>
      <trkpt lat="44.54077" lon="6.1108">
        <ele>932.17</ele>
        <time>2016-04-12T10:32:04Z</time>
      </trkpt>
      <trkpt lat="44.5408" lon="6.11073">
        <ele>932.14</ele>
        <time>2016-04-12T10:32:47Z</time>
      </trkpt>
      <trkpt lat="44.54082" lon="6.11072">
        <ele>932.39</ele>
        <time>2016-04-12T10:33:30Z</time>
      </trkpt>
      <trkpt lat="44.54066" lon="6.11076">
        <ele>932.27</ele>
        <time>2016-04-12T10:34:23Z</time>
      </trkpt>
      <trkpt lat="44.54071" lon="6.11077">
        <ele>932.52</ele>
        <time>2016-04-12T10:35:04Z</time>
      </trkpt>
      <trkpt lat="44.54078" lon="6.1108">
        <ele>932.86</ele>
        <time>2016-04-12T10:35:42Z</time>
      </trkpt>
      <trkpt lat="44.54081" lon="6.11073">
        <ele>933.2</ele>
        <time>2016-04-12T10:36:25Z</time>
      </trkpt>
      <trkpt lat="44.54076" lon="6.11078">
        <ele>931.93</ele>
        <time>2016-04-12T10:37:06Z</time>
      </trkpt>
      <trkpt lat="44.54079" lon="6.11077">
        <ele>931.31</ele>
        <time>2016-04-12T10:37:47Z</time>
      </trkpt>
      <trkpt lat="44.54078" lon="6.11072">
        <ele>930.72</ele>
        <time>2016-04-12T10:38:26Z</time>
      </trkpt>
      <trkpt lat="44.54076" lon="6.11072">
        <ele>929.94</ele>
        <time>2016-04-12T10:39:10Z</time>
      </trkpt>
      <trkpt lat="44.54074" lon="6.11075">
        <ele>930.22</ele>
        <time>2016-04-12T10:39:53Z</time>
      </trkpt>
      <trkpt lat="44.54074" lon="6.1107">
        <ele>930.41</ele>
        <time>2016-04-12T10:40:38Z</time>
      </trkpt>
      <trkpt lat="44.54072" lon="6.11073">
        <ele>930.12</ele>
        <time>2016-04-12T10:41:22Z</time>
      </trkpt>
      <trkpt lat="44.54072" lon="6.11075">
        <ele>929.69</ele>
        <time>2016-04-12T10:42:13Z</time>
      </trkpt>
      <trkpt lat="44.54075" lon="6.11072">
        <ele>930.45</ele>
        <time>2016-04-12T10:42:58Z</time>
      </trkpt>
      <trkpt lat="44.54078" lon="6.11075">
        <ele>930.65</ele>
        <time>2016-04-12T10:43:45Z</time>
      </trkpt>
      <trkpt lat="44.54075" lon="6.11075">
        <ele>930.44</ele>
        <time>2016-04-12T10:44:30Z</time>
      </trkpt>
      <trkpt lat="44.54078" lon="6.11074">
        <ele>930.37</ele>
        <time>2016-04-12T10:45:27Z</time>
      </trkpt>
      <trkpt lat="44.54077" lon="6.11076">
        <ele>930.57</ele>
        <time>2016-04-12T10:46:13Z</time>
      </trkpt>
      <trkpt lat="44.54075" lon="6.11076">
        <ele>930.61</ele>
        <time>2016-04-12T10:47:07Z</time>
      </trkpt>
      <trkpt lat="44.54077" lon="6.11075">
        <ele>931.12</ele>
        <time>2016-04-12T10:47:55Z</time>
      </trkpt>
      <trkpt lat="44.54074" lon="6.11075">
        <ele>930.96</ele>
        <time>2016-04-12T10:48:42Z</time>
      </trkpt>
      <trkpt lat="44.54077" lon="6.11076">
        <ele>930.41</ele>
        <time>2016-04-12T10:49:30Z</time>
      </trkpt>
      <trkpt lat="44.54079" lon="6.11078">
        <ele>930.44</ele>
        <time>2016-04-12T10:50:19Z</time>
      </trkpt>
      <trkpt lat="44.54076" lon="6.11077">
        <ele>930.26</ele>
        <time>2016-04-12T10:51:03Z</time>
      </trkpt>
      <trkpt lat="44.54073" lon="6.11075">
        <ele>930.07</ele>
        <time>2016-04-12T10:51:49Z</time>
      </trkpt>
      <trkpt lat="44.54074" lon="6.11078">
        <ele>930.06</ele>
        <time>2016-04-12T10:52:40Z</time>
      </trkpt>
      <trkpt lat="44.54075" lon="6.1107">
        <ele>930.18</ele>
        <time>2016-04-12T10:53:23Z</time>
      </trkpt>
      <trkpt lat="44.54073" lon="6.11073">
        <ele>930.56</ele>
        <time>2016-04-12T10:54:10Z</time>
      </trkpt>
      <trkpt lat="44.5407" lon="6.11074">
        <ele>930.55</ele>
        <time>2016-04-12T10:54:55Z</time>
      </trkpt>
      <trkpt lat="44.54075" lon="6.11083">
        <ele>930.5</ele>
        <time>2016-04-12T10:55:44Z</time>
      </trkpt>
      <trkpt lat="44.5407" lon="6.11079">
        <ele>930.7</ele>
        <time>2016-04-12T10:56:24Z</time>
      </trkpt>
      <trkpt lat="44.54074" lon="6.11079">
        <ele>930.64</ele>
        <time>2016-04-12T10:57:10Z</time>
      </trkpt>
      <trkpt lat="44.54074" lon="6.1108">
        <ele>930.72</ele>
        <time>2016-04-12T10:57:49Z</time>
      </trkpt>
      <trkpt lat="44.54077" lon="6.11077">
        <ele>931.09</ele>
        <time>2016-04-12T10:58:32Z</time>
      </trkpt>
      <trkpt lat="44.54071" lon="6.11078">
        <ele>930.98</ele>
        <time>2016-04-12T10:59:18Z</time>
      </trkpt>
      <trkpt lat="44.54073" lon="6.11082">
        <ele>930.72</ele>
        <time>2016-04-12T11:00:01Z</time>
      </trkpt>
      <trkpt lat="44.54073" lon="6.11078">
        <ele>930.98</ele>
        <time>2016-04-12T11:00:52Z</time>
      </trkpt>
      <trkpt lat="44.54078" lon="6.11078">
        <ele>931.02</ele>
        <time>2016-04-12T11:01:44Z</time>
      </trkpt>
      <trkpt lat="44.54076" lon="6.11078">
        <ele>931.66</ele>
        <time>2016-04-12T11:02:28Z</time>
      </trkpt>
      <trkpt lat="44.54077" lon="6.1108">
        <ele>932.31</ele>
        <time>2016-04-12T11:02:55Z</time>
      </trkpt>
      <trkpt lat="44.54076" lon="6.11077">
        <ele>932.1</ele>
        <time>2016-04-12T11:03:27Z</time>
      </trkpt>
      <trkpt lat="44.54077" lon="6.11078">
        <ele>932.31</ele>
        <time>2016-04-12T11:04:04Z</time>
      </trkpt>
      <trkpt lat="44.54074" lon="6.11081">
        <ele>932.5</ele>
        <time>2016-04-12T11:04:34Z</time>
      </trkpt>
      <trkpt lat="44.54074" lon="6.11081">
        <ele>932.44</ele>
        <time>2016-04-12T11:05:09Z</time>
      </trkpt>
      <trkpt lat="44.54079" lon="6.1108">
        <ele>932.14</ele>
        <time>2016-04-12T11:05:39Z</time>
      </trkpt>
      <trkpt lat="44.54084" lon="6.11081">
        <ele>932.03</ele>
        <time>2016-04-12T11:05:42Z</time>
      </trkpt>
      <trkpt lat="44.54092" lon="6.11083">
        <ele>931.4</ele>
        <time>2016-04-12T11:05:47Z</time>
      </trkpt>
      <trkpt lat="44.54134" lon="6.1106">
        <ele>929.2</ele>
        <time>2016-04-12T11:06:02Z</time>
      </trkpt>
      <trkpt lat="44.54177" lon="6.1102">
        <ele>926.19</ele>
        <time>2016-04-12T11:06:15Z</time>
      </trkpt>
      <trkpt lat="44.54206" lon="6.11007">
        <ele>923.95</ele>
        <time>2016-04-12T11:06:23Z</time>
      </trkpt>
      <trkpt lat="44.5422" lon="6.11003">
        <ele>920.29</ele>
        <time>2016-04-12T11:06:31Z</time>
      </trkpt>
      <trkpt lat="44.54235" lon="6.10961">
        <ele>917.27</ele>
        <time>2016-04-12T11:06:42Z</time>
      </trkpt>
      <trkpt lat="44.54257" lon="6.10931">
        <ele>913.83</ele>
        <time>2016-04-12T11:06:50Z</time>
      </trkpt>
      <trkpt lat="44.54276" lon="6.1091">
        <ele>910.74</ele>
        <time>2016-04-12T11:06:57Z</time>
      </trkpt>
      <trkpt lat="44.54294" lon="6.109">
        <ele>908.38</ele>
        <time>2016-04-12T11:07:02Z</time>
      </trkpt>
      <trkpt lat="44.54307" lon="6.10883">
        <ele>906.68</ele>
        <time>2016-04-12T11:07:06Z</time>
      </trkpt>
      <trkpt lat="44.54311" lon="6.10872">
        <ele>905.82</ele>
        <time>2016-04-12T11:07:08Z</time>
      </trkpt>
      <trkpt lat="44.5432" lon="6.10845">
        <ele>902.09</ele>
        <time>2016-04-12T11:07:16Z</time>
      </trkpt>
      <trkpt lat="44.54322" lon="6.10853">
        <ele>900.79</ele>
        <time>2016-04-12T11:07:19Z</time>
      </trkpt>
      <trkpt lat="44.54336" lon="6.10889">
        <ele>897.22</ele>
        <time>2016-04-12T11:07:30Z</time>
      </trkpt>
      <trkpt lat="44.54333" lon="6.1091">
        <ele>895.9</ele>
        <time>2016-04-12T11:07:35Z</time>
      </trkpt>
      <trkpt lat="44.54344" lon="6.10923">
        <ele>892.47</ele>
        <time>2016-04-12T11:07:45Z</time>
      </trkpt>
      <trkpt lat="44.54349" lon="6.10911">
        <ele>890.52</ele>
        <time>2016-04-12T11:07:51Z</time>
      </trkpt>
      <trkpt lat="44.54362" lon="6.10874">
        <ele>887.21</ele>
        <time>2016-04-12T11:08:04Z</time>
      </trkpt>
      <trkpt lat="44.54363" lon="6.1085">
        <ele>885.88</ele>
        <time>2016-04-12T11:08:09Z</time>
      </trkpt>
      <trkpt lat="44.54361" lon="6.10833">
        <ele>884.27</ele>
        <time>2016-04-12T11:08:14Z</time>
      </trkpt>
      <trkpt lat="44.54368" lon="6.10849">
        <ele>883.02</ele>
        <time>2016-04-12T11:08:18Z</time>
      </trkpt>
      <trkpt lat="44.54377" lon="6.10872">
        <ele>880.64</ele>
        <time>2016-04-12T11:08:25Z</time>
      </trkpt>
      <trkpt lat="44.54387" lon="6.10851">
        <ele>877.23</ele>
        <time>2016-04-12T11:08:34Z</time>
      </trkpt>
      <trkpt lat="44.54388" lon="6.10848">
        <ele>876.75</ele>
        <time>2016-04-12T11:08:35Z</time>
      </trkpt>
      <trkpt lat="44.54394" lon="6.10834">
        <ele>874.57</ele>
        <time>2016-04-12T11:08:40Z</time>
      </trkpt>
      <trkpt lat="44.54397" lon="6.10823">
        <ele>872.99</ele>
        <time>2016-04-12T11:08:44Z</time>
      </trkpt>
      <trkpt lat="44.54397" lon="6.10819">
        <ele>872.27</ele>
        <time>2016-04-12T11:08:47Z</time>
      </trkpt>
      <trkpt lat="44.54394" lon="6.10814">
        <ele>871.94</ele>
        <time>2016-04-12T11:08:50Z</time>
      </trkpt>
      <trkpt lat="44.54392" lon="6.10806">
        <ele>871.85</ele>
        <time>2016-04-12T11:08:54Z</time>
      </trkpt>
      <trkpt lat="44.54392" lon="6.10785">
        <ele>872.11</ele>
        <time>2016-04-12T11:09:02Z</time>
      </trkpt>
      <trkpt lat="44.54397" lon="6.10772">
        <ele>872.39</ele>
        <time>2016-04-12T11:09:07Z</time>
      </trkpt>
      <trkpt lat="44.54404" lon="6.10736">
        <ele>873.31</ele>
        <time>2016-04-12T11:09:29Z</time>
      </trkpt>
      <trkpt lat="44.54403" lon="6.10732">
        <ele>873.23</ele>
        <time>2016-04-12T11:09:59Z</time>
      </trkpt>
      <trkpt lat="44.54403" lon="6.10728">
        <ele>873.16</ele>
        <time>2016-04-12T11:10:16Z</time>
      </trkpt>
      <trkpt lat="44.54404" lon="6.10715">
        <ele>873.29</ele>
        <time>2016-04-12T11:10:22Z</time>
      </trkpt>
      <trkpt lat="44.54408" lon="6.10658">
        <ele>872.88</ele>
        <time>2016-04-12T11:10:35Z</time>
      </trkpt>
      <trkpt lat="44.54414" lon="6.10609">
        <ele>871.98</ele>
        <time>2016-04-12T11:10:42Z</time>
      </trkpt>
      <trkpt lat="44.54419" lon="6.10583">
        <ele>871.45</ele>
        <time>2016-04-12T11:10:45Z</time>
      </trkpt>
      <trkpt lat="44.5442" lon="6.10574">
        <ele>871.2</ele>
        <time>2016-04-12T11:10:46Z</time>
      </trkpt>
      <trkpt lat="44.5442" lon="6.10554">
        <ele>870.67</ele>
        <time>2016-04-12T11:10:48Z</time>
      </trkpt>
      <trkpt lat="44.54419" lon="6.10544">
        <ele>870.44</ele>
        <time>2016-04-12T11:10:49Z</time>
      </trkpt>
      <trkpt lat="44.54409" lon="6.10485">
        <ele>868.51</ele>
        <time>2016-04-12T11:10:55Z</time>
      </trkpt>
      <trkpt lat="44.54408" lon="6.10476">
        <ele>868.08</ele>
        <time>2016-04-12T11:10:56Z</time>
      </trkpt>
      <trkpt lat="44.5441" lon="6.10467">
        <ele>867.64</ele>
        <time>2016-04-12T11:10:57Z</time>
      </trkpt>
      <trkpt lat="44.54413" lon="6.10459">
        <ele>867.23</ele>
        <time>2016-04-12T11:10:58Z</time>
      </trkpt>
      <trkpt lat="44.54418" lon="6.10452">
        <ele>866.83</ele>
        <time>2016-04-12T11:10:59Z</time>
      </trkpt>
      <trkpt lat="44.54423" lon="6.10447">
        <ele>866.43</ele>
        <time>2016-04-12T11:11:00Z</time>
      </trkpt>
      <trkpt lat="44.54429" lon="6.10442">
        <ele>866.08</ele>
        <time>2016-04-12T11:11:01Z</time>
      </trkpt>
      <trkpt lat="44.54435" lon="6.10438">
        <ele>865.71</ele>
        <time>2016-04-12T11:11:02Z</time>
      </trkpt>
      <trkpt lat="44.54452" lon="6.10424">
        <ele>864.19</ele>
        <time>2016-04-12T11:11:05Z</time>
      </trkpt>
      <trkpt lat="44.54456" lon="6.10418">
        <ele>862.98</ele>
        <time>2016-04-12T11:11:06Z</time>
      </trkpt>
      <trkpt lat="44.5446" lon="6.1041">
        <ele>862.34</ele>
        <time>2016-04-12T11:11:07Z</time>
      </trkpt>
      <trkpt lat="44.54462" lon="6.10403">
        <ele>861.59</ele>
        <time>2016-04-12T11:11:08Z</time>
      </trkpt>
      <trkpt lat="44.54465" lon="6.10395">
        <ele>860.81</ele>
        <time>2016-04-12T11:11:09Z</time>
      </trkpt>
      <trkpt lat="44.54468" lon="6.10386">
        <ele>860.1</ele>
        <time>2016-04-12T11:11:10Z</time>
      </trkpt>
      <trkpt lat="44.54481" lon="6.10337">
        <ele>856.74</ele>
        <time>2016-04-12T11:11:15Z</time>
      </trkpt>
      <trkpt lat="44.54491" lon="6.10296">
        <ele>853.55</ele>
        <time>2016-04-12T11:11:19Z</time>
      </trkpt>
      <trkpt lat="44.54502" lon="6.1026">
        <ele>850.74</ele>
        <time>2016-04-12T11:11:23Z</time>
      </trkpt>
      <trkpt lat="44.54507" lon="6.10253">
        <ele>849.94</ele>
        <time>2016-04-12T11:11:24Z</time>
      </trkpt>
      <trkpt lat="44.54512" lon="6.10247">
        <ele>849.25</ele>
        <time>2016-04-12T11:11:25Z</time>
      </trkpt>
      <trkpt lat="44.54523" lon="6.10235">
        <ele>848.09</ele>
        <time>2016-04-12T11:11:27Z</time>
      </trkpt>
      <trkpt lat="44.54526" lon="6.10226">
        <ele>847.53</ele>
        <time>2016-04-12T11:11:28Z</time>
      </trkpt>
      <trkpt lat="44.54528" lon="6.10217">
        <ele>846.86</ele>
        <time>2016-04-12T11:11:29Z</time>
      </trkpt>
      <trkpt lat="44.54529" lon="6.10208">
        <ele>846.06</ele>
        <time>2016-04-12T11:11:30Z</time>
      </trkpt>
      <trkpt lat="44.54529" lon="6.102">
        <ele>844.35</ele>
        <time>2016-04-12T11:11:31Z</time>
      </trkpt>
      <trkpt lat="44.54529" lon="6.10193">
        <ele>843.45</ele>
        <time>2016-04-12T11:11:32Z</time>
      </trkpt>
      <trkpt lat="44.54531" lon="6.10186">
        <ele>842.6</ele>
        <time>2016-04-12T11:11:33Z</time>
      </trkpt>
      <trkpt lat="44.54535" lon="6.1018">
        <ele>841.89</ele>
        <time>2016-04-12T11:11:34Z</time>
      </trkpt>
      <trkpt lat="44.5454" lon="6.10176">
        <ele>841.29</ele>
        <time>2016-04-12T11:11:35Z</time>
      </trkpt>
      <trkpt lat="44.54545" lon="6.10172">
        <ele>840.79</ele>
        <time>2016-04-12T11:11:36Z</time>
      </trkpt>
      <trkpt lat="44.54571" lon="6.10152">
        <ele>839.26</ele>
        <time>2016-04-12T11:11:41Z</time>
      </trkpt>
      <trkpt lat="44.54583" lon="6.10143">
        <ele>838.88</ele>
        <time>2016-04-12T11:11:43Z</time>
      </trkpt>
      <trkpt lat="44.54589" lon="6.10138">
        <ele>838.7</ele>
        <time>2016-04-12T11:11:44Z</time>
      </trkpt>
      <trkpt lat="44.54593" lon="6.10131">
        <ele>838.4</ele>
        <time>2016-04-12T11:11:45Z</time>
      </trkpt>
      <trkpt lat="44.54598" lon="6.10123">
        <ele>837.96</ele>
        <time>2016-04-12T11:11:46Z</time>
      </trkpt>
      <trkpt lat="44.54602" lon="6.10115">
        <ele>837.5</ele>
        <time>2016-04-12T11:11:47Z</time>
      </trkpt>
      <trkpt lat="44.54607" lon="6.10107">
        <ele>837.07</ele>
        <time>2016-04-12T11:11:48Z</time>
      </trkpt>
      <trkpt lat="44.54612" lon="6.101">
        <ele>836.65</ele>
        <time>2016-04-12T11:11:49Z</time>
      </trkpt>
      <trkpt lat="44.54619" lon="6.10095">
        <ele>836.24</ele>
        <time>2016-04-12T11:11:50Z</time>
      </trkpt>
      <trkpt lat="44.54625" lon="6.10091">
        <ele>835.89</ele>
        <time>2016-04-12T11:11:51Z</time>
      </trkpt>
      <trkpt lat="44.54632" lon="6.10087">
        <ele>835.59</ele>
        <time>2016-04-12T11:11:52Z</time>
      </trkpt>
      <trkpt lat="44.54639" lon="6.10083">
        <ele>835.3</ele>
        <time>2016-04-12T11:11:53Z</time>
      </trkpt>
      <trkpt lat="44.54681" lon="6.10067">
        <ele>832.16</ele>
        <time>2016-04-12T11:11:59Z</time>
      </trkpt>
      <trkpt lat="44.54694" lon="6.10061">
        <ele>831.25</ele>
        <time>2016-04-12T11:12:01Z</time>
      </trkpt>
      <trkpt lat="44.54722" lon="6.10042">
        <ele>828.92</ele>
        <time>2016-04-12T11:12:06Z</time>
      </trkpt>
      <trkpt lat="44.5473" lon="6.10038">
        <ele>827.83</ele>
        <time>2016-04-12T11:12:08Z</time>
      </trkpt>
      <trkpt lat="44.54734" lon="6.10035">
        <ele>827.36</ele>
        <time>2016-04-12T11:12:09Z</time>
      </trkpt>
      <trkpt lat="44.54738" lon="6.10031">
        <ele>826.91</ele>
        <time>2016-04-12T11:12:10Z</time>
      </trkpt>
      <trkpt lat="44.54742" lon="6.10027">
        <ele>826.55</ele>
        <time>2016-04-12T11:12:11Z</time>
      </trkpt>
      <trkpt lat="44.54747" lon="6.10024">
        <ele>826.24</ele>
        <time>2016-04-12T11:12:12Z</time>
      </trkpt>
      <trkpt lat="44.54752" lon="6.10023">
        <ele>825.98</ele>
        <time>2016-04-12T11:12:13Z</time>
      </trkpt>
      <trkpt lat="44.54757" lon="6.10023">
        <ele>825.76</ele>
        <time>2016-04-12T11:12:14Z</time>
      </trkpt>
      <trkpt lat="44.54761" lon="6.10024">
        <ele>825.56</ele>
        <time>2016-04-12T11:12:15Z</time>
      </trkpt>
      <trkpt lat="44.54765" lon="6.10028">
        <ele>825.32</ele>
        <time>2016-04-12T11:12:16Z</time>
      </trkpt>
      <trkpt lat="44.54768" lon="6.10032">
        <ele>825.1</ele>
        <time>2016-04-12T11:12:17Z</time>
      </trkpt>
      <trkpt lat="44.5477" lon="6.10035">
        <ele>824.86</ele>
        <time>2016-04-12T11:12:18Z</time>
      </trkpt>
      <trkpt lat="44.54773" lon="6.10038">
        <ele>824.55</ele>
        <time>2016-04-12T11:12:19Z</time>
      </trkpt>
      <trkpt lat="44.54775" lon="6.10038">
        <ele>823.86</ele>
        <time>2016-04-12T11:12:20Z</time>
      </trkpt>
      <trkpt lat="44.54777" lon="6.10037">
        <ele>823.52</ele>
        <time>2016-04-12T11:12:21Z</time>
      </trkpt>
      <trkpt lat="44.54778" lon="6.10035">
        <ele>823.2</ele>
        <time>2016-04-12T11:12:22Z</time>
      </trkpt>
      <trkpt lat="44.54779" lon="6.10033">
        <ele>822.89</ele>
        <time>2016-04-12T11:12:23Z</time>
      </trkpt>
      <trkpt lat="44.54781" lon="6.10031">
        <ele>822</ele>
        <time>2016-04-12T11:12:42Z</time>
      </trkpt>
      <trkpt lat="44.54783" lon="6.10031">
        <ele>821.98</ele>
        <time>2016-04-12T11:13:14Z</time>
      </trkpt>
      <trkpt lat="44.54785" lon="6.10028">
        <ele>822.07</ele>
        <time>2016-04-12T11:13:21Z</time>
      </trkpt>
      <trkpt lat="44.54786" lon="6.10026">
        <ele>822.09</ele>
        <time>2016-04-12T11:13:22Z</time>
      </trkpt>
      <trkpt lat="44.54787" lon="6.10024">
        <ele>822.08</ele>
        <time>2016-04-12T11:13:23Z</time>
      </trkpt>
      <trkpt lat="44.54794" lon="6.09955">
        <ele>821.66</ele>
        <time>2016-04-12T11:13:41Z</time>
      </trkpt>
      <trkpt lat="44.54782" lon="6.09906">
        <ele>821.3</ele>
        <time>2016-04-12T11:13:50Z</time>
      </trkpt>
      <trkpt lat="44.54738" lon="6.09783">
        <ele>819.65</ele>
        <time>2016-04-12T11:14:07Z</time>
      </trkpt>
      <trkpt lat="44.54705" lon="6.09643">
        <ele>816.63</ele>
        <time>2016-04-12T11:14:24Z</time>
      </trkpt>
      <trkpt lat="44.54706" lon="6.09507">
        <ele>814.12</ele>
        <time>2016-04-12T11:14:41Z</time>
      </trkpt>
      <trkpt lat="44.54705" lon="6.09497">
        <ele>813.78</ele>
        <time>2016-04-12T11:14:42Z</time>
      </trkpt>
      <trkpt lat="44.54686" lon="6.094">
        <ele>810.76</ele>
        <time>2016-04-12T11:14:51Z</time>
      </trkpt>
      <trkpt lat="44.54669" lon="6.09316">
        <ele>809.5</ele>
        <time>2016-04-12T11:15:00Z</time>
      </trkpt>
      <trkpt lat="44.54669" lon="6.09307">
        <ele>809.37</ele>
        <time>2016-04-12T11:15:01Z</time>
      </trkpt>
      <trkpt lat="44.54671" lon="6.0928">
        <ele>808.74</ele>
        <time>2016-04-12T11:15:04Z</time>
      </trkpt>
      <trkpt lat="44.54672" lon="6.09271">
        <ele>808.46</ele>
        <time>2016-04-12T11:15:05Z</time>
      </trkpt>
      <trkpt lat="44.54685" lon="6.0918">
        <ele>806.63</ele>
        <time>2016-04-12T11:15:16Z</time>
      </trkpt>
      <trkpt lat="44.54685" lon="6.09171">
        <ele>806.49</ele>
        <time>2016-04-12T11:15:17Z</time>
      </trkpt>
      <trkpt lat="44.54684" lon="6.09162">
        <ele>806.35</ele>
        <time>2016-04-12T11:15:18Z</time>
      </trkpt>
      <trkpt lat="44.54682" lon="6.09154">
        <ele>806.24</ele>
        <time>2016-04-12T11:15:19Z</time>
      </trkpt>
      <trkpt lat="44.54681" lon="6.09146">
        <ele>806.18</ele>
        <time>2016-04-12T11:15:20Z</time>
      </trkpt>
      <trkpt lat="44.54641" lon="6.08963">
        <ele>803.85</ele>
        <time>2016-04-12T11:15:43Z</time>
      </trkpt>
      <trkpt lat="44.54621" lon="6.08823">
        <ele>800.81</ele>
        <time>2016-04-12T11:16:03Z</time>
      </trkpt>
      <trkpt lat="44.54596" lon="6.08707">
        <ele>800.05</ele>
        <time>2016-04-12T11:16:19Z</time>
      </trkpt>
      <trkpt lat="44.54593" lon="6.087">
        <ele>799.92</ele>
        <time>2016-04-12T11:16:20Z</time>
      </trkpt>
      <trkpt lat="44.54589" lon="6.08694">
        <ele>799.67</ele>
        <time>2016-04-12T11:16:21Z</time>
      </trkpt>
      <trkpt lat="44.54584" lon="6.08689">
        <ele>799.35</ele>
        <time>2016-04-12T11:16:22Z</time>
      </trkpt>
      <trkpt lat="44.54579" lon="6.08686">
        <ele>799.02</ele>
        <time>2016-04-12T11:16:23Z</time>
      </trkpt>
      <trkpt lat="44.54573" lon="6.08684">
        <ele>798.71</ele>
        <time>2016-04-12T11:16:24Z</time>
      </trkpt>
      <trkpt lat="44.54568" lon="6.08684">
        <ele>798.39</ele>
        <time>2016-04-12T11:16:25Z</time>
      </trkpt>
      <trkpt lat="44.54564" lon="6.08683">
        <ele>797.59</ele>
        <time>2016-04-12T11:16:26Z</time>
      </trkpt>
      <trkpt lat="44.5456" lon="6.08681">
        <ele>797.13</ele>
        <time>2016-04-12T11:16:27Z</time>
      </trkpt>
      <trkpt lat="44.54558" lon="6.08678">
        <ele>796.65</ele>
        <time>2016-04-12T11:16:28Z</time>
      </trkpt>
      <trkpt lat="44.54556" lon="6.08675">
        <ele>796.17</ele>
        <time>2016-04-12T11:16:29Z</time>
      </trkpt>
      <trkpt lat="44.54556" lon="6.08671">
        <ele>795.73</ele>
        <time>2016-04-12T11:16:30Z</time>
      </trkpt>
      <trkpt lat="44.54557" lon="6.08668">
        <ele>795.3</ele>
        <time>2016-04-12T11:16:31Z</time>
      </trkpt>
      <trkpt lat="44.54559" lon="6.08664">
        <ele>794.86</ele>
        <time>2016-04-12T11:16:32Z</time>
      </trkpt>
      <trkpt lat="44.54564" lon="6.08654">
        <ele>794.01</ele>
        <time>2016-04-12T11:16:34Z</time>
      </trkpt>
      <trkpt lat="44.54576" lon="6.08634">
        <ele>792.02</ele>
        <time>2016-04-12T11:16:39Z</time>
      </trkpt>
      <trkpt lat="44.54577" lon="6.0863">
        <ele>791.65</ele>
        <time>2016-04-12T11:16:40Z</time>
      </trkpt>
      <trkpt lat="44.54578" lon="6.08627">
        <ele>791.25</ele>
        <time>2016-04-12T11:16:41Z</time>
      </trkpt>
      <trkpt lat="44.5458" lon="6.08622">
        <ele>790.85</ele>
        <time>2016-04-12T11:16:42Z</time>
      </trkpt>
      <trkpt lat="44.54583" lon="6.08618">
        <ele>790.47</ele>
        <time>2016-04-12T11:16:43Z</time>
      </trkpt>
      <trkpt lat="44.54586" lon="6.08614">
        <ele>790.14</ele>
        <time>2016-04-12T11:16:44Z</time>
      </trkpt>
      <trkpt lat="44.54623" lon="6.08529">
        <ele>789.58</ele>
        <time>2016-04-12T11:17:05Z</time>
      </trkpt>
      <trkpt lat="44.54616" lon="6.08451">
        <ele>792.58</ele>
        <time>2016-04-12T11:17:29Z</time>
      </trkpt>
      <trkpt lat="44.54602" lon="6.08373">
        <ele>795.5</ele>
        <time>2016-04-12T11:17:54Z</time>
      </trkpt>
      <trkpt lat="44.54589" lon="6.08307">
        <ele>797.97</ele>
        <time>2016-04-12T11:18:14Z</time>
      </trkpt>
      <trkpt lat="44.54573" lon="6.08235">
        <ele>801.1</ele>
        <time>2016-04-12T11:18:35Z</time>
      </trkpt>
      <trkpt lat="44.54559" lon="6.0817">
        <ele>804.12</ele>
        <time>2016-04-12T11:18:55Z</time>
      </trkpt>
      <trkpt lat="44.54549" lon="6.0809">
        <ele>807.13</ele>
        <time>2016-04-12T11:19:20Z</time>
      </trkpt>
      <trkpt lat="44.54534" lon="6.08006">
        <ele>809.12</ele>
        <time>2016-04-12T11:19:46Z</time>
      </trkpt>
      <trkpt lat="44.5451" lon="6.07922">
        <ele>810.48</ele>
        <time>2016-04-12T11:20:08Z</time>
      </trkpt>
      <trkpt lat="44.54498" lon="6.07841">
        <ele>810.79</ele>
        <time>2016-04-12T11:20:24Z</time>
      </trkpt>
      <trkpt lat="44.54499" lon="6.07833">
        <ele>810.61</ele>
        <time>2016-04-12T11:20:25Z</time>
      </trkpt>
      <trkpt lat="44.54501" lon="6.07825">
        <ele>810.42</ele>
        <time>2016-04-12T11:20:26Z</time>
      </trkpt>
      <trkpt lat="44.54504" lon="6.07817">
        <ele>810.25</ele>
        <time>2016-04-12T11:20:27Z</time>
      </trkpt>
      <trkpt lat="44.54508" lon="6.07809">
        <ele>810.1</ele>
        <time>2016-04-12T11:20:28Z</time>
      </trkpt>
      <trkpt lat="44.54513" lon="6.07803">
        <ele>809.96</ele>
        <time>2016-04-12T11:20:29Z</time>
      </trkpt>
      <trkpt lat="44.54519" lon="6.07797">
        <ele>809.8</ele>
        <time>2016-04-12T11:20:30Z</time>
      </trkpt>
      <trkpt lat="44.54526" lon="6.07792">
        <ele>809.59</ele>
        <time>2016-04-12T11:20:31Z</time>
      </trkpt>
      <trkpt lat="44.54533" lon="6.07787">
        <ele>809.34</ele>
        <time>2016-04-12T11:20:32Z</time>
      </trkpt>
      <trkpt lat="44.54588" lon="6.0775">
        <ele>806.63</ele>
        <time>2016-04-12T11:20:39Z</time>
      </trkpt>
      <trkpt lat="44.54597" lon="6.07747">
        <ele>805.76</ele>
        <time>2016-04-12T11:20:40Z</time>
      </trkpt>
      <trkpt lat="44.54607" lon="6.07747">
        <ele>805.35</ele>
        <time>2016-04-12T11:20:41Z</time>
      </trkpt>
      <trkpt lat="44.54616" lon="6.0775">
        <ele>804.9</ele>
        <time>2016-04-12T11:20:42Z</time>
      </trkpt>
      <trkpt lat="44.54626" lon="6.07754">
        <ele>804.46</ele>
        <time>2016-04-12T11:20:43Z</time>
      </trkpt>
      <trkpt lat="44.54699" lon="6.07783">
        <ele>801.03</ele>
        <time>2016-04-12T11:20:50Z</time>
      </trkpt>
      <trkpt lat="44.54752" lon="6.07807">
        <ele>797.91</ele>
        <time>2016-04-12T11:20:55Z</time>
      </trkpt>
      <trkpt lat="44.54812" lon="6.07854">
        <ele>794.61</ele>
        <time>2016-04-12T11:21:01Z</time>
      </trkpt>
      <trkpt lat="44.54842" lon="6.07874">
        <ele>792.37</ele>
        <time>2016-04-12T11:21:04Z</time>
      </trkpt>
      <trkpt lat="44.54854" lon="6.07877">
        <ele>790.8</ele>
        <time>2016-04-12T11:21:05Z</time>
      </trkpt>
      <trkpt lat="44.54865" lon="6.07876">
        <ele>790.06</ele>
        <time>2016-04-12T11:21:06Z</time>
      </trkpt>
      <trkpt lat="44.54876" lon="6.07871">
        <ele>789.38</ele>
        <time>2016-04-12T11:21:07Z</time>
      </trkpt>
      <trkpt lat="44.54887" lon="6.07865">
        <ele>788.76</ele>
        <time>2016-04-12T11:21:08Z</time>
      </trkpt>
      <trkpt lat="44.54897" lon="6.07857">
        <ele>788.15</ele>
        <time>2016-04-12T11:21:09Z</time>
      </trkpt>
      <trkpt lat="44.54905" lon="6.07846">
        <ele>787.59</ele>
        <time>2016-04-12T11:21:10Z</time>
      </trkpt>
      <trkpt lat="44.54913" lon="6.07837">
        <ele>787.09</ele>
        <time>2016-04-12T11:21:11Z</time>
      </trkpt>
      <trkpt lat="44.54922" lon="6.07829">
        <ele>786.55</ele>
        <time>2016-04-12T11:21:12Z</time>
      </trkpt>
      <trkpt lat="44.54931" lon="6.07825">
        <ele>785.9</ele>
        <time>2016-04-12T11:21:13Z</time>
      </trkpt>
      <trkpt lat="44.5494" lon="6.07823">
        <ele>785.13</ele>
        <time>2016-04-12T11:21:14Z</time>
      </trkpt>
      <trkpt lat="44.5495" lon="6.07825">
        <ele>784.32</ele>
        <time>2016-04-12T11:21:15Z</time>
      </trkpt>
      <trkpt lat="44.5496" lon="6.07828">
        <ele>783.51</ele>
        <time>2016-04-12T11:21:16Z</time>
      </trkpt>
      <trkpt lat="44.55" lon="6.07842">
        <ele>780.15</ele>
        <time>2016-04-12T11:21:20Z</time>
      </trkpt>
      <trkpt lat="44.55052" lon="6.07857">
        <ele>776.92</ele>
        <time>2016-04-12T11:21:25Z</time>
      </trkpt>
      <trkpt lat="44.55103" lon="6.0787">
        <ele>773.85</ele>
        <time>2016-04-12T11:21:30Z</time>
      </trkpt>
      <trkpt lat="44.55141" lon="6.07873">
        <ele>770.06</ele>
        <time>2016-04-12T11:21:34Z</time>
      </trkpt>
      <trkpt lat="44.55149" lon="6.07872">
        <ele>769.18</ele>
        <time>2016-04-12T11:21:35Z</time>
      </trkpt>
      <trkpt lat="44.55183" lon="6.07867">
        <ele>765.91</ele>
        <time>2016-04-12T11:21:39Z</time>
      </trkpt>
      <trkpt lat="44.55192" lon="6.07867">
        <ele>765.23</ele>
        <time>2016-04-12T11:21:40Z</time>
      </trkpt>
      <trkpt lat="44.55201" lon="6.07869">
        <ele>764.53</ele>
        <time>2016-04-12T11:21:41Z</time>
      </trkpt>
      <trkpt lat="44.55256" lon="6.07889">
        <ele>761.06</ele>
        <time>2016-04-12T11:21:47Z</time>
      </trkpt>
      <trkpt lat="44.55275" lon="6.07892">
        <ele>759.86</ele>
        <time>2016-04-12T11:21:49Z</time>
      </trkpt>
      <trkpt lat="44.55284" lon="6.07891">
        <ele>759.27</ele>
        <time>2016-04-12T11:21:50Z</time>
      </trkpt>
      <trkpt lat="44.55324" lon="6.07883">
        <ele>755.85</ele>
        <time>2016-04-12T11:21:55Z</time>
      </trkpt>
      <trkpt lat="44.55335" lon="6.07881">
        <ele>754.48</ele>
        <time>2016-04-12T11:21:57Z</time>
      </trkpt>
      <trkpt lat="44.5534" lon="6.0788">
        <ele>753.11</ele>
        <time>2016-04-12T11:21:58Z</time>
      </trkpt>
      <trkpt lat="44.55345" lon="6.07879">
        <ele>752.47</ele>
        <time>2016-04-12T11:21:59Z</time>
      </trkpt>
      <trkpt lat="44.55349" lon="6.07879">
        <ele>751.86</ele>
        <time>2016-04-12T11:22:00Z</time>
      </trkpt>
      <trkpt lat="44.55354" lon="6.07879">
        <ele>751.27</ele>
        <time>2016-04-12T11:22:01Z</time>
      </trkpt>
      <trkpt lat="44.55359" lon="6.0788">
        <ele>750.69</ele>
        <time>2016-04-12T11:22:02Z</time>
      </trkpt>
      <trkpt lat="44.55413" lon="6.07893">
        <ele>747.63</ele>
        <time>2016-04-12T11:22:10Z</time>
      </trkpt>
      <trkpt lat="44.55498" lon="6.07917">
        <ele>744.38</ele>
        <time>2016-04-12T11:22:21Z</time>
      </trkpt>
      <trkpt lat="44.55509" lon="6.07923">
        <ele>741.17</ele>
        <time>2016-04-12T11:22:29Z</time>
      </trkpt>
      <trkpt lat="44.5551" lon="6.07918">
        <ele>740.11</ele>
        <time>2016-04-12T11:23:24Z</time>
      </trkpt>
      <trkpt lat="44.55513" lon="6.07918">
        <ele>740.79</ele>
        <time>2016-04-12T11:24:28Z</time>
      </trkpt>
      <trkpt lat="44.5551" lon="6.07916">
        <ele>740.73</ele>
        <time>2016-04-12T11:25:10Z</time>
      </trkpt>
      <trkpt lat="44.55509" lon="6.07917">
        <ele>741</ele>
        <time>2016-04-12T11:25:50Z</time>
      </trkpt>
      <trkpt lat="44.5551" lon="6.07914">
        <ele>740.54</ele>
        <time>2016-04-12T11:26:22Z</time>
      </trkpt>
      <trkpt lat="44.55513" lon="6.07908">
        <ele>740.49</ele>
        <time>2016-04-12T11:26:59Z</time>
      </trkpt>
      <trkpt lat="44.5551" lon="6.07913">
        <ele>741.5</ele>
        <time>2016-04-12T11:27:33Z</time>
      </trkpt>
      <trkpt lat="44.55511" lon="6.07916">
        <ele>741.76</ele>
        <time>2016-04-12T11:28:13Z</time>
      </trkpt>
      <trkpt lat="44.55513" lon="6.07915">
        <ele>741.31</ele>
        <time>2016-04-12T11:28:41Z</time>
      </trkpt>
      <trkpt lat="44.55517" lon="6.07913">
        <ele>741.25</ele>
        <time>2016-04-12T11:28:43Z</time>
      </trkpt>
      <trkpt lat="44.55572" lon="6.07888">
        <ele>741.36</ele>
        <time>2016-04-12T11:28:59Z</time>
      </trkpt>
      <trkpt lat="44.55581" lon="6.07882">
        <ele>741.49</ele>
        <time>2016-04-12T11:29:14Z</time>
      </trkpt>
      <trkpt lat="44.55583" lon="6.07881">
        <ele>741.48</ele>
        <time>2016-04-12T11:29:15Z</time>
      </trkpt>
      <trkpt lat="44.55585" lon="6.07878">
        <ele>741.47</ele>
        <time>2016-04-12T11:29:16Z</time>
      </trkpt>
      <trkpt lat="44.55588" lon="6.07875">
        <ele>741.51</ele>
        <time>2016-04-12T11:29:17Z</time>
      </trkpt>
      <trkpt lat="44.55591" lon="6.0787">
        <ele>741.62</ele>
        <time>2016-04-12T11:29:18Z</time>
      </trkpt>
      <trkpt lat="44.55592" lon="6.07865">
        <ele>741.74</ele>
        <time>2016-04-12T11:29:19Z</time>
      </trkpt>
      <trkpt lat="44.55593" lon="6.07859">
        <ele>741.84</ele>
        <time>2016-04-12T11:29:20Z</time>
      </trkpt>
      <trkpt lat="44.55593" lon="6.07852">
        <ele>742.04</ele>
        <time>2016-04-12T11:29:21Z</time>
      </trkpt>
      <trkpt lat="44.55593" lon="6.07846">
        <ele>742.11</ele>
        <time>2016-04-12T11:29:22Z</time>
      </trkpt>
      <trkpt lat="44.55593" lon="6.07839">
        <ele>742.18</ele>
        <time>2016-04-12T11:29:23Z</time>
      </trkpt>
      <trkpt lat="44.55594" lon="6.07833">
        <ele>742.22</ele>
        <time>2016-04-12T11:29:24Z</time>
      </trkpt>
      <trkpt lat="44.55596" lon="6.07826">
        <ele>742.25</ele>
        <time>2016-04-12T11:29:25Z</time>
      </trkpt>
      <trkpt lat="44.55598" lon="6.0782">
        <ele>742.23</ele>
        <time>2016-04-12T11:29:26Z</time>
      </trkpt>
      <trkpt lat="44.55601" lon="6.07814">
        <ele>742.16</ele>
        <time>2016-04-12T11:29:27Z</time>
      </trkpt>
      <trkpt lat="44.5565" lon="6.07735">
        <ele>742.85</ele>
        <time>2016-04-12T11:29:45Z</time>
      </trkpt>
      <trkpt lat="44.55664" lon="6.07716">
        <ele>744.51</ele>
        <time>2016-04-12T11:29:54Z</time>
      </trkpt>
      <trkpt lat="44.55663" lon="6.07711">
        <ele>744.65</ele>
        <time>2016-04-12T11:29:57Z</time>
      </trkpt>
      <trkpt lat="44.55663" lon="6.07709">
        <ele>744.68</ele>
        <time>2016-04-12T11:29:58Z</time>
      </trkpt>
      <trkpt lat="44.55666" lon="6.07696">
        <ele>744.78</ele>
        <time>2016-04-12T11:30:02Z</time>
      </trkpt>
      <trkpt lat="44.55666" lon="6.07693">
        <ele>744.81</ele>
        <time>2016-04-12T11:30:03Z</time>
      </trkpt>
      <trkpt lat="44.55665" lon="6.07689">
        <ele>744.86</ele>
        <time>2016-04-12T11:30:04Z</time>
      </trkpt>
      <trkpt lat="44.55665" lon="6.07686">
        <ele>744.95</ele>
        <time>2016-04-12T11:30:05Z</time>
      </trkpt>
      <trkpt lat="44.55665" lon="6.07684">
        <ele>745.04</ele>
        <time>2016-04-12T11:30:06Z</time>
      </trkpt>
      <trkpt lat="44.55665" lon="6.07682">
        <ele>745.13</ele>
        <time>2016-04-12T11:30:07Z</time>
      </trkpt>
      <trkpt lat="44.55663" lon="6.07675">
        <ele>745.39</ele>
        <time>2016-04-12T11:30:12Z</time>
      </trkpt>
      <trkpt lat="44.5566" lon="6.07668">
        <ele>745.53</ele>
        <time>2016-04-12T11:30:15Z</time>
      </trkpt>
      <trkpt lat="44.55659" lon="6.07665">
        <ele>745.6</ele>
        <time>2016-04-12T11:30:16Z</time>
      </trkpt>
      <trkpt lat="44.55658" lon="6.07661">
        <ele>745.67</ele>
        <time>2016-04-12T11:30:17Z</time>
      </trkpt>
      <trkpt lat="44.55657" lon="6.07658">
        <ele>745.73</ele>
        <time>2016-04-12T11:30:18Z</time>
      </trkpt>
      <trkpt lat="44.55655" lon="6.07655">
        <ele>745.8</ele>
        <time>2016-04-12T11:30:19Z</time>
      </trkpt>
      <trkpt lat="44.55653" lon="6.07653">
        <ele>745.86</ele>
        <time>2016-04-12T11:30:20Z</time>
      </trkpt>
      <trkpt lat="44.55651" lon="6.07651">
        <ele>745.92</ele>
        <time>2016-04-12T11:30:21Z</time>
      </trkpt>
      <trkpt lat="44.55621" lon="6.07616">
        <ele>746.03</ele>
        <time>2016-04-12T11:30:37Z</time>
      </trkpt>
      <trkpt lat="44.55584" lon="6.07572">
        <ele>746.51</ele>
        <time>2016-04-12T11:30:51Z</time>
      </trkpt>
      <trkpt lat="44.55573" lon="6.07558">
        <ele>746.88</ele>
        <time>2016-04-12T11:30:57Z</time>
      </trkpt>
      <trkpt lat="44.5557" lon="6.07555">
        <ele>746.94</ele>
        <time>2016-04-12T11:30:58Z</time>
      </trkpt>
      <trkpt lat="44.55517" lon="6.07497">
        <ele>747.23</ele>
        <time>2016-04-12T11:31:13Z</time>
      </trkpt>
      <trkpt lat="44.55472" lon="6.07426">
        <ele>747.6</ele>
        <time>2016-04-12T11:31:32Z</time>
      </trkpt>
      <trkpt lat="44.55446" lon="6.07396">
        <ele>748.32</ele>
        <time>2016-04-12T11:31:44Z</time>
      </trkpt>
      <trkpt lat="44.55427" lon="6.07376">
        <ele>748.48</ele>
        <time>2016-04-12T11:31:55Z</time>
      </trkpt>
      <trkpt lat="44.55426" lon="6.07375">
        <ele>748.57</ele>
        <time>2016-04-12T11:31:56Z</time>
      </trkpt>
      <trkpt lat="44.55424" lon="6.07372">
        <ele>748.65</ele>
        <time>2016-04-12T11:31:57Z</time>
      </trkpt>
      <trkpt lat="44.55422" lon="6.07369">
        <ele>748.75</ele>
        <time>2016-04-12T11:31:58Z</time>
      </trkpt>
      <trkpt lat="44.55419" lon="6.07366">
        <ele>748.85</ele>
        <time>2016-04-12T11:31:59Z</time>
      </trkpt>
      <trkpt lat="44.55417" lon="6.07363">
        <ele>748.92</ele>
        <time>2016-04-12T11:32:00Z</time>
      </trkpt>
      <trkpt lat="44.55388" lon="6.07334">
        <ele>750.11</ele>
        <time>2016-04-12T11:32:16Z</time>
      </trkpt>
      <trkpt lat="44.55387" lon="6.07332">
        <ele>750.15</ele>
        <time>2016-04-12T11:32:17Z</time>
      </trkpt>
      <trkpt lat="44.55385" lon="6.0733">
        <ele>750.21</ele>
        <time>2016-04-12T11:32:18Z</time>
      </trkpt>
      <trkpt lat="44.55367" lon="6.07317">
        <ele>750.11</ele>
        <time>2016-04-12T11:32:34Z</time>
      </trkpt>
      <trkpt lat="44.55361" lon="6.07304">
        <ele>750.49</ele>
        <time>2016-04-12T11:33:08Z</time>
      </trkpt>
      <trkpt lat="44.5536" lon="6.07302">
        <ele>750.5</ele>
        <time>2016-04-12T11:33:09Z</time>
      </trkpt>
      <trkpt lat="44.5536" lon="6.07299">
        <ele>750.51</ele>
        <time>2016-04-12T11:33:10Z</time>
      </trkpt>
      <trkpt lat="44.55359" lon="6.07296">
        <ele>750.52</ele>
        <time>2016-04-12T11:33:11Z</time>
      </trkpt>
      <trkpt lat="44.5536" lon="6.07292">
        <ele>750.52</ele>
        <time>2016-04-12T11:33:12Z</time>
      </trkpt>
      <trkpt lat="44.55361" lon="6.07288">
        <ele>750.49</ele>
        <time>2016-04-12T11:33:13Z</time>
      </trkpt>
      <trkpt lat="44.55361" lon="6.07285">
        <ele>750.46</ele>
        <time>2016-04-12T11:33:14Z</time>
      </trkpt>
      <trkpt lat="44.55362" lon="6.07282">
        <ele>750.44</ele>
        <time>2016-04-12T11:33:15Z</time>
      </trkpt>
      <trkpt lat="44.55365" lon="6.07264">
        <ele>750.96</ele>
        <time>2016-04-12T11:33:21Z</time>
      </trkpt>
      <trkpt lat="44.55365" lon="6.07262">
        <ele>751.13</ele>
        <time>2016-04-12T11:33:22Z</time>
      </trkpt>
      <trkpt lat="44.55365" lon="6.07259">
        <ele>751.31</ele>
        <time>2016-04-12T11:33:23Z</time>
      </trkpt>
      <trkpt lat="44.55366" lon="6.07258">
        <ele>751.46</ele>
        <time>2016-04-12T11:33:24Z</time>
      </trkpt>
      <trkpt lat="44.55366" lon="6.07255">
        <ele>751.58</ele>
        <time>2016-04-12T11:33:25Z</time>
      </trkpt>
      <trkpt lat="44.55364" lon="6.07234">
        <ele>752.24</ele>
        <time>2016-04-12T11:33:35Z</time>
      </trkpt>
      <trkpt lat="44.55366" lon="6.07222">
        <ele>752.12</ele>
        <time>2016-04-12T11:34:01Z</time>
      </trkpt>
      <trkpt lat="44.55368" lon="6.07205">
        <ele>752.53</ele>
        <time>2016-04-12T11:34:09Z</time>
      </trkpt>
      <trkpt lat="44.5537" lon="6.07185">
        <ele>753.92</ele>
        <time>2016-04-12T11:34:25Z</time>
      </trkpt>
      <trkpt lat="44.55371" lon="6.07183">
        <ele>753.97</ele>
        <time>2016-04-12T11:34:26Z</time>
      </trkpt>
      <trkpt lat="44.55371" lon="6.07182">
        <ele>754.02</ele>
        <time>2016-04-12T11:34:27Z</time>
      </trkpt>
      <trkpt lat="44.55372" lon="6.0718">
        <ele>754.07</ele>
        <time>2016-04-12T11:34:28Z</time>
      </trkpt>
      <trkpt lat="44.55372" lon="6.07178">
        <ele>754.13</ele>
        <time>2016-04-12T11:34:29Z</time>
      </trkpt>
      <trkpt lat="44.55374" lon="6.07176">
        <ele>754.23</ele>
        <time>2016-04-12T11:34:31Z</time>
      </trkpt>
      <trkpt lat="44.55375" lon="6.07175">
        <ele>754.28</ele>
        <time>2016-04-12T11:34:32Z</time>
      </trkpt>
      <trkpt lat="44.55394" lon="6.07147">
        <ele>757.25</ele>
        <time>2016-04-12T11:34:55Z</time>
      </trkpt>
      <trkpt lat="44.5542" lon="6.07113">
        <ele>760.38</ele>
        <time>2016-04-12T11:35:18Z</time>
      </trkpt>
      <trkpt lat="44.55428" lon="6.07098">
        <ele>761.97</ele>
        <time>2016-04-12T11:35:29Z</time>
      </trkpt>
      <trkpt lat="44.55429" lon="6.07097">
        <ele>762.09</ele>
        <time>2016-04-12T11:35:30Z</time>
      </trkpt>
      <trkpt lat="44.55451" lon="6.07071">
        <ele>765.12</ele>
        <time>2016-04-12T11:35:53Z</time>
      </trkpt>
      <trkpt lat="44.55466" lon="6.07045">
        <ele>767.77</ele>
        <time>2016-04-12T11:36:12Z</time>
      </trkpt>
      <trkpt lat="44.55466" lon="6.07043">
        <ele>767.93</ele>
        <time>2016-04-12T11:36:13Z</time>
      </trkpt>
      <trkpt lat="44.55467" lon="6.07037">
        <ele>768.45</ele>
        <time>2016-04-12T11:36:38Z</time>
      </trkpt>
      <trkpt lat="44.55474" lon="6.07035">
        <ele>768.69</ele>
        <time>2016-04-12T11:36:56Z</time>
      </trkpt>
      <trkpt lat="44.55475" lon="6.07034">
        <ele>768.74</ele>
        <time>2016-04-12T11:36:57Z</time>
      </trkpt>
      <trkpt lat="44.55476" lon="6.07033">
        <ele>768.79</ele>
        <time>2016-04-12T11:36:58Z</time>
      </trkpt>
      <trkpt lat="44.55486" lon="6.07017">
        <ele>770.09</ele>
        <time>2016-04-12T11:37:23Z</time>
      </trkpt>
      <trkpt lat="44.55487" lon="6.07016">
        <ele>770.1</ele>
        <time>2016-04-12T11:37:24Z</time>
      </trkpt>
      <trkpt lat="44.55489" lon="6.07013">
        <ele>770.11</ele>
        <time>2016-04-12T11:37:26Z</time>
      </trkpt>
      <trkpt lat="44.5549" lon="6.07012">
        <ele>770.11</ele>
        <time>2016-04-12T11:37:27Z</time>
      </trkpt>
      <trkpt lat="44.55504" lon="6.06976">
        <ele>773.14</ele>
        <time>2016-04-12T11:37:49Z</time>
      </trkpt>
      <trkpt lat="44.55513" lon="6.06983">
        <ele>773.51</ele>
        <time>2016-04-12T11:38:16Z</time>
      </trkpt>
      <trkpt lat="44.55514" lon="6.06984">
        <ele>773.54</ele>
        <time>2016-04-12T11:38:17Z</time>
      </trkpt>
      <trkpt lat="44.55524" lon="6.06984">
        <ele>774.45</ele>
        <time>2016-04-12T11:38:35Z</time>
      </trkpt>
      <trkpt lat="44.55535" lon="6.06976">
        <ele>776.75</ele>
        <time>2016-04-12T11:38:57Z</time>
      </trkpt>
      <trkpt lat="44.55538" lon="6.06977">
        <ele>776.77</ele>
        <time>2016-04-12T11:39:25Z</time>
      </trkpt>
      <trkpt lat="44.5554" lon="6.06974">
        <ele>776.92</ele>
        <time>2016-04-12T11:39:51Z</time>
      </trkpt>
      <trkpt lat="44.55539" lon="6.06976">
        <ele>776.86</ele>
        <time>2016-04-12T11:40:13Z</time>
      </trkpt>
      <trkpt lat="44.55538" lon="6.06977">
        <ele>776.85</ele>
        <time>2016-04-12T11:40:14Z</time>
      </trkpt>
      <trkpt lat="44.55533" lon="6.0697">
        <ele>776.58</ele>
        <time>2016-04-12T11:41:42Z</time>
      </trkpt>
      <trkpt lat="44.55535" lon="6.06975">
        <ele>777.12</ele>
        <time>2016-04-12T11:42:01Z</time>
      </trkpt>
      <trkpt lat="44.55533" lon="6.06974">
        <ele>760.88</ele>
        <time>2016-04-12T11:42:21Z</time>
      </trkpt>
    </trkseg>
  </trk>
</gpx>